<?xml version='1.0' encoding='UTF-8'?><gpx version="1.1" creator="JPX - https://github.com/jenetics/jpx" xmlns="http://www.topografix.com/GPX/1/1"><trk><trkseg><trkpt lat="43.311478656393405" lon="10.523159149353774"><ele>18.0</ele><time>2026-04-17T15:55:05Z</time></trkpt><trkpt lat="43.31153134946854" lon="10.523095678786742"><ele>18.0</ele><time>2026-04-17T15:55:13Z</time></trkpt><trkpt lat="43.311597321823214" lon="10.523071469329595"><ele>18.0</ele><time>2026-04-17T15:55:19.3Z</time></trkpt><trkpt lat="43.31169788242782" lon="10.523008472532984"><ele>18.0</ele><time>2026-04-17T15:55:24.05Z</time></trkpt><trkpt lat="43.31175321370687" lon="10.522967001725359"><ele>18.0</ele><time>2026-04-17T15:55:28Z</time></trkpt><trkpt lat="43.31180381721925" lon="10.522904142748281"><ele>18.0</ele><time>2026-04-17T15:55:33Z</time></trkpt><trkpt lat="43.31186696185394" lon="10.522852942889893"><ele>18.142857142857146</ele><time>2026-04-17T15:55:38Z</time></trkpt><trkpt lat="43.31193624469918" lon="10.522849329326814"><ele>18.285714285714285</ele><time>2026-04-17T15:55:42Z</time></trkpt><trkpt lat="43.312014064422115" lon="10.522835011837218"><ele>18.42857142857143</ele><time>2026-04-17T15:55:46Z</time></trkpt><trkpt lat="43.31207881677324" lon="10.522842923343317"><ele>18.571428571428573</ele><time>2026-04-17T15:55:49Z</time></trkpt><trkpt lat="43.31214772157589" lon="10.522867922123904"><ele>18.714285714285715</ele><time>2026-04-17T15:55:54Z</time></trkpt><trkpt lat="43.31221363342708" lon="10.522848125050185"><ele>18.857142857142858</ele><time>2026-04-17T15:55:58Z</time></trkpt><trkpt lat="43.31227329807167" lon="10.522814617331859"><ele>19.0</ele><time>2026-04-17T15:56:02.001Z</time></trkpt><trkpt lat="43.312297268639625" lon="10.522730878628789"><ele>19.142857142857142</ele><time>2026-04-17T15:56:07.001Z</time></trkpt><trkpt lat="43.31232867545332" lon="10.522646825703562"><ele>19.28571428571429</ele><time>2026-04-17T15:56:13.001Z</time></trkpt><trkpt lat="43.312399405358256" lon="10.522593675015504"><ele>19.42857142857143</ele><time>2026-04-17T15:56:20.001Z</time></trkpt><trkpt lat="43.312463930391814" lon="10.522553117525852"><ele>19.57142857142857</ele><time>2026-04-17T15:56:24.001Z</time></trkpt><trkpt lat="43.31252240647068" lon="10.522519692178548"><ele>19.714285714285715</ele><time>2026-04-17T15:56:29.001Z</time></trkpt><trkpt lat="43.312591675361986" lon="10.522493745343874"><ele>19.857142857142858</ele><time>2026-04-17T15:56:33.001Z</time></trkpt><trkpt lat="43.31265248649681" lon="10.522469732689855"><ele>20.0</ele><time>2026-04-17T15:56:37.001Z</time></trkpt><trkpt lat="43.31271117536552" lon="10.522435817212957"><ele>20.0</ele><time>2026-04-17T15:56:41.001Z</time></trkpt><trkpt lat="43.31278750780755" lon="10.522410019789282"><ele>20.0</ele><time>2026-04-17T15:56:46.001Z</time></trkpt><trkpt lat="43.31285997782674" lon="10.52239022024256"><ele>20.0</ele><time>2026-04-17T15:56:50.001Z</time></trkpt><trkpt lat="43.312925225563234" lon="10.522359395369937"><ele>20.0</ele><time>2026-04-17T15:56:54.001Z</time></trkpt><trkpt lat="43.31298561898969" lon="10.522316461080962"><ele>20.0</ele><time>2026-04-17T15:56:58.001Z</time></trkpt><trkpt lat="43.31305357667682" lon="10.522251058207237"><ele>20.0</ele><time>2026-04-17T15:57:02.001Z</time></trkpt><trkpt lat="43.31312179275954" lon="10.522204674752523"><ele>20.0</ele><time>2026-04-17T15:57:07.001Z</time></trkpt><trkpt lat="43.313182516225055" lon="10.522176197727722"><ele>19.833333333333336</ele><time>2026-04-17T15:57:10.001Z</time></trkpt><trkpt lat="43.31323288884346" lon="10.522093508628773"><ele>19.666666666666668</ele><time>2026-04-17T15:57:13.001Z</time></trkpt><trkpt lat="43.313288441778035" lon="10.5220203115187"><ele>19.5</ele><time>2026-04-17T15:57:16.001Z</time></trkpt><trkpt lat="43.31336942714554" lon="10.522004793270593"><ele>19.333333333333332</ele><time>2026-04-17T15:57:19.001Z</time></trkpt><trkpt lat="43.31343125132548" lon="10.521953448446762"><ele>19.166666666666664</ele><time>2026-04-17T15:57:24.001Z</time></trkpt><trkpt lat="43.31347876163974" lon="10.521876713331038"><ele>19.0</ele><time>2026-04-17T15:57:29Z</time></trkpt><trkpt lat="43.313522038728046" lon="10.521798385190971"><ele>19.0</ele><time>2026-04-17T15:57:34Z</time></trkpt><trkpt lat="43.31354438451702" lon="10.521717142808031"><ele>19.0</ele><time>2026-04-17T15:57:38Z</time></trkpt><trkpt lat="43.31357118663231" lon="10.521634450396068"><ele>19.0</ele><time>2026-04-17T15:57:42Z</time></trkpt><trkpt lat="43.31359100907005" lon="10.521550831337908"><ele>19.0</ele><time>2026-04-17T15:57:45Z</time></trkpt><trkpt lat="43.3136183703658" lon="10.521467062868993"><ele>19.0</ele><time>2026-04-17T15:57:49Z</time></trkpt><trkpt lat="43.31364789941798" lon="10.521380294408221"><ele>19.0</ele><time>2026-04-17T15:57:53Z</time></trkpt><trkpt lat="43.31367160334368" lon="10.5212961489071"><ele>19.0</ele><time>2026-04-17T15:57:57Z</time></trkpt><trkpt lat="43.31372020502431" lon="10.521228393256768"><ele>19.0</ele><time>2026-04-17T15:58:01Z</time></trkpt><trkpt lat="43.31376178300945" lon="10.521135348680435"><ele>19.0</ele><time>2026-04-17T15:58:05Z</time></trkpt><trkpt lat="43.313794232442504" lon="10.521056664951912"><ele>19.0</ele><time>2026-04-17T15:58:09Z</time></trkpt><trkpt lat="43.31383401537436" lon="10.520984404475868"><ele>19.0</ele><time>2026-04-17T15:58:13Z</time></trkpt><trkpt lat="43.31389262844604" lon="10.520930124868654"><ele>19.0</ele><time>2026-04-17T15:58:20Z</time></trkpt><trkpt lat="43.31396749136647" lon="10.520894446386345"><ele>19.0</ele><time>2026-04-17T15:58:25Z</time></trkpt><trkpt lat="43.31403117429368" lon="10.520862615740755"><ele>19.0</ele><time>2026-04-17T15:58:29Z</time></trkpt><trkpt lat="43.314087674853624" lon="10.520816156568445"><ele>18.71428571428571</ele><time>2026-04-17T15:58:33Z</time></trkpt><trkpt lat="43.314149820781644" lon="10.520789934133878"><ele>18.42857142857143</ele><time>2026-04-17T15:58:36Z</time></trkpt><trkpt lat="43.31421564085368" lon="10.520776804736348"><ele>18.142857142857142</ele><time>2026-04-17T15:58:41Z</time></trkpt><trkpt lat="43.31430124451222" lon="10.520708489057428"><ele>17.857142857142854</ele><time>2026-04-17T15:58:45Z</time></trkpt><trkpt lat="43.314368547946074" lon="10.520681886152069"><ele>17.57142857142857</ele><time>2026-04-17T15:58:48Z</time></trkpt><trkpt lat="43.314434894871184" lon="10.52068153055228"><ele>17.285714285714285</ele><time>2026-04-17T15:58:52Z</time></trkpt><trkpt lat="43.314500609234" lon="10.52066698974464"><ele>17.0</ele><time>2026-04-17T15:58:55Z</time></trkpt><trkpt lat="43.31457464318772" lon="10.520643215629399"><ele>17.0</ele><time>2026-04-17T15:58:59.001Z</time></trkpt><trkpt lat="43.31464385021974" lon="10.52062307107322"><ele>17.0</ele><time>2026-04-17T15:59:03.001Z</time></trkpt><trkpt lat="43.3147247295774" lon="10.520632733286266"><ele>17.0</ele><time>2026-04-17T15:59:07.001Z</time></trkpt><trkpt lat="43.31479906601086" lon="10.520681807513101"><ele>17.0</ele><time>2026-04-17T15:59:12.001Z</time></trkpt><trkpt lat="43.314878616811896" lon="10.520667230659729"><ele>17.0</ele><time>2026-04-17T15:59:16Z</time></trkpt><trkpt lat="43.314952382599536" lon="10.520677386281841"><ele>17.0</ele><time>2026-04-17T15:59:20Z</time></trkpt><trkpt lat="43.31502267093828" lon="10.520678105982167"><ele>16.71428571428571</ele><time>2026-04-17T15:59:24Z</time></trkpt><trkpt lat="43.31509664662307" lon="10.520666111434055"><ele>16.428571428571427</ele><time>2026-04-17T15:59:28Z</time></trkpt><trkpt lat="43.31516440240671" lon="10.520669874590306"><ele>16.142857142857142</ele><time>2026-04-17T15:59:32Z</time></trkpt><trkpt lat="43.315205897466655" lon="10.520589662026751"><ele>15.857142857142856</ele><time>2026-04-17T15:59:41Z</time></trkpt><trkpt lat="43.31525244907355" lon="10.520523924426723"><ele>15.57142857142857</ele><time>2026-04-17T15:59:44Z</time></trkpt><trkpt lat="43.31525309625336" lon="10.520419668824252"><ele>15.285714285714286</ele><time>2026-04-17T15:59:48Z</time></trkpt><trkpt lat="43.315229494758206" lon="10.520338077583116"><ele>15.0</ele><time>2026-04-17T15:59:54Z</time></trkpt><trkpt lat="43.31516924931479" lon="10.520304764736474"><ele>15.571428571428573</ele><time>2026-04-17T15:59:57Z</time></trkpt><trkpt lat="43.31510885260454" lon="10.520226660077888"><ele>16.142857142857142</ele><time>2026-04-17T16:00:01Z</time></trkpt><trkpt lat="43.315073294426504" lon="10.5201203754991"><ele>16.714285714285715</ele><time>2026-04-17T16:00:05Z</time></trkpt><trkpt lat="43.31504913905861" lon="10.520025837928134"><ele>17.285714285714285</ele><time>2026-04-17T16:00:08Z</time></trkpt><trkpt lat="43.31501451611317" lon="10.519945300894632"><ele>17.857142857142858</ele><time>2026-04-17T16:00:13Z</time></trkpt><trkpt lat="43.31499089370841" lon="10.519864799732948"><ele>18.428571428571427</ele><time>2026-04-17T16:00:17Z</time></trkpt><trkpt lat="43.31498583259351" lon="10.519773567003533"><ele>19.0</ele><time>2026-04-17T16:00:20Z</time></trkpt><trkpt lat="43.3150046307678" lon="10.519688254109605"><ele>19.0</ele><time>2026-04-17T16:00:25Z</time></trkpt><trkpt lat="43.31499000622758" lon="10.519598839843674"><ele>19.0</ele><time>2026-04-17T16:00:29Z</time></trkpt><trkpt lat="43.314956196824156" lon="10.519523128860452"><ele>19.0</ele><time>2026-04-17T16:00:33Z</time></trkpt><trkpt lat="43.314920346064554" lon="10.51943533213005"><ele>19.0</ele><time>2026-04-17T16:00:36Z</time></trkpt><trkpt lat="43.31487248463469" lon="10.519354152610681"><ele>19.0</ele><time>2026-04-17T16:00:39Z</time></trkpt><trkpt lat="43.314829527663754" lon="10.519268717342486"><ele>19.0</ele><time>2026-04-17T16:00:42Z</time></trkpt><trkpt lat="43.31479922857278" lon="10.519163832949674"><ele>19.0</ele><time>2026-04-17T16:00:47Z</time></trkpt><trkpt lat="43.31479226789015" lon="10.519068823960994"><ele>19.0</ele><time>2026-04-17T16:00:51Z</time></trkpt><trkpt lat="43.31479813812824" lon="10.518965893328497"><ele>19.0</ele><time>2026-04-17T16:00:58Z</time></trkpt><trkpt lat="43.31476316263076" lon="10.518875174356479"><ele>19.0</ele><time>2026-04-17T16:01:02Z</time></trkpt><trkpt lat="43.31468584034368" lon="10.51881418939115"><ele>19.0</ele><time>2026-04-17T16:01:05Z</time></trkpt><trkpt lat="43.314649613501125" lon="10.518729091391341"><ele>19.0</ele><time>2026-04-17T16:01:08Z</time></trkpt><trkpt lat="43.314622181547335" lon="10.518636343727968"><ele>19.0</ele><time>2026-04-17T16:01:11Z</time></trkpt><trkpt lat="43.31459880380248" lon="10.518542676272494"><ele>18.428571428571427</ele><time>2026-04-17T16:01:16Z</time></trkpt><trkpt lat="43.314596594299545" lon="10.51844548588491"><ele>17.857142857142858</ele><time>2026-04-17T16:01:21Z</time></trkpt><trkpt lat="43.31457826110225" lon="10.518348781017385"><ele>17.285714285714285</ele><time>2026-04-17T16:01:26Z</time></trkpt><trkpt lat="43.31455806405968" lon="10.518250200290703"><ele>16.714285714285715</ele><time>2026-04-17T16:01:30Z</time></trkpt><trkpt lat="43.31453300131308" lon="10.518144322709883"><ele>16.142857142857142</ele><time>2026-04-17T16:01:34Z</time></trkpt><trkpt lat="43.314481204442544" lon="10.51808728963766"><ele>15.571428571428573</ele><time>2026-04-17T16:01:37Z</time></trkpt><trkpt lat="43.314446298936254" lon="10.518014290505992"><ele>15.0</ele><time>2026-04-17T16:01:41Z</time></trkpt><trkpt lat="43.314429524211874" lon="10.51792588034449"><ele>14.857142857142858</ele><time>2026-04-17T16:01:45Z</time></trkpt><trkpt lat="43.31440810685207" lon="10.517844403761227"><ele>14.714285714285714</ele><time>2026-04-17T16:01:51Z</time></trkpt><trkpt lat="43.31441086953283" lon="10.517747557008569"><ele>14.571428571428571</ele><time>2026-04-17T16:01:54Z</time></trkpt><trkpt lat="43.314396588084634" lon="10.517639614444612"><ele>14.428571428571429</ele><time>2026-04-17T16:01:58Z</time></trkpt><trkpt lat="43.31437865138289" lon="10.517540291680307"><ele>14.285714285714285</ele><time>2026-04-17T16:02:02Z</time></trkpt><trkpt lat="43.314335728953154" lon="10.51744847794428"><ele>14.142857142857142</ele><time>2026-04-17T16:02:06Z</time></trkpt><trkpt lat="43.314309533978374" lon="10.517360990410594"><ele>14.0</ele><time>2026-04-17T16:02:10Z</time></trkpt><trkpt lat="43.314289826002735" lon="10.51727753999918"><ele>14.0</ele><time>2026-04-17T16:02:14Z</time></trkpt><trkpt lat="43.314263964174806" lon="10.51719294763138"><ele>14.0</ele><time>2026-04-17T16:02:19Z</time></trkpt><trkpt lat="43.31424736756608" lon="10.517093644542568"><ele>14.0</ele><time>2026-04-17T16:02:23Z</time></trkpt><trkpt lat="43.314234017063946" lon="10.51700516930843"><ele>14.0</ele><time>2026-04-17T16:02:28Z</time></trkpt><trkpt lat="43.31421556611326" lon="10.516913181766721"><ele>14.0</ele><time>2026-04-17T16:02:33Z</time></trkpt><trkpt lat="43.314186759536135" lon="10.516831214978572"><ele>14.0</ele><time>2026-04-17T16:02:37Z</time></trkpt><trkpt lat="43.31413317408422" lon="10.516758883059573"><ele>14.0</ele><time>2026-04-17T16:02:41Z</time></trkpt><trkpt lat="43.31408397509793" lon="10.516681368631193"><ele>14.0</ele><time>2026-04-17T16:02:45Z</time></trkpt><trkpt lat="43.31403704022504" lon="10.516593305380539"><ele>14.0</ele><time>2026-04-17T16:02:50Z</time></trkpt><trkpt lat="43.313991111248846" lon="10.516526840127913"><ele>14.0</ele><time>2026-04-17T16:02:54Z</time></trkpt><trkpt lat="43.31396381942071" lon="10.51642093596191"><ele>14.0</ele><time>2026-04-17T16:02:59Z</time></trkpt><trkpt lat="43.31393300177466" lon="10.516342122143286"><ele>14.0</ele><time>2026-04-17T16:03:03Z</time></trkpt><trkpt lat="43.3138855298576" lon="10.516273517886988"><ele>14.0</ele><time>2026-04-17T16:03:07Z</time></trkpt><trkpt lat="43.313907115232155" lon="10.516163451760818"><ele>14.0</ele><time>2026-04-17T16:03:11Z</time></trkpt><trkpt lat="43.31394533434912" lon="10.51608169310728"><ele>13.857142857142858</ele><time>2026-04-17T16:03:15Z</time></trkpt><trkpt lat="43.31394945008953" lon="10.515975325401731"><ele>13.714285714285715</ele><time>2026-04-17T16:03:20Z</time></trkpt><trkpt lat="43.31392623718018" lon="10.515885227168745"><ele>13.571428571428571</ele><time>2026-04-17T16:03:23Z</time></trkpt><trkpt lat="43.31390504441752" lon="10.51579028050209"><ele>13.428571428571429</ele><time>2026-04-17T16:03:27Z</time></trkpt><trkpt lat="43.31390224465322" lon="10.515698325353785"><ele>13.285714285714286</ele><time>2026-04-17T16:03:32Z</time></trkpt><trkpt lat="43.31389171937103" lon="10.515597254018642"><ele>13.142857142857142</ele><time>2026-04-17T16:03:36Z</time></trkpt><trkpt lat="43.31391174149692" lon="10.515506485544794"><ele>13.0</ele><time>2026-04-17T16:03:41Z</time></trkpt><trkpt lat="43.31390399026877" lon="10.515412164818374"><ele>12.333333333333332</ele><time>2026-04-17T16:03:45Z</time></trkpt><trkpt lat="43.31390889570247" lon="10.515307847921086"><ele>11.666666666666666</ele><time>2026-04-17T16:03:51Z</time></trkpt><trkpt lat="43.31397314077408" lon="10.515234737925505"><ele>11.0</ele><time>2026-04-17T16:03:59Z</time></trkpt><trkpt lat="43.31405083546802" lon="10.515208089612084"><ele>10.333333333333332</ele><time>2026-04-17T16:04:03Z</time></trkpt><trkpt lat="43.31411675364522" lon="10.515185776744314"><ele>9.666666666666666</ele><time>2026-04-17T16:04:06Z</time></trkpt><trkpt lat="43.314184643842026" lon="10.515137468750416"><ele>9.0</ele><time>2026-04-17T16:04:10Z</time></trkpt><trkpt lat="43.31424457379692" lon="10.515091638090443"><ele>9.000000000000002</ele><time>2026-04-17T16:04:13Z</time></trkpt><trkpt lat="43.3142489413682" lon="10.5149853752299"><ele>9.0</ele><time>2026-04-17T16:04:19Z</time></trkpt><trkpt lat="43.31429835451293" lon="10.514899965307231"><ele>9.0</ele><time>2026-04-17T16:04:23Z</time></trkpt><trkpt lat="43.3143440225226" lon="10.514838897167706"><ele>9.0</ele><time>2026-04-17T16:04:26Z</time></trkpt><trkpt lat="43.31441270070923" lon="10.514850296109183"><ele>9.0</ele><time>2026-04-17T16:04:32Z</time></trkpt><trkpt lat="43.31449357922352" lon="10.514829261917422"><ele>9.000000000000002</ele><time>2026-04-17T16:04:39Z</time></trkpt><trkpt lat="43.31455338255318" lon="10.514781274027326"><ele>9.0</ele><time>2026-04-17T16:04:43Z</time></trkpt><trkpt lat="43.31461169140238" lon="10.514733525736283"><ele>9.000000000000002</ele><time>2026-04-17T16:04:47Z</time></trkpt><trkpt lat="43.31467004752116" lon="10.514697548017153"><ele>9.0</ele><time>2026-04-17T16:04:51Z</time></trkpt><trkpt lat="43.31472783743802" lon="10.514653955115348"><ele>9.0</ele><time>2026-04-17T16:04:55Z</time></trkpt><trkpt lat="43.3148001963473" lon="10.514601194039749"><ele>9.0</ele><time>2026-04-17T16:04:59Z</time></trkpt><trkpt lat="43.31486949215029" lon="10.514541911246642"><ele>9.0</ele><time>2026-04-17T16:05:02Z</time></trkpt><trkpt lat="43.31493966873556" lon="10.514489272011927"><ele>9.000000000000002</ele><time>2026-04-17T16:05:06Z</time></trkpt><trkpt lat="43.31499692396895" lon="10.514446598671054"><ele>9.0</ele><time>2026-04-17T16:05:10Z</time></trkpt><trkpt lat="43.31505779114399" lon="10.514397732806358"><ele>8.428571428571429</ele><time>2026-04-17T16:05:14Z</time></trkpt><trkpt lat="43.315113556736094" lon="10.51435296905433"><ele>7.857142857142858</ele><time>2026-04-17T16:05:18Z</time></trkpt><trkpt lat="43.31516744767789" lon="10.51430558368564"><ele>7.2857142857142865</ele><time>2026-04-17T16:05:22Z</time></trkpt><trkpt lat="43.31522160396132" lon="10.514255199802275"><ele>6.714285714285715</ele><time>2026-04-17T16:05:26Z</time></trkpt><trkpt lat="43.315286524632924" lon="10.514204468534988"><ele>6.142857142857143</ele><time>2026-04-17T16:05:31Z</time></trkpt><trkpt lat="43.3153472205423" lon="10.514149135296226"><ele>5.571428571428571</ele><time>2026-04-17T16:05:36Z</time></trkpt><trkpt lat="43.31540333506673" lon="10.514103057655735"><ele>5.0</ele><time>2026-04-17T16:05:42Z</time></trkpt><trkpt lat="43.31546385259427" lon="10.51404108640821"><ele>5.0</ele><time>2026-04-17T16:05:48Z</time></trkpt><trkpt lat="43.31551528704619" lon="10.513988398297043"><ele>5.0</ele><time>2026-04-17T16:05:52Z</time></trkpt><trkpt lat="43.315573182396335" lon="10.513940449414278"><ele>5.0</ele><time>2026-04-17T16:05:56Z</time></trkpt><trkpt lat="43.31563730302529" lon="10.513895660483811"><ele>5.0</ele><time>2026-04-17T16:06:00Z</time></trkpt><trkpt lat="43.315699511870775" lon="10.513818271045363"><ele>5.0</ele><time>2026-04-17T16:06:05Z</time></trkpt><trkpt lat="43.3157594213875" lon="10.513785954971357"><ele>5.0</ele><time>2026-04-17T16:06:08Z</time></trkpt><trkpt lat="43.31582580660784" lon="10.513761624180995"><ele>5.0</ele><time>2026-04-17T16:06:11Z</time></trkpt><trkpt lat="43.31590193008253" lon="10.51372155662266"><ele>4.833333333333334</ele><time>2026-04-17T16:06:15Z</time></trkpt><trkpt lat="43.315981441725185" lon="10.513680918714382"><ele>4.666666666666667</ele><time>2026-04-17T16:06:19Z</time></trkpt><trkpt lat="43.316049437175835" lon="10.513636554993678"><ele>4.5</ele><time>2026-04-17T16:06:24Z</time></trkpt><trkpt lat="43.316116951151166" lon="10.51359516704288"><ele>4.333333333333333</ele><time>2026-04-17T16:06:28Z</time></trkpt><trkpt lat="43.31619260147257" lon="10.513567742995095"><ele>4.166666666666666</ele><time>2026-04-17T16:06:32Z</time></trkpt><trkpt lat="43.31626667871983" lon="10.513536811530416"><ele>4.0</ele><time>2026-04-17T16:06:37Z</time></trkpt><trkpt lat="43.31633617870719" lon="10.513511097666314"><ele>3.8571428571428568</ele><time>2026-04-17T16:06:41Z</time></trkpt><trkpt lat="43.31640448164859" lon="10.513485885948139"><ele>3.714285714285714</ele><time>2026-04-17T16:06:44Z</time></trkpt><trkpt lat="43.316482112119175" lon="10.51346831391193"><ele>3.571428571428571</ele><time>2026-04-17T16:06:48Z</time></trkpt><trkpt lat="43.316550697942134" lon="10.513441252073559"><ele>3.4285714285714284</ele><time>2026-04-17T16:06:52Z</time></trkpt><trkpt lat="43.31662010083558" lon="10.513425724737914"><ele>3.2857142857142856</ele><time>2026-04-17T16:06:56Z</time></trkpt><trkpt lat="43.316684206291455" lon="10.513406694763475"><ele>3.1428571428571423</ele><time>2026-04-17T16:07:00Z</time></trkpt><trkpt lat="43.31675761908144" lon="10.513378929609992"><ele>3.0</ele><time>2026-04-17T16:07:04Z</time></trkpt><trkpt lat="43.3168256022288" lon="10.513352888613781"><ele>2.9999999999999996</ele><time>2026-04-17T16:07:08Z</time></trkpt><trkpt lat="43.31689014180419" lon="10.513328639810984"><ele>3.0</ele><time>2026-04-17T16:07:12Z</time></trkpt><trkpt lat="43.31695984831071" lon="10.51329735072601"><ele>3.0</ele><time>2026-04-17T16:07:17Z</time></trkpt><trkpt lat="43.31702885723258" lon="10.513269842688945"><ele>3.0</ele><time>2026-04-17T16:07:22Z</time></trkpt><trkpt lat="43.31709039439125" lon="10.513249254720494"><ele>3.0</ele><time>2026-04-17T16:07:26Z</time></trkpt><trkpt lat="43.31715221856446" lon="10.513226054098395"><ele>2.9999999999999996</ele><time>2026-04-17T16:07:30Z</time></trkpt><trkpt lat="43.317228293761325" lon="10.513207213766627"><ele>3.0</ele><time>2026-04-17T16:07:35Z</time></trkpt><trkpt lat="43.317295476057424" lon="10.513179469240098"><ele>2.8571428571428568</ele><time>2026-04-17T16:07:39Z</time></trkpt><trkpt lat="43.31736081217459" lon="10.513154513446157"><ele>2.7142857142857144</ele><time>2026-04-17T16:07:43Z</time></trkpt><trkpt lat="43.31743688806473" lon="10.513125524831395"><ele>2.571428571428571</ele><time>2026-04-17T16:07:48Z</time></trkpt><trkpt lat="43.317507428322166" lon="10.513099997770693"><ele>2.4285714285714284</ele><time>2026-04-17T16:07:52Z</time></trkpt><trkpt lat="43.31757317303438" lon="10.513076273609517"><ele>2.2857142857142856</ele><time>2026-04-17T16:07:56Z</time></trkpt><trkpt lat="43.31764036311898" lon="10.513047333408982"><ele>2.142857142857143</ele><time>2026-04-17T16:08:00Z</time></trkpt><trkpt lat="43.31770293740913" lon="10.513037730009557"><ele>2.0</ele><time>2026-04-17T16:08:04Z</time></trkpt><trkpt lat="43.31776289706811" lon="10.51300854494712"><ele>2.0</ele><time>2026-04-17T16:08:08Z</time></trkpt><trkpt lat="43.31782719653844" lon="10.512986496280162"><ele>1.9999999999999998</ele><time>2026-04-17T16:08:12Z</time></trkpt><trkpt lat="43.31788743963619" lon="10.512951141518398"><ele>2.0</ele><time>2026-04-17T16:08:15Z</time></trkpt><trkpt lat="43.317956943430865" lon="10.512918423617522"><ele>2.0</ele><time>2026-04-17T16:08:20Z</time></trkpt><trkpt lat="43.31803613484288" lon="10.51289331234398"><ele>1.9999999999999998</ele><time>2026-04-17T16:08:25Z</time></trkpt><trkpt lat="43.31809634513876" lon="10.51286449918559"><ele>2.0</ele><time>2026-04-17T16:08:29Z</time></trkpt><trkpt lat="43.31816105249721" lon="10.512835969513539"><ele>2.0</ele><time>2026-04-17T16:08:33Z</time></trkpt><trkpt lat="43.31822416425587" lon="10.512806631345505"><ele>2.4285714285714284</ele><time>2026-04-17T16:08:37Z</time></trkpt><trkpt lat="43.31829146590721" lon="10.512785512859791"><ele>2.8571428571428568</ele><time>2026-04-17T16:08:41Z</time></trkpt><trkpt lat="43.31835287426111" lon="10.512760050683397"><ele>3.2857142857142856</ele><time>2026-04-17T16:08:45Z</time></trkpt><trkpt lat="43.318421320401086" lon="10.51273903483926"><ele>3.7142857142857144</ele><time>2026-04-17T16:08:49Z</time></trkpt><trkpt lat="43.3184824371706" lon="10.512715070018709"><ele>4.142857142857143</ele><time>2026-04-17T16:08:53Z</time></trkpt><trkpt lat="43.31854969071254" lon="10.51268948384476"><ele>4.571428571428571</ele><time>2026-04-17T16:08:58Z</time></trkpt><trkpt lat="43.3186131953396" lon="10.512669951444147"><ele>5.0</ele><time>2026-04-17T16:09:03Z</time></trkpt><trkpt lat="43.31866999124476" lon="10.51262851167921"><ele>5.0</ele><time>2026-04-17T16:09:07Z</time></trkpt><trkpt lat="43.31873869951078" lon="10.51260044826166"><ele>5.0</ele><time>2026-04-17T16:09:11Z</time></trkpt><trkpt lat="43.3188033286067" lon="10.51256313281655"><ele>5.0</ele><time>2026-04-17T16:09:15Z</time></trkpt><trkpt lat="43.31886866834773" lon="10.512527551917758"><ele>5.0</ele><time>2026-04-17T16:09:19Z</time></trkpt><trkpt lat="43.31893069038489" lon="10.512488569645956"><ele>5.0</ele><time>2026-04-17T16:09:23Z</time></trkpt><trkpt lat="43.318989310654935" lon="10.51245324383934"><ele>5.0</ele><time>2026-04-17T16:09:27Z</time></trkpt><trkpt lat="43.31905228806787" lon="10.512419562017408"><ele>5.0</ele><time>2026-04-17T16:09:31Z</time></trkpt><trkpt lat="43.319114728669675" lon="10.512380228563025"><ele>5.142857142857142</ele><time>2026-04-17T16:09:35Z</time></trkpt><trkpt lat="43.3191723318611" lon="10.512339057941425"><ele>5.285714285714286</ele><time>2026-04-17T16:09:39Z</time></trkpt><trkpt lat="43.31924183899052" lon="10.512295367119497"><ele>5.428571428571429</ele><time>2026-04-17T16:09:44Z</time></trkpt><trkpt lat="43.31930594046213" lon="10.512255693086498"><ele>5.571428571428571</ele><time>2026-04-17T16:09:48Z</time></trkpt><trkpt lat="43.31936860821309" lon="10.512212912870773"><ele>5.714285714285714</ele><time>2026-04-17T16:09:52Z</time></trkpt><trkpt lat="43.31943019826915" lon="10.512178362100281"><ele>5.857142857142857</ele><time>2026-04-17T16:09:56Z</time></trkpt><trkpt lat="43.31948774797567" lon="10.512140457884707"><ele>6.0</ele><time>2026-04-17T16:10:00Z</time></trkpt><trkpt lat="43.31955426911149" lon="10.512100678842774"><ele>5.857142857142857</ele><time>2026-04-17T16:10:04Z</time></trkpt><trkpt lat="43.319617909774465" lon="10.512059844255718"><ele>5.714285714285714</ele><time>2026-04-17T16:10:08Z</time></trkpt><trkpt lat="43.3196802674616" lon="10.512020822083233"><ele>5.571428571428571</ele><time>2026-04-17T16:10:12Z</time></trkpt><trkpt lat="43.31974296181953" lon="10.511980050574795"><ele>5.428571428571429</ele><time>2026-04-17T16:10:16Z</time></trkpt><trkpt lat="43.31980292077217" lon="10.51194588257739"><ele>5.285714285714286</ele><time>2026-04-17T16:10:20Z</time></trkpt><trkpt lat="43.319863453004544" lon="10.51190777274975"><ele>5.142857142857142</ele><time>2026-04-17T16:10:24Z</time></trkpt><trkpt lat="43.319924581075185" lon="10.51187282438613"><ele>5.0</ele><time>2026-04-17T16:10:28Z</time></trkpt><trkpt lat="43.319981472354186" lon="10.511831689236011"><ele>5.0</ele><time>2026-04-17T16:10:32Z</time></trkpt><trkpt lat="43.320042653125846" lon="10.511792240985928"><ele>5.0</ele><time>2026-04-17T16:10:36Z</time></trkpt><trkpt lat="43.3201034304695" lon="10.51175241925852"><ele>5.0</ele><time>2026-04-17T16:10:40Z</time></trkpt><trkpt lat="43.3201651487203" lon="10.511716354182337"><ele>5.0</ele><time>2026-04-17T16:10:44Z</time></trkpt><trkpt lat="43.320227402211565" lon="10.511677614244695"><ele>5.0</ele><time>2026-04-17T16:10:48Z</time></trkpt><trkpt lat="43.32028606984776" lon="10.51163529059143"><ele>5.0</ele><time>2026-04-17T16:10:52Z</time></trkpt><trkpt lat="43.320346010477806" lon="10.511598087204066"><ele>5.0</ele><time>2026-04-17T16:10:56Z</time></trkpt><trkpt lat="43.32040723184868" lon="10.511560874940699"><ele>5.0</ele><time>2026-04-17T16:11:00Z</time></trkpt><trkpt lat="43.320470158073725" lon="10.511525575029115"><ele>5.0</ele><time>2026-04-17T16:11:04Z</time></trkpt><trkpt lat="43.320532972400095" lon="10.511487517191487"><ele>5.0</ele><time>2026-04-17T16:11:08Z</time></trkpt><trkpt lat="43.32059393443093" lon="10.511448426232604"><ele>5.0</ele><time>2026-04-17T16:11:12Z</time></trkpt><trkpt lat="43.32065302998627" lon="10.511411395613688"><ele>5.0</ele><time>2026-04-17T16:11:16Z</time></trkpt><trkpt lat="43.32071389588885" lon="10.511371150714327"><ele>5.0</ele><time>2026-04-17T16:11:20Z</time></trkpt><trkpt lat="43.320775530459436" lon="10.511334275781957"><ele>5.0</ele><time>2026-04-17T16:11:24Z</time></trkpt><trkpt lat="43.320838471643754" lon="10.511301112018053"><ele>5.0</ele><time>2026-04-17T16:11:28Z</time></trkpt><trkpt lat="43.32089977106496" lon="10.511266158827231"><ele>5.0</ele><time>2026-04-17T16:11:32Z</time></trkpt><trkpt lat="43.320957942098225" lon="10.511227611025621"><ele>5.0</ele><time>2026-04-17T16:11:36Z</time></trkpt><trkpt lat="43.32101738301958" lon="10.511190105040743"><ele>5.0</ele><time>2026-04-17T16:11:40Z</time></trkpt><trkpt lat="43.321076260861986" lon="10.511151226309197"><ele>5.0</ele><time>2026-04-17T16:11:44Z</time></trkpt><trkpt lat="43.32113383531339" lon="10.511108529828842"><ele>5.0</ele><time>2026-04-17T16:11:48Z</time></trkpt><trkpt lat="43.32119437985978" lon="10.511073925290258"><ele>5.0</ele><time>2026-04-17T16:11:52Z</time></trkpt><trkpt lat="43.3212542487466" lon="10.511035728004423"><ele>5.0</ele><time>2026-04-17T16:11:56Z</time></trkpt><trkpt lat="43.32131472135948" lon="10.510997991797804"><ele>5.0</ele><time>2026-04-17T16:12:00Z</time></trkpt><trkpt lat="43.32137689518007" lon="10.510963788646846"><ele>5.0</ele><time>2026-04-17T16:12:04Z</time></trkpt><trkpt lat="43.32143366616555" lon="10.510926088813815"><ele>5.0</ele><time>2026-04-17T16:12:08Z</time></trkpt><trkpt lat="43.32150588299253" lon="10.510884923057318"><ele>5.0</ele><time>2026-04-17T16:12:13Z</time></trkpt><trkpt lat="43.32156481397518" lon="10.510841303126247"><ele>5.0</ele><time>2026-04-17T16:12:17Z</time></trkpt><trkpt lat="43.321625249158295" lon="10.51080493082488"><ele>5.0</ele><time>2026-04-17T16:12:21Z</time></trkpt><trkpt lat="43.321680813227346" lon="10.51076261285491"><ele>4.714285714285714</ele><time>2026-04-17T16:12:25Z</time></trkpt><trkpt lat="43.321739572089115" lon="10.510728847792528"><ele>4.428571428571429</ele><time>2026-04-17T16:12:29Z</time></trkpt><trkpt lat="43.321797056142515" lon="10.510693230094251"><ele>4.142857142857142</ele><time>2026-04-17T16:12:33Z</time></trkpt><trkpt lat="43.32185515160913" lon="10.510658251107843"><ele>3.8571428571428568</ele><time>2026-04-17T16:12:37Z</time></trkpt><trkpt lat="43.32191562101259" lon="10.510627723377029"><ele>3.571428571428571</ele><time>2026-04-17T16:12:41Z</time></trkpt><trkpt lat="43.32197492727029" lon="10.510592441134994"><ele>3.2857142857142856</ele><time>2026-04-17T16:12:45Z</time></trkpt><trkpt lat="43.32203458682375" lon="10.510553791910176"><ele>3.0</ele><time>2026-04-17T16:12:49Z</time></trkpt><trkpt lat="43.322093634002215" lon="10.510513607122457"><ele>2.9999999999999996</ele><time>2026-04-17T16:12:53Z</time></trkpt><trkpt lat="43.32215214686088" lon="10.5104758515935"><ele>3.0</ele><time>2026-04-17T16:12:57Z</time></trkpt><trkpt lat="43.32221174257876" lon="10.510433949280111"><ele>3.0</ele><time>2026-04-17T16:13:01Z</time></trkpt><trkpt lat="43.32226994844811" lon="10.510395658078073"><ele>3.0</ele><time>2026-04-17T16:13:05Z</time></trkpt><trkpt lat="43.322328283384394" lon="10.510357109249963"><ele>3.0</ele><time>2026-04-17T16:13:09Z</time></trkpt><trkpt lat="43.32238884196579" lon="10.510318930294412"><ele>2.9999999999999996</ele><time>2026-04-17T16:13:13Z</time></trkpt><trkpt lat="43.32245026411844" lon="10.510282439905703"><ele>3.0</ele><time>2026-04-17T16:13:17Z</time></trkpt><trkpt lat="43.32250840166717" lon="10.5102424527882"><ele>3.2857142857142856</ele><time>2026-04-17T16:13:21Z</time></trkpt><trkpt lat="43.3225681912718" lon="10.510205375324551"><ele>3.571428571428571</ele><time>2026-04-17T16:13:25Z</time></trkpt><trkpt lat="43.322630904209454" lon="10.510170569430853"><ele>3.8571428571428568</ele><time>2026-04-17T16:13:29Z</time></trkpt><trkpt lat="43.32270579998529" lon="10.510137103757792"><ele>4.142857142857142</ele><time>2026-04-17T16:13:34Z</time></trkpt><trkpt lat="43.32276873178793" lon="10.510100021550178"><ele>4.428571428571429</ele><time>2026-04-17T16:13:38Z</time></trkpt><trkpt lat="43.322829283558754" lon="10.510060147157178"><ele>4.714285714285714</ele><time>2026-04-17T16:13:42Z</time></trkpt><trkpt lat="43.3228883339349" lon="10.510023182842001"><ele>5.0</ele><time>2026-04-17T16:13:46Z</time></trkpt><trkpt lat="43.32293356777994" lon="10.509959906286374"><ele>5.0</ele><time>2026-04-17T16:13:50Z</time></trkpt><trkpt lat="43.32295887605013" lon="10.509868162557666"><ele>5.0</ele><time>2026-04-17T16:13:56Z</time></trkpt><trkpt lat="43.3229546977714" lon="10.509760798492895"><ele>5.0</ele><time>2026-04-17T16:14:02Z</time></trkpt><trkpt lat="43.32293524040332" lon="10.509658308838777"><ele>5.0</ele><time>2026-04-17T16:14:07Z</time></trkpt><trkpt lat="43.322930450649004" lon="10.50956409970629"><ele>5.0</ele><time>2026-04-17T16:14:11Z</time></trkpt><trkpt lat="43.32293190131256" lon="10.509474993981874"><ele>5.0</ele><time>2026-04-17T16:14:15Z</time></trkpt><trkpt lat="43.32295257789532" lon="10.509370947430561"><ele>5.0</ele><time>2026-04-17T16:14:19Z</time></trkpt><trkpt lat="43.32298145266028" lon="10.509283114261256"><ele>5.0</ele><time>2026-04-17T16:14:23Z</time></trkpt><trkpt lat="43.32302227740991" lon="10.509204405044958"><ele>5.0</ele><time>2026-04-17T16:14:27Z</time></trkpt><trkpt lat="43.32306860059024" lon="10.509125210553023"><ele>5.0</ele><time>2026-04-17T16:14:31Z</time></trkpt><trkpt lat="43.32311285209917" lon="10.509050568497836"><ele>5.0</ele><time>2026-04-17T16:14:35Z</time></trkpt><trkpt lat="43.32315830453709" lon="10.508981178260179"><ele>5.0</ele><time>2026-04-17T16:14:39Z</time></trkpt><trkpt lat="43.323199811850806" lon="10.508911207066488"><ele>5.0</ele><time>2026-04-17T16:14:43Z</time></trkpt><trkpt lat="43.323241230616254" lon="10.508835843256804"><ele>5.0</ele><time>2026-04-17T16:14:47Z</time></trkpt><trkpt lat="43.323271012134796" lon="10.508753093746718"><ele>5.285714285714286</ele><time>2026-04-17T16:14:51Z</time></trkpt><trkpt lat="43.323290228751546" lon="10.508666863385342"><ele>5.571428571428571</ele><time>2026-04-17T16:14:55Z</time></trkpt><trkpt lat="43.323300119419756" lon="10.508561643558489"><ele>5.857142857142858</ele><time>2026-04-17T16:15:00Z</time></trkpt><trkpt lat="43.32328883900612" lon="10.508464702964446"><ele>6.142857142857142</ele><time>2026-04-17T16:15:05Z</time></trkpt><trkpt lat="43.323265656206615" lon="10.508375121964827"><ele>6.428571428571429</ele><time>2026-04-17T16:15:10Z</time></trkpt><trkpt lat="43.323250750374264" lon="10.508280867081478"><ele>6.714285714285714</ele><time>2026-04-17T16:15:15Z</time></trkpt><trkpt lat="43.32323663083243" lon="10.508195377490008"><ele>7.0</ele><time>2026-04-17T16:15:19Z</time></trkpt><trkpt lat="43.32320677013483" lon="10.508095890284128"><ele>7.0</ele><time>2026-04-17T16:15:24Z</time></trkpt><trkpt lat="43.32316822707149" lon="10.50800944184163"><ele>7.0</ele><time>2026-04-17T16:15:29Z</time></trkpt><trkpt lat="43.323130930192264" lon="10.507938580116269"><ele>7.0</ele><time>2026-04-17T16:15:33Z</time></trkpt><trkpt lat="43.32309797063991" lon="10.507859500616131"><ele>7.0</ele><time>2026-04-17T16:15:37Z</time></trkpt><trkpt lat="43.323067120921294" lon="10.507770798530284"><ele>7.0</ele><time>2026-04-17T16:15:41Z</time></trkpt><trkpt lat="43.32302811054482" lon="10.507693920118479"><ele>7.0</ele><time>2026-04-17T16:15:45Z</time></trkpt><trkpt lat="43.32297825284704" lon="10.507608790039034"><ele>7.0</ele><time>2026-04-17T16:15:50Z</time></trkpt><trkpt lat="43.322938791177116" lon="10.50753920550104"><ele>6.714285714285714</ele><time>2026-04-17T16:15:54Z</time></trkpt><trkpt lat="43.32289673762966" lon="10.507450624161294"><ele>6.428571428571429</ele><time>2026-04-17T16:15:59Z</time></trkpt><trkpt lat="43.322849443266406" lon="10.507369581583902"><ele>6.142857142857142</ele><time>2026-04-17T16:16:04Z</time></trkpt><trkpt lat="43.322818239553435" lon="10.507281362711407"><ele>5.857142857142858</ele><time>2026-04-17T16:16:08Z</time></trkpt><trkpt lat="43.32277809812715" lon="10.507203409810495"><ele>5.571428571428571</ele><time>2026-04-17T16:16:12Z</time></trkpt><trkpt lat="43.32274209562164" lon="10.507132247875019"><ele>5.285714285714286</ele><time>2026-04-17T16:16:16Z</time></trkpt><trkpt lat="43.32270147451495" lon="10.50706454320013"><ele>5.0</ele><time>2026-04-17T16:16:20Z</time></trkpt><trkpt lat="43.32265975296479" lon="10.506991834686051"><ele>5.0</ele><time>2026-04-17T16:16:24Z</time></trkpt><trkpt lat="43.32262729380013" lon="10.506916368573348"><ele>5.0</ele><time>2026-04-17T16:16:28Z</time></trkpt><trkpt lat="43.32259347824282" lon="10.50684013111087"><ele>5.0</ele><time>2026-04-17T16:16:32Z</time></trkpt><trkpt lat="43.322543648496364" lon="10.506759294194822"><ele>5.0</ele><time>2026-04-17T16:16:37Z</time></trkpt><trkpt lat="43.322499320229056" lon="10.506693749809752"><ele>5.0</ele><time>2026-04-17T16:16:41Z</time></trkpt><trkpt lat="43.32244501158518" lon="10.506613239314158"><ele>5.0</ele><time>2026-04-17T16:16:46Z</time></trkpt><trkpt lat="43.32240981318909" lon="10.506532214396056"><ele>5.0</ele><time>2026-04-17T16:16:50Z</time></trkpt><trkpt lat="43.32237284587571" lon="10.506452083120795"><ele>5.0</ele><time>2026-04-17T16:16:54Z</time></trkpt><trkpt lat="43.32232824540273" lon="10.506350454352336"><ele>5.0</ele><time>2026-04-17T16:16:59Z</time></trkpt><trkpt lat="43.32229224735095" lon="10.506273111164916"><ele>5.0</ele><time>2026-04-17T16:17:03Z</time></trkpt><trkpt lat="43.32225424100671" lon="10.506200132091125"><ele>5.0</ele><time>2026-04-17T16:17:07Z</time></trkpt><trkpt lat="43.32221375403799" lon="10.506125250523931"><ele>5.0</ele><time>2026-04-17T16:17:11Z</time></trkpt><trkpt lat="43.32217555956713" lon="10.506046484384749"><ele>5.0</ele><time>2026-04-17T16:17:15Z</time></trkpt><trkpt lat="43.322136216775235" lon="10.505972969690509"><ele>5.0</ele><time>2026-04-17T16:17:19Z</time></trkpt><trkpt lat="43.322100032904" lon="10.505901658708076"><ele>4.857142857142857</ele><time>2026-04-17T16:17:23Z</time></trkpt><trkpt lat="43.32205598874696" lon="10.505828655479796"><ele>4.714285714285714</ele><time>2026-04-17T16:17:27Z</time></trkpt><trkpt lat="43.32201259397071" lon="10.50574402309797"><ele>4.571428571428571</ele><time>2026-04-17T16:17:32Z</time></trkpt><trkpt lat="43.321975780139475" lon="10.505660561510727"><ele>4.428571428571429</ele><time>2026-04-17T16:17:37Z</time></trkpt><trkpt lat="43.32193661586782" lon="10.505570194257649"><ele>4.285714285714286</ele><time>2026-04-17T16:17:42Z</time></trkpt><trkpt lat="43.32189427058137" lon="10.505503992810231"><ele>4.142857142857142</ele><time>2026-04-17T16:17:46Z</time></trkpt><trkpt lat="43.321852015541175" lon="10.505428992447403"><ele>4.0</ele><time>2026-04-17T16:17:50Z</time></trkpt><trkpt lat="43.32180680872986" lon="10.505358182967715"><ele>4.0</ele><time>2026-04-17T16:17:54Z</time></trkpt><trkpt lat="43.32176386557577" lon="10.505286362725789"><ele>3.9999999999999996</ele><time>2026-04-17T16:17:58Z</time></trkpt><trkpt lat="43.321723207732525" lon="10.505211630472896"><ele>4.0</ele><time>2026-04-17T16:18:02Z</time></trkpt><trkpt lat="43.32167879575767" lon="10.505134531813832"><ele>4.0</ele><time>2026-04-17T16:18:06Z</time></trkpt><trkpt lat="43.32163532743175" lon="10.505061195624469"><ele>3.9999999999999996</ele><time>2026-04-17T16:18:10Z</time></trkpt><trkpt lat="43.32159380024039" lon="10.504981389600097"><ele>4.0</ele><time>2026-04-17T16:18:14Z</time></trkpt><trkpt lat="43.32155706599289" lon="10.504908017124603"><ele>4.0</ele><time>2026-04-17T16:18:18Z</time></trkpt><trkpt lat="43.32150754000952" lon="10.504817843131145"><ele>3.9999999999999996</ele><time>2026-04-17T16:18:22Z</time></trkpt><trkpt lat="43.32146400463737" lon="10.504730815981793"><ele>4.0</ele><time>2026-04-17T16:18:27Z</time></trkpt><trkpt lat="43.32141994496709" lon="10.504644191049733"><ele>4.0</ele><time>2026-04-17T16:18:32Z</time></trkpt><trkpt lat="43.32137670917545" lon="10.504558110284409"><ele>4.0</ele><time>2026-04-17T16:18:37Z</time></trkpt><trkpt lat="43.321330840081565" lon="10.504463624754926"><ele>3.9999999999999996</ele><time>2026-04-17T16:18:44Z</time></trkpt><trkpt lat="43.32128621404405" lon="10.504351891095395"><ele>4.0</ele><time>2026-04-17T16:18:49Z</time></trkpt><trkpt lat="43.32124687944707" lon="10.504251604717323"><ele>3.8571428571428568</ele><time>2026-04-17T16:18:53Z</time></trkpt><trkpt lat="43.3211941783431" lon="10.504178064417097"><ele>3.714285714285714</ele><time>2026-04-17T16:18:57Z</time></trkpt><trkpt lat="43.32115843728068" lon="10.504096788161364"><ele>3.571428571428571</ele><time>2026-04-17T16:19:01Z</time></trkpt><trkpt lat="43.3211230674739" lon="10.504023104655516"><ele>3.4285714285714284</ele><time>2026-04-17T16:19:05Z</time></trkpt><trkpt lat="43.321083523075345" lon="10.503946088549899"><ele>3.2857142857142856</ele><time>2026-04-17T16:19:09Z</time></trkpt><trkpt lat="43.32103818098481" lon="10.50385798196478"><ele>3.1428571428571423</ele><time>2026-04-17T16:19:14Z</time></trkpt><trkpt lat="43.321007173259915" lon="10.503780131131315"><ele>3.0</ele><time>2026-04-17T16:19:18Z</time></trkpt><trkpt lat="43.320968752834595" lon="10.503701507033583"><ele>2.9999999999999996</ele><time>2026-04-17T16:19:22Z</time></trkpt><trkpt lat="43.32093623372518" lon="10.503623432197296"><ele>3.0</ele><time>2026-04-17T16:19:26Z</time></trkpt><trkpt lat="43.32089794885189" lon="10.503550063107731"><ele>3.0</ele><time>2026-04-17T16:19:30Z</time></trkpt><trkpt lat="43.320846296421855" lon="10.503473807264779"><ele>3.0</ele><time>2026-04-17T16:19:35Z</time></trkpt><trkpt lat="43.32079924613762" lon="10.503387663459222"><ele>3.0</ele><time>2026-04-17T16:19:40Z</time></trkpt><trkpt lat="43.32074705002865" lon="10.503309832481479"><ele>2.9999999999999996</ele><time>2026-04-17T16:19:45Z</time></trkpt><trkpt lat="43.32070457366319" lon="10.503245779960901"><ele>3.0</ele><time>2026-04-17T16:19:49Z</time></trkpt><trkpt lat="43.32066670051677" lon="10.503162149750196"><ele>2.9999999999999996</ele><time>2026-04-17T16:19:53Z</time></trkpt><trkpt lat="43.320626697943204" lon="10.503088722748643"><ele>3.0</ele><time>2026-04-17T16:19:57Z</time></trkpt><trkpt lat="43.32059076696614" lon="10.503011924133386"><ele>3.0</ele><time>2026-04-17T16:20:01Z</time></trkpt><trkpt lat="43.320545389339664" lon="10.502925130359314"><ele>3.0</ele><time>2026-04-17T16:20:06Z</time></trkpt><trkpt lat="43.320507200771715" lon="10.502853669250122"><ele>3.0</ele><time>2026-04-17T16:20:10Z</time></trkpt><trkpt lat="43.320467313485885" lon="10.50278254941772"><ele>2.9999999999999996</ele><time>2026-04-17T16:20:14Z</time></trkpt><trkpt lat="43.320427656357396" lon="10.502703315916893"><ele>3.0</ele><time>2026-04-17T16:20:18Z</time></trkpt><trkpt lat="43.320391704225095" lon="10.502625660506537"><ele>3.1428571428571423</ele><time>2026-04-17T16:20:22Z</time></trkpt><trkpt lat="43.320352781360405" lon="10.50255071897801"><ele>3.2857142857142856</ele><time>2026-04-17T16:20:26Z</time></trkpt><trkpt lat="43.3203128100747" lon="10.502479708215535"><ele>3.4285714285714284</ele><time>2026-04-17T16:20:30Z</time></trkpt><trkpt lat="43.32025925827927" lon="10.502404703125373"><ele>3.571428571428571</ele><time>2026-04-17T16:20:35Z</time></trkpt><trkpt lat="43.320227268201194" lon="10.502327968033844"><ele>3.714285714285714</ele><time>2026-04-17T16:20:39Z</time></trkpt><trkpt lat="43.320189895926426" lon="10.502254242250729"><ele>3.8571428571428568</ele><time>2026-04-17T16:20:43Z</time></trkpt><trkpt lat="43.320151452627044" lon="10.502181899413973"><ele>4.0</ele><time>2026-04-17T16:20:47Z</time></trkpt><trkpt lat="43.32011523494683" lon="10.502107114582337"><ele>4.142857142857142</ele><time>2026-04-17T16:20:51Z</time></trkpt><trkpt lat="43.320076402870384" lon="10.502035758009514"><ele>4.285714285714286</ele><time>2026-04-17T16:20:55Z</time></trkpt><trkpt lat="43.320036485421234" lon="10.501967848649473"><ele>4.428571428571429</ele><time>2026-04-17T16:20:59Z</time></trkpt><trkpt lat="43.31998649262209" lon="10.501887141498814"><ele>4.571428571428571</ele><time>2026-04-17T16:21:04Z</time></trkpt><trkpt lat="43.31995075437732" lon="10.501801216092774"><ele>4.714285714285714</ele><time>2026-04-17T16:21:08Z</time></trkpt><trkpt lat="43.31991449610936" lon="10.501723763471409"><ele>4.857142857142857</ele><time>2026-04-17T16:21:12Z</time></trkpt><trkpt lat="43.31987738765765" lon="10.501653695018094"><ele>5.0</ele><time>2026-04-17T16:21:16Z</time></trkpt><trkpt lat="43.31984327390914" lon="10.501578965939594"><ele>5.0</ele><time>2026-04-17T16:21:20Z</time></trkpt><trkpt lat="43.31979551193569" lon="10.501503213999719"><ele>5.0</ele><time>2026-04-17T16:21:25Z</time></trkpt><trkpt lat="43.31975859307567" lon="10.501432992604867"><ele>5.0</ele><time>2026-04-17T16:21:29Z</time></trkpt><trkpt lat="43.3197185352525" lon="10.501364290844524"><ele>5.0</ele><time>2026-04-17T16:21:33Z</time></trkpt><trkpt lat="43.319683483817784" lon="10.501263804576071"><ele>5.0</ele><time>2026-04-17T16:21:38Z</time></trkpt><trkpt lat="43.319642317195715" lon="10.501195353460831"><ele>5.0</ele><time>2026-04-17T16:21:42Z</time></trkpt><trkpt lat="43.31959978051609" lon="10.501126699443168"><ele>5.0</ele><time>2026-04-17T16:21:46Z</time></trkpt><trkpt lat="43.31955417410577" lon="10.501046436514624"><ele>4.571428571428571</ele><time>2026-04-17T16:21:51Z</time></trkpt><trkpt lat="43.31951683389669" lon="10.500965840677347"><ele>4.142857142857143</ele><time>2026-04-17T16:21:55Z</time></trkpt><trkpt lat="43.3194763183842" lon="10.500887216998171"><ele>3.7142857142857144</ele><time>2026-04-17T16:21:59Z</time></trkpt><trkpt lat="43.319439920731945" lon="10.500813543502723"><ele>3.2857142857142856</ele><time>2026-04-17T16:22:03Z</time></trkpt><trkpt lat="43.31939944232074" lon="10.50074155686448"><ele>2.8571428571428568</ele><time>2026-04-17T16:22:07Z</time></trkpt><trkpt lat="43.31935433835596" lon="10.500653934014203"><ele>2.4285714285714284</ele><time>2026-04-17T16:22:12Z</time></trkpt><trkpt lat="43.31931737111472" lon="10.500582921850281"><ele>2.0</ele><time>2026-04-17T16:22:16Z</time></trkpt><trkpt lat="43.3192822216448" lon="10.50050701309478"><ele>2.0</ele><time>2026-04-17T16:22:20Z</time></trkpt><trkpt lat="43.319247107229025" lon="10.50043100862189"><ele>1.9999999999999998</ele><time>2026-04-17T16:22:24Z</time></trkpt><trkpt lat="43.31920631781951" lon="10.500361319850114"><ele>2.0</ele><time>2026-04-17T16:22:28Z</time></trkpt><trkpt lat="43.31916971400204" lon="10.500288152761529"><ele>2.0</ele><time>2026-04-17T16:22:32Z</time></trkpt><trkpt lat="43.31913153927271" lon="10.50021078681413"><ele>1.9999999999999998</ele><time>2026-04-17T16:22:36Z</time></trkpt><trkpt lat="43.31909208694773" lon="10.500138429227347"><ele>2.0</ele><time>2026-04-17T16:22:40Z</time></trkpt><trkpt lat="43.319055567451706" lon="10.500062161668952"><ele>2.0</ele><time>2026-04-17T16:22:44Z</time></trkpt><trkpt lat="43.31900971111929" lon="10.499977833123427"><ele>2.142857142857143</ele><time>2026-04-17T16:22:49Z</time></trkpt><trkpt lat="43.31897179747165" lon="10.499899635545697"><ele>2.2857142857142856</ele><time>2026-04-17T16:22:53Z</time></trkpt><trkpt lat="43.31892409673594" lon="10.499840639126258"><ele>2.4285714285714284</ele><time>2026-04-17T16:22:57Z</time></trkpt><trkpt lat="43.3188598547853" lon="10.499844638645161"><ele>2.571428571428571</ele><time>2026-04-17T16:23:02Z</time></trkpt><trkpt lat="43.3187877933297" lon="10.499836821093716"><ele>2.7142857142857144</ele><time>2026-04-17T16:23:07Z</time></trkpt><trkpt lat="43.3187017145705" lon="10.49983019091742"><ele>2.8571428571428568</ele><time>2026-04-17T16:23:13Z</time></trkpt><trkpt lat="43.31863326243069" lon="10.499818490582692"><ele>3.0</ele><time>2026-04-17T16:23:17Z</time></trkpt><trkpt lat="43.31856886688169" lon="10.499826675983723"><ele>3.1428571428571423</ele><time>2026-04-17T16:23:21Z</time></trkpt><trkpt lat="43.31849031832404" lon="10.499814715469393"><ele>3.2857142857142856</ele><time>2026-04-17T16:23:26Z</time></trkpt><trkpt lat="43.318424607763326" lon="10.499800398605212"><ele>3.4285714285714284</ele><time>2026-04-17T16:23:30Z</time></trkpt><trkpt lat="43.31836467614496" lon="10.499759459608043"><ele>3.571428571428571</ele><time>2026-04-17T16:23:34Z</time></trkpt><trkpt lat="43.31830314567941" lon="10.499723035637404"><ele>3.714285714285714</ele><time>2026-04-17T16:23:38Z</time></trkpt><trkpt lat="43.31824056041185" lon="10.49969112039369"><ele>3.8571428571428568</ele><time>2026-04-17T16:23:42Z</time></trkpt><trkpt lat="43.31818021200598" lon="10.499656359706135"><ele>4.0</ele><time>2026-04-17T16:23:46Z</time></trkpt><trkpt lat="43.318123638094924" lon="10.499606188717184"><ele>3.8571428571428568</ele><time>2026-04-17T16:23:50Z</time></trkpt><trkpt lat="43.318052874793004" lon="10.499565301233131"><ele>3.714285714285714</ele><time>2026-04-17T16:23:55Z</time></trkpt><trkpt lat="43.31799533308685" lon="10.499488926353854"><ele>3.571428571428571</ele><time>2026-04-17T16:24:00Z</time></trkpt><trkpt lat="43.31794624344305" lon="10.499427891508182"><ele>3.4285714285714284</ele><time>2026-04-17T16:24:05Z</time></trkpt><trkpt lat="43.317886992083515" lon="10.499362997301077"><ele>3.2857142857142856</ele><time>2026-04-17T16:24:11Z</time></trkpt><trkpt lat="43.317837548064986" lon="10.499290064906537"><ele>3.1428571428571423</ele><time>2026-04-17T16:24:15Z</time></trkpt><trkpt lat="43.317787152856305" lon="10.499234361346863"><ele>3.0</ele><time>2026-04-17T16:24:19Z</time></trkpt><trkpt lat="43.31773508381767" lon="10.499169678985854"><ele>2.9999999999999996</ele><time>2026-04-17T16:24:23Z</time></trkpt><trkpt lat="43.317689526384704" lon="10.499080014834067"><ele>3.0</ele><time>2026-04-17T16:24:27Z</time></trkpt><trkpt lat="43.317644213822156" lon="10.498993534482413"><ele>3.0</ele><time>2026-04-17T16:24:31Z</time></trkpt><trkpt lat="43.31760187365819" lon="10.498912526126881"><ele>3.0</ele><time>2026-04-17T16:24:35Z</time></trkpt><trkpt lat="43.31755900831495" lon="10.4988345090811"><ele>3.0</ele><time>2026-04-17T16:24:39Z</time></trkpt><trkpt lat="43.31751534684388" lon="10.498750085249638"><ele>2.9999999999999996</ele><time>2026-04-17T16:24:43Z</time></trkpt><trkpt lat="43.31747570544976" lon="10.498669866493172"><ele>3.0</ele><time>2026-04-17T16:24:47Z</time></trkpt><trkpt lat="43.3174330230513" lon="10.498596211117087"><ele>2.9999999999999996</ele><time>2026-04-17T16:24:51Z</time></trkpt><trkpt lat="43.317378477025294" lon="10.498521897979936"><ele>3.0</ele><time>2026-04-17T16:24:56Z</time></trkpt><trkpt lat="43.3173403166271" lon="10.498446568928111"><ele>3.0</ele><time>2026-04-17T16:25:00Z</time></trkpt><trkpt lat="43.3173006856561" lon="10.498375175840982"><ele>3.0</ele><time>2026-04-17T16:25:04Z</time></trkpt><trkpt lat="43.3172789817594" lon="10.49828550925766"><ele>3.0</ele><time>2026-04-17T16:25:08Z</time></trkpt><trkpt lat="43.31728914690002" lon="10.498184962910457"><ele>2.9999999999999996</ele><time>2026-04-17T16:25:12Z</time></trkpt><trkpt lat="43.317283835941815" lon="10.498095226026201"><ele>3.0</ele><time>2026-04-17T16:25:17Z</time></trkpt><trkpt lat="43.3172543956181" lon="10.498006494146928"><ele>3.0</ele><time>2026-04-17T16:25:24Z</time></trkpt><trkpt lat="43.31726804270323" lon="10.497913487529924"><ele>3.0</ele><time>2026-04-17T16:25:29Z</time></trkpt><trkpt lat="43.31729407538222" lon="10.497812566647518"><ele>3.0</ele><time>2026-04-17T16:25:34Z</time></trkpt><trkpt lat="43.3173146152956" lon="10.497711047918266"><ele>3.0</ele><time>2026-04-17T16:25:38Z</time></trkpt><trkpt lat="43.31733349502283" lon="10.497603908907648"><ele>3.0</ele><time>2026-04-17T16:25:42Z</time></trkpt><trkpt lat="43.317347210652414" lon="10.497502851804738"><ele>3.0</ele><time>2026-04-17T16:25:46Z</time></trkpt><trkpt lat="43.31735479946416" lon="10.497399428397431"><ele>2.9999999999999996</ele><time>2026-04-17T16:25:50Z</time></trkpt><trkpt lat="43.317361745306926" lon="10.497298065226104"><ele>3.0</ele><time>2026-04-17T16:25:54Z</time></trkpt><trkpt lat="43.3173524351268" lon="10.497199061787125"><ele>3.0</ele><time>2026-04-17T16:25:58Z</time></trkpt><trkpt lat="43.31732272912208" lon="10.497116327823697"><ele>3.0</ele><time>2026-04-17T16:26:02Z</time></trkpt><trkpt lat="43.31728866016545" lon="10.497035578021332"><ele>3.0</ele><time>2026-04-17T16:26:06Z</time></trkpt><trkpt lat="43.31725065291523" lon="10.49696530937331"><ele>2.9999999999999996</ele><time>2026-04-17T16:26:10Z</time></trkpt><trkpt lat="43.31721219795684" lon="10.496893017634383"><ele>3.0</ele><time>2026-04-17T16:26:14Z</time></trkpt><trkpt lat="43.317171657840525" lon="10.49682206517993"><ele>2.8571428571428568</ele><time>2026-04-17T16:26:18Z</time></trkpt><trkpt lat="43.3171342803161" lon="10.496749517797234"><ele>2.7142857142857144</ele><time>2026-04-17T16:26:22Z</time></trkpt><trkpt lat="43.31709423171972" lon="10.49667848520233"><ele>2.571428571428571</ele><time>2026-04-17T16:26:26Z</time></trkpt><trkpt lat="43.31705216124299" lon="10.496606900956545"><ele>2.4285714285714284</ele><time>2026-04-17T16:26:30Z</time></trkpt><trkpt lat="43.31701065939727" lon="10.496539944972707"><ele>2.2857142857142856</ele><time>2026-04-17T16:26:34Z</time></trkpt><trkpt lat="43.31697237875789" lon="10.496463408118824"><ele>2.142857142857143</ele><time>2026-04-17T16:26:38Z</time></trkpt><trkpt lat="43.31693205317938" lon="10.496394589222017"><ele>2.0</ele><time>2026-04-17T16:26:42Z</time></trkpt><trkpt lat="43.3168913248203" lon="10.496323527805737"><ele>1.857142857142857</ele><time>2026-04-17T16:26:46Z</time></trkpt><trkpt lat="43.31685013068019" lon="10.496251574898855"><ele>1.714285714285714</ele><time>2026-04-17T16:26:50Z</time></trkpt><trkpt lat="43.316808776602414" lon="10.49618302049076"><ele>1.5714285714285714</ele><time>2026-04-17T16:26:54Z</time></trkpt><trkpt lat="43.31676598381047" lon="10.496119401876223"><ele>1.4285714285714284</ele><time>2026-04-17T16:26:58Z</time></trkpt><trkpt lat="43.31672633950482" lon="10.496049198686489"><ele>1.2857142857142856</ele><time>2026-04-17T16:27:02Z</time></trkpt><trkpt lat="43.316688059682335" lon="10.495974625917432"><ele>1.1428571428571428</ele><time>2026-04-17T16:27:06Z</time></trkpt><trkpt lat="43.31664740163409" lon="10.495905489433632"><ele>1.0</ele><time>2026-04-17T16:27:10Z</time></trkpt><trkpt lat="43.316608607730885" lon="10.49583711151393"><ele>1.0</ele><time>2026-04-17T16:27:14Z</time></trkpt><trkpt lat="43.316568811274" lon="10.495769923606245"><ele>0.9999999999999999</ele><time>2026-04-17T16:27:18Z</time></trkpt><trkpt lat="43.316529708843426" lon="10.495700256031729"><ele>1.0</ele><time>2026-04-17T16:27:22Z</time></trkpt><trkpt lat="43.316490308929716" lon="10.495629233814798"><ele>1.0</ele><time>2026-04-17T16:27:26Z</time></trkpt><trkpt lat="43.31644757814376" lon="10.495559564685484"><ele>0.9999999999999999</ele><time>2026-04-17T16:27:30Z</time></trkpt><trkpt lat="43.316411191159546" lon="10.495483608953306"><ele>1.0</ele><time>2026-04-17T16:27:34Z</time></trkpt><trkpt lat="43.316369182274684" lon="10.495415859436916"><ele>1.0</ele><time>2026-04-17T16:27:38Z</time></trkpt><trkpt lat="43.316329708263574" lon="10.495339391159971"><ele>1.1428571428571428</ele><time>2026-04-17T16:27:42Z</time></trkpt><trkpt lat="43.31627570622432" lon="10.49526069072868"><ele>1.2857142857142856</ele><time>2026-04-17T16:27:47Z</time></trkpt><trkpt lat="43.31622432703759" lon="10.495176797780411"><ele>1.4285714285714284</ele><time>2026-04-17T16:27:52Z</time></trkpt><trkpt lat="43.316184047852424" lon="10.495102711187357"><ele>1.5714285714285714</ele><time>2026-04-17T16:27:56Z</time></trkpt><trkpt lat="43.316142730252565" lon="10.495030212076903"><ele>1.714285714285714</ele><time>2026-04-17T16:28:00Z</time></trkpt><trkpt lat="43.31610410878735" lon="10.494956107500515"><ele>1.857142857142857</ele><time>2026-04-17T16:28:04Z</time></trkpt><trkpt lat="43.31606433894366" lon="10.494883746002815"><ele>2.0</ele><time>2026-04-17T16:28:08Z</time></trkpt><trkpt lat="43.31602078303964" lon="10.494810991017776"><ele>2.0</ele><time>2026-04-17T16:28:12Z</time></trkpt><trkpt lat="43.3159792741033" lon="10.494737664380454"><ele>1.9999999999999998</ele><time>2026-04-17T16:28:16Z</time></trkpt><trkpt lat="43.31593534819925" lon="10.49467437148148"><ele>2.0</ele><time>2026-04-17T16:28:20Z</time></trkpt><trkpt lat="43.31589527756507" lon="10.494604305755889"><ele>2.0</ele><time>2026-04-17T16:28:24Z</time></trkpt><trkpt lat="43.31585454194307" lon="10.494532940697095"><ele>1.9999999999999998</ele><time>2026-04-17T16:28:28Z</time></trkpt><trkpt lat="43.31581117591313" lon="10.494465941878499"><ele>2.0</ele><time>2026-04-17T16:28:32Z</time></trkpt><trkpt lat="43.315767509419416" lon="10.49439358491432"><ele>2.0</ele><time>2026-04-17T16:28:36Z</time></trkpt><trkpt lat="43.31572245532135" lon="10.494317159583746"><ele>2.0</ele><time>2026-04-17T16:28:40Z</time></trkpt><trkpt lat="43.3156792714013" lon="10.49424750633226"><ele>1.9999999999999998</ele><time>2026-04-17T16:28:44Z</time></trkpt><trkpt lat="43.315636594624145" lon="10.4941784713472"><ele>2.0</ele><time>2026-04-17T16:28:48Z</time></trkpt><trkpt lat="43.315596511211304" lon="10.494104413952359"><ele>2.0</ele><time>2026-04-17T16:28:52Z</time></trkpt><trkpt lat="43.31555583151426" lon="10.494036370085821"><ele>1.9999999999999998</ele><time>2026-04-17T16:28:56Z</time></trkpt><trkpt lat="43.31551692913034" lon="10.493965642636688"><ele>2.0</ele><time>2026-04-17T16:29:00Z</time></trkpt><trkpt lat="43.31547797133211" lon="10.493896280702767"><ele>2.0</ele><time>2026-04-17T16:29:04Z</time></trkpt><trkpt lat="43.315437315791165" lon="10.493826610877779"><ele>2.0</ele><time>2026-04-17T16:29:08Z</time></trkpt><trkpt lat="43.315395630348995" lon="10.493760924377117"><ele>1.9999999999999998</ele><time>2026-04-17T16:29:12Z</time></trkpt><trkpt lat="43.31535623560854" lon="10.49368856230552"><ele>2.0</ele><time>2026-04-17T16:29:16Z</time></trkpt><trkpt lat="43.31531471026181" lon="10.493619259322392"><ele>2.0</ele><time>2026-04-17T16:29:20Z</time></trkpt><trkpt lat="43.31527537905866" lon="10.49354783738393"><ele>1.9999999999999998</ele><time>2026-04-17T16:29:24Z</time></trkpt><trkpt lat="43.31523619353668" lon="10.493479172698773"><ele>2.0</ele><time>2026-04-17T16:29:28Z</time></trkpt><trkpt lat="43.31519601377223" lon="10.493408881235533"><ele>2.0</ele><time>2026-04-17T16:29:32Z</time></trkpt><trkpt lat="43.315157569797755" lon="10.493336499168402"><ele>2.0</ele><time>2026-04-17T16:29:36Z</time></trkpt><trkpt lat="43.31511618670527" lon="10.493266927707985"><ele>1.9999999999999998</ele><time>2026-04-17T16:29:40Z</time></trkpt><trkpt lat="43.31507403539458" lon="10.493198898659791"><ele>2.0</ele><time>2026-04-17T16:29:44Z</time></trkpt><trkpt lat="43.31503332673719" lon="10.493128212808754"><ele>2.0</ele><time>2026-04-17T16:29:48Z</time></trkpt><trkpt lat="43.31499206399192" lon="10.493060600786011"><ele>1.9999999999999998</ele><time>2026-04-17T16:29:52Z</time></trkpt><trkpt lat="43.314941072553125" lon="10.49297937274189"><ele>2.0</ele><time>2026-04-17T16:29:57Z</time></trkpt><trkpt lat="43.31489268683274" lon="10.492893528194102"><ele>2.0</ele><time>2026-04-17T16:30:02Z</time></trkpt><trkpt lat="43.31485427511663" lon="10.492821337839912"><ele>2.0</ele><time>2026-04-17T16:30:06Z</time></trkpt><trkpt lat="43.31481025839002" lon="10.492748697534628"><ele>1.9999999999999998</ele><time>2026-04-17T16:30:10Z</time></trkpt><trkpt lat="43.31476751231945" lon="10.492675591184367"><ele>2.0</ele><time>2026-04-17T16:30:14Z</time></trkpt><trkpt lat="43.314726356523686" lon="10.492608920272595"><ele>2.0</ele><time>2026-04-17T16:30:18Z</time></trkpt><trkpt lat="43.31468316380948" lon="10.492540631516267"><ele>1.9999999999999998</ele><time>2026-04-17T16:30:22Z</time></trkpt><trkpt lat="43.3146401767508" lon="10.492472502391784"><ele>2.0</ele><time>2026-04-17T16:30:26Z</time></trkpt><trkpt lat="43.314596486546726" lon="10.492406361495725"><ele>2.0</ele><time>2026-04-17T16:30:30Z</time></trkpt><trkpt lat="43.31455574881339" lon="10.492328033449052"><ele>2.0</ele><time>2026-04-17T16:30:34Z</time></trkpt><trkpt lat="43.31451310755472" lon="10.49225407884045"><ele>1.9999999999999998</ele><time>2026-04-17T16:30:38Z</time></trkpt><trkpt lat="43.31446857076886" lon="10.492185601809263"><ele>2.0</ele><time>2026-04-17T16:30:42Z</time></trkpt><trkpt lat="43.31442682254352" lon="10.492116472948865"><ele>2.0</ele><time>2026-04-17T16:30:46Z</time></trkpt><trkpt lat="43.31438645957121" lon="10.49204216497334"><ele>1.9999999999999998</ele><time>2026-04-17T16:30:50Z</time></trkpt><trkpt lat="43.314345710813484" lon="10.49196858604426"><ele>2.0</ele><time>2026-04-17T16:30:54Z</time></trkpt><trkpt lat="43.31430517330043" lon="10.49189438220682"><ele>2.0</ele><time>2026-04-17T16:30:58Z</time></trkpt><trkpt lat="43.31426402544894" lon="10.491822626893429"><ele>2.0</ele><time>2026-04-17T16:31:02Z</time></trkpt><trkpt lat="43.31422179956617" lon="10.491750111520952"><ele>1.9999999999999998</ele><time>2026-04-17T16:31:06Z</time></trkpt><trkpt lat="43.31418100736999" lon="10.491677705116526"><ele>2.0</ele><time>2026-04-17T16:31:10Z</time></trkpt><trkpt lat="43.314138779593335" lon="10.491605138235627"><ele>2.0</ele><time>2026-04-17T16:31:14Z</time></trkpt><trkpt lat="43.314095241056556" lon="10.491539344382398"><ele>1.9999999999999998</ele><time>2026-04-17T16:31:18Z</time></trkpt><trkpt lat="43.31405553944936" lon="10.49146941052242"><ele>2.0</ele><time>2026-04-17T16:31:22Z</time></trkpt><trkpt lat="43.31401541669826" lon="10.491399993038513"><ele>2.0</ele><time>2026-04-17T16:31:26Z</time></trkpt><trkpt lat="43.313974524291325" lon="10.49132913497047"><ele>2.0</ele><time>2026-04-17T16:31:30Z</time></trkpt><trkpt lat="43.31393370030874" lon="10.491259638227996"><ele>1.9999999999999998</ele><time>2026-04-17T16:31:34Z</time></trkpt><trkpt lat="43.313890605181285" lon="10.491189246889054"><ele>2.0</ele><time>2026-04-17T16:31:38Z</time></trkpt><trkpt lat="43.313850025160285" lon="10.4911200519528"><ele>2.0</ele><time>2026-04-17T16:31:42Z</time></trkpt><trkpt lat="43.31380984350581" lon="10.491050754956722"><ele>1.9999999999999998</ele><time>2026-04-17T16:31:46Z</time></trkpt><trkpt lat="43.31375964652984" lon="10.490966781218924"><ele>2.0</ele><time>2026-04-17T16:31:51Z</time></trkpt><trkpt lat="43.31371927659764" lon="10.49089951944139"><ele>2.0</ele><time>2026-04-17T16:31:55Z</time></trkpt><trkpt lat="43.313677644350136" lon="10.490829591903493"><ele>2.0</ele><time>2026-04-17T16:31:59Z</time></trkpt><trkpt lat="43.31363552345438" lon="10.490757995653352"><ele>1.9999999999999998</ele><time>2026-04-17T16:32:03Z</time></trkpt><trkpt lat="43.31359527273858" lon="10.490686977902577"><ele>2.0</ele><time>2026-04-17T16:32:07Z</time></trkpt><trkpt lat="43.31355686730927" lon="10.490609242512098"><ele>2.0</ele><time>2026-04-17T16:32:11Z</time></trkpt><trkpt lat="43.313515655318156" lon="10.490537894772158"><ele>1.9999999999999998</ele><time>2026-04-17T16:32:15Z</time></trkpt><trkpt lat="43.31347415981394" lon="10.490467818914277"><ele>2.0</ele><time>2026-04-17T16:32:19Z</time></trkpt><trkpt lat="43.31343161906194" lon="10.490396565378173"><ele>2.0</ele><time>2026-04-17T16:32:23Z</time></trkpt><trkpt lat="43.31338895668145" lon="10.490328320826404"><ele>2.0</ele><time>2026-04-17T16:32:27Z</time></trkpt><trkpt lat="43.31333746190019" lon="10.490247572872901"><ele>1.9999999999999998</ele><time>2026-04-17T16:32:32Z</time></trkpt><trkpt lat="43.31329710814458" lon="10.490177825830287"><ele>2.0</ele><time>2026-04-17T16:32:36Z</time></trkpt><trkpt lat="43.31325499888915" lon="10.49010785373552"><ele>2.0</ele><time>2026-04-17T16:32:40Z</time></trkpt><trkpt lat="43.31321436747146" lon="10.490035088567645"><ele>1.9999999999999998</ele><time>2026-04-17T16:32:44Z</time></trkpt><trkpt lat="43.313173437300286" lon="10.489965384336132"><ele>2.0</ele><time>2026-04-17T16:32:48Z</time></trkpt><trkpt lat="43.31313045895405" lon="10.489889633537741"><ele>2.0</ele><time>2026-04-17T16:32:52Z</time></trkpt><trkpt lat="43.31308716176066" lon="10.489816863776973"><ele>1.5714285714285714</ele><time>2026-04-17T16:32:56Z</time></trkpt><trkpt lat="43.31304670520649" lon="10.489743964309056"><ele>1.1428571428571428</ele><time>2026-04-17T16:33:00Z</time></trkpt><trkpt lat="43.313004902119154" lon="10.489672814383471"><ele>0.7142857142857142</ele><time>2026-04-17T16:33:04Z</time></trkpt><trkpt lat="43.31296370393685" lon="10.489600473457578"><ele>0.2857142857142857</ele><time>2026-04-17T16:33:08Z</time></trkpt><trkpt lat="43.31292315891631" lon="10.489528242437903"><ele>-0.1428571428571428</ele><time>2026-04-17T16:33:12Z</time></trkpt><trkpt lat="43.312883358810076" lon="10.489450773699303"><ele>-0.5714285714285714</ele><time>2026-04-17T16:33:16Z</time></trkpt><trkpt lat="43.3128422180073" lon="10.48938226779276"><ele>-1.0</ele><time>2026-04-17T16:33:20Z</time></trkpt><trkpt lat="43.31280135143117" lon="10.489310320158625"><ele>-1.0</ele><time>2026-04-17T16:33:24Z</time></trkpt><trkpt lat="43.31276076719197" lon="10.489238151000572"><ele>-0.9999999999999999</ele><time>2026-04-17T16:33:28Z</time></trkpt><trkpt lat="43.31271897843347" lon="10.489164193897638"><ele>-1.0</ele><time>2026-04-17T16:33:32Z</time></trkpt><trkpt lat="43.31267624153281" lon="10.489091899390047"><ele>-1.0</ele><time>2026-04-17T16:33:36Z</time></trkpt><trkpt lat="43.31263340501396" lon="10.489020382046958"><ele>-0.9999999999999999</ele><time>2026-04-17T16:33:40Z</time></trkpt><trkpt lat="43.31259156485873" lon="10.488954239944404"><ele>-1.0</ele><time>2026-04-17T16:33:44Z</time></trkpt><trkpt lat="43.31255260873892" lon="10.488885669389562"><ele>-1.0</ele><time>2026-04-17T16:33:48Z</time></trkpt><trkpt lat="43.31251002900885" lon="10.488817061667662"><ele>-1.0</ele><time>2026-04-17T16:33:52Z</time></trkpt><trkpt lat="43.31246694196668" lon="10.488746858342887"><ele>-0.9999999999999999</ele><time>2026-04-17T16:33:56Z</time></trkpt><trkpt lat="43.312426564269046" lon="10.488675740179907"><ele>-1.0</ele><time>2026-04-17T16:34:00Z</time></trkpt><trkpt lat="43.31238556226589" lon="10.48860584509322"><ele>-1.0</ele><time>2026-04-17T16:34:04Z</time></trkpt><trkpt lat="43.31234121785283" lon="10.488534696821597"><ele>-0.9999999999999999</ele><time>2026-04-17T16:34:08Z</time></trkpt><trkpt lat="43.312302746040864" lon="10.488461241080557"><ele>-1.0</ele><time>2026-04-17T16:34:12Z</time></trkpt><trkpt lat="43.312259945436644" lon="10.488391884036787"><ele>-1.0</ele><time>2026-04-17T16:34:16Z</time></trkpt><trkpt lat="43.31221764817723" lon="10.488323599984259"><ele>-0.8571428571428571</ele><time>2026-04-17T16:34:20Z</time></trkpt><trkpt lat="43.31217680368653" lon="10.488253138150746"><ele>-0.7142857142857142</ele><time>2026-04-17T16:34:24Z</time></trkpt><trkpt lat="43.31213659108862" lon="10.488184062829415"><ele>-0.5714285714285714</ele><time>2026-04-17T16:34:28Z</time></trkpt><trkpt lat="43.31209637555199" lon="10.488114805245331"><ele>-0.42857142857142855</ele><time>2026-04-17T16:34:32Z</time></trkpt><trkpt lat="43.31205480865071" lon="10.488043316102836"><ele>-0.2857142857142857</ele><time>2026-04-17T16:34:36Z</time></trkpt><trkpt lat="43.31201370965828" lon="10.487972949074265"><ele>-0.14285714285714285</ele><time>2026-04-17T16:34:40Z</time></trkpt><trkpt lat="43.31196936793691" lon="10.487904044748493"><ele>0.0</ele><time>2026-04-17T16:34:44Z</time></trkpt><trkpt lat="43.31192748262366" lon="10.487831343676831"><ele>0.0</ele><time>2026-04-17T16:34:48Z</time></trkpt><trkpt lat="43.31188696346815" lon="10.487758703271643"><ele>0.0</ele><time>2026-04-17T16:34:52Z</time></trkpt><trkpt lat="43.31184528315168" lon="10.487686530618738"><ele>0.0</ele><time>2026-04-17T16:34:56Z</time></trkpt><trkpt lat="43.31180264195312" lon="10.487615094481251"><ele>0.0</ele><time>2026-04-17T16:35:00Z</time></trkpt><trkpt lat="43.31176205737203" lon="10.487538287195218"><ele>0.0</ele><time>2026-04-17T16:35:04Z</time></trkpt><trkpt lat="43.31172029090525" lon="10.48746352389949"><ele>0.0</ele><time>2026-04-17T16:35:08Z</time></trkpt><trkpt lat="43.31167832637516" lon="10.487392467168675"><ele>0.0</ele><time>2026-04-17T16:35:12Z</time></trkpt><trkpt lat="43.311638032536045" lon="10.487324946868531"><ele>0.0</ele><time>2026-04-17T16:35:16Z</time></trkpt><trkpt lat="43.31159618443216" lon="10.487259302493543"><ele>0.0</ele><time>2026-04-17T16:35:20Z</time></trkpt><trkpt lat="43.31155182851694" lon="10.487192407086132"><ele>0.0</ele><time>2026-04-17T16:35:24Z</time></trkpt><trkpt lat="43.311503096974434" lon="10.487134388141296"><ele>0.0</ele><time>2026-04-17T16:35:28Z</time></trkpt><trkpt lat="43.31144827118396" lon="10.487089662047193"><ele>0.0</ele><time>2026-04-17T16:35:32Z</time></trkpt><trkpt lat="43.31138711235176" lon="10.48706335289673"><ele>0.0</ele><time>2026-04-17T16:35:36Z</time></trkpt><trkpt lat="43.31132425068876" lon="10.487055982364135"><ele>0.0</ele><time>2026-04-17T16:35:40Z</time></trkpt><trkpt lat="43.31126021583845" lon="10.487056145378205"><ele>0.0</ele><time>2026-04-17T16:35:44Z</time></trkpt><trkpt lat="43.311200513439836" lon="10.487083651543447"><ele>0.0</ele><time>2026-04-17T16:35:48Z</time></trkpt><trkpt lat="43.311136189525676" lon="10.487103736871417"><ele>0.0</ele><time>2026-04-17T16:35:52Z</time></trkpt><trkpt lat="43.31107258604497" lon="10.487127555255277"><ele>0.0</ele><time>2026-04-17T16:35:56Z</time></trkpt><trkpt lat="43.31100607222311" lon="10.487149501637294"><ele>0.0</ele><time>2026-04-17T16:36:00Z</time></trkpt><trkpt lat="43.310942944307385" lon="10.487176145967991"><ele>0.0</ele><time>2026-04-17T16:36:04Z</time></trkpt><trkpt lat="43.310882812335" lon="10.487214555942598"><ele>0.0</ele><time>2026-04-17T16:36:08Z</time></trkpt><trkpt lat="43.310829669170275" lon="10.487262205773607"><ele>0.0</ele><time>2026-04-17T16:36:12Z</time></trkpt><trkpt lat="43.31076689744839" lon="10.487309919229592"><ele>0.0</ele><time>2026-04-17T16:36:16Z</time></trkpt><trkpt lat="43.310704553225285" lon="10.48735751093122"><ele>0.0</ele><time>2026-04-17T16:36:20Z</time></trkpt><trkpt lat="43.31064348496964" lon="10.487406330885559"><ele>0.0</ele><time>2026-04-17T16:36:24Z</time></trkpt><trkpt lat="43.310586972975415" lon="10.48745539785563"><ele>0.0</ele><time>2026-04-17T16:36:28Z</time></trkpt><trkpt lat="43.310530580297595" lon="10.487505070096883"><ele>0.0</ele><time>2026-04-17T16:36:32Z</time></trkpt><trkpt lat="43.310472537755956" lon="10.487554690355546"><ele>0.0</ele><time>2026-04-17T16:36:36Z</time></trkpt><trkpt lat="43.31041703555229" lon="10.4876038854336"><ele>0.0</ele><time>2026-04-17T16:36:40Z</time></trkpt><trkpt lat="43.310360707079404" lon="10.48765180354406"><ele>0.14285714285714285</ele><time>2026-04-17T16:36:44Z</time></trkpt><trkpt lat="43.31030492326661" lon="10.487702918994108"><ele>0.2857142857142857</ele><time>2026-04-17T16:36:48Z</time></trkpt><trkpt lat="43.31024812917126" lon="10.48774994744419"><ele>0.42857142857142855</ele><time>2026-04-17T16:36:52Z</time></trkpt><trkpt lat="43.310192527613225" lon="10.487802148511975"><ele>0.5714285714285714</ele><time>2026-04-17T16:36:56Z</time></trkpt><trkpt lat="43.310136232923554" lon="10.487852577164519"><ele>0.7142857142857142</ele><time>2026-04-17T16:37:00Z</time></trkpt><trkpt lat="43.310078649419665" lon="10.487901143090694"><ele>0.8571428571428571</ele><time>2026-04-17T16:37:04Z</time></trkpt><trkpt lat="43.31002446046341" lon="10.487952773683574"><ele>1.0</ele><time>2026-04-17T16:37:08Z</time></trkpt><trkpt lat="43.309965742104716" lon="10.48800223147685"><ele>1.1428571428571428</ele><time>2026-04-17T16:37:12Z</time></trkpt><trkpt lat="43.309911067173175" lon="10.488054321752362"><ele>1.2857142857142856</ele><time>2026-04-17T16:37:16Z</time></trkpt><trkpt lat="43.30984385740275" lon="10.488112773022996"><ele>1.4285714285714284</ele><time>2026-04-17T16:37:21Z</time></trkpt><trkpt lat="43.309792071736325" lon="10.488162861485517"><ele>1.5714285714285714</ele><time>2026-04-17T16:37:25Z</time></trkpt><trkpt lat="43.309733658327886" lon="10.488214676482274"><ele>1.714285714285714</ele><time>2026-04-17T16:37:29Z</time></trkpt><trkpt lat="43.30967322475788" lon="10.488263502450852"><ele>1.857142857142857</ele><time>2026-04-17T16:37:33Z</time></trkpt><trkpt lat="43.30961549797265" lon="10.488316477291237"><ele>2.0</ele><time>2026-04-17T16:37:37Z</time></trkpt><trkpt lat="43.30955550617808" lon="10.488367083100512"><ele>1.7142857142857142</ele><time>2026-04-17T16:37:41Z</time></trkpt><trkpt lat="43.309499588888734" lon="10.488419583381296"><ele>1.4285714285714284</ele><time>2026-04-17T16:37:45Z</time></trkpt><trkpt lat="43.309444968846755" lon="10.48847086316019"><ele>1.1428571428571428</ele><time>2026-04-17T16:37:49Z</time></trkpt><trkpt lat="43.30938601074952" lon="10.48851902812035"><ele>0.8571428571428571</ele><time>2026-04-17T16:37:53Z</time></trkpt><trkpt lat="43.30933062981105" lon="10.488569172871028"><ele>0.5714285714285714</ele><time>2026-04-17T16:37:57Z</time></trkpt><trkpt lat="43.309275977608394" lon="10.488622069814417"><ele>0.2857142857142857</ele><time>2026-04-17T16:38:01Z</time></trkpt><trkpt lat="43.309212098570065" lon="10.488671097083554"><ele>0.0</ele><time>2026-04-17T16:38:05Z</time></trkpt><trkpt lat="43.30915662095274" lon="10.48871810368918"><ele>0.14285714285714285</ele><time>2026-04-17T16:38:09Z</time></trkpt><trkpt lat="43.309103625676734" lon="10.48876759105872"><ele>0.2857142857142857</ele><time>2026-04-17T16:38:13Z</time></trkpt><trkpt lat="43.30904951056809" lon="10.48881717808169"><ele>0.42857142857142855</ele><time>2026-04-17T16:38:17Z</time></trkpt><trkpt lat="43.308995835791244" lon="10.488865422266914"><ele>0.5714285714285714</ele><time>2026-04-17T16:38:21Z</time></trkpt><trkpt lat="43.308943401997126" lon="10.488915900561778"><ele>0.7142857142857142</ele><time>2026-04-17T16:38:25Z</time></trkpt><trkpt lat="43.30888441407112" lon="10.48896035307989"><ele>0.8571428571428571</ele><time>2026-04-17T16:38:29Z</time></trkpt><trkpt lat="43.30883022816229" lon="10.489008116108886"><ele>1.0</ele><time>2026-04-17T16:38:33Z</time></trkpt><trkpt lat="43.30877502260066" lon="10.489057521508178"><ele>1.0</ele><time>2026-04-17T16:38:37Z</time></trkpt><trkpt lat="43.308718613752546" lon="10.489106641933176"><ele>0.9999999999999999</ele><time>2026-04-17T16:38:41Z</time></trkpt><trkpt lat="43.30865827878428" lon="10.48914901764458"><ele>1.0</ele><time>2026-04-17T16:38:45Z</time></trkpt><trkpt lat="43.30860363499721" lon="10.489195469917044"><ele>1.0</ele><time>2026-04-17T16:38:49Z</time></trkpt><trkpt lat="43.30854843832578" lon="10.489239273443525"><ele>0.9999999999999999</ele><time>2026-04-17T16:38:53Z</time></trkpt><trkpt lat="43.30848658414065" lon="10.489301275307016"><ele>1.0</ele><time>2026-04-17T16:38:58Z</time></trkpt><trkpt lat="43.308434027196625" lon="10.489350241779393"><ele>1.0</ele><time>2026-04-17T16:39:02Z</time></trkpt><trkpt lat="43.30838037492119" lon="10.48939989313226"><ele>1.0</ele><time>2026-04-17T16:39:06Z</time></trkpt><trkpt lat="43.308329635063345" lon="10.489457212843849"><ele>0.9999999999999999</ele><time>2026-04-17T16:39:10Z</time></trkpt><trkpt lat="43.30827217037069" lon="10.48950865256666"><ele>1.0</ele><time>2026-04-17T16:39:14Z</time></trkpt><trkpt lat="43.308214754981144" lon="10.489563175471066"><ele>1.0</ele><time>2026-04-17T16:39:18Z</time></trkpt><trkpt lat="43.3081577473494" lon="10.489611041984016"><ele>0.9999999999999999</ele><time>2026-04-17T16:39:22Z</time></trkpt><trkpt lat="43.3081029189937" lon="10.48966203210075"><ele>1.0</ele><time>2026-04-17T16:39:26Z</time></trkpt><trkpt lat="43.30804773958177" lon="10.489712993213065"><ele>1.0</ele><time>2026-04-17T16:39:30Z</time></trkpt><trkpt lat="43.307991151660524" lon="10.489765050347689"><ele>1.4285714285714284</ele><time>2026-04-17T16:39:34Z</time></trkpt><trkpt lat="43.3079314815357" lon="10.489811935850446"><ele>1.857142857142857</ele><time>2026-04-17T16:39:38Z</time></trkpt><trkpt lat="43.30786981527494" lon="10.489860164346364"><ele>2.2857142857142856</ele><time>2026-04-17T16:39:42Z</time></trkpt><trkpt lat="43.3078102015019" lon="10.489908529180791"><ele>2.714285714285714</ele><time>2026-04-17T16:39:46Z</time></trkpt><trkpt lat="43.30775069271282" lon="10.489959636649935"><ele>3.1428571428571423</ele><time>2026-04-17T16:39:50Z</time></trkpt><trkpt lat="43.307697909336824" lon="10.490013184309312"><ele>3.571428571428571</ele><time>2026-04-17T16:39:54Z</time></trkpt><trkpt lat="43.30763540886673" lon="10.490061996506611"><ele>4.0</ele><time>2026-04-17T16:39:58Z</time></trkpt><trkpt lat="43.307583308316616" lon="10.490112451343034"><ele>4.0</ele><time>2026-04-17T16:40:02Z</time></trkpt><trkpt lat="43.30752914063459" lon="10.490158243908883"><ele>3.9999999999999996</ele><time>2026-04-17T16:40:06Z</time></trkpt><trkpt lat="43.307465068390016" lon="10.49020933461519"><ele>4.0</ele><time>2026-04-17T16:40:11Z</time></trkpt><trkpt lat="43.307397173900505" lon="10.490263658233427"><ele>4.0</ele><time>2026-04-17T16:40:16Z</time></trkpt><trkpt lat="43.30734098799408" lon="10.490313474841512"><ele>3.9999999999999996</ele><time>2026-04-17T16:40:20Z</time></trkpt><trkpt lat="43.307283256487985" lon="10.49035506005597"><ele>4.0</ele><time>2026-04-17T16:40:24Z</time></trkpt><trkpt lat="43.30723519961218" lon="10.49041306775388"><ele>4.0</ele><time>2026-04-17T16:40:28Z</time></trkpt><trkpt lat="43.30718408674239" lon="10.490470162417022"><ele>3.8571428571428568</ele><time>2026-04-17T16:40:32Z</time></trkpt><trkpt lat="43.30712330339893" lon="10.490523860140824"><ele>3.714285714285714</ele><time>2026-04-17T16:40:36Z</time></trkpt><trkpt lat="43.30706652082118" lon="10.490580460550913"><ele>3.571428571428571</ele><time>2026-04-17T16:40:40Z</time></trkpt><trkpt lat="43.307006539156404" lon="10.490631472251518"><ele>3.4285714285714284</ele><time>2026-04-17T16:40:44Z</time></trkpt><trkpt lat="43.30694439439032" lon="10.490681840034625"><ele>3.2857142857142856</ele><time>2026-04-17T16:40:48Z</time></trkpt><trkpt lat="43.306885474285885" lon="10.490732882704219"><ele>3.1428571428571423</ele><time>2026-04-17T16:40:52Z</time></trkpt><trkpt lat="43.30682856046949" lon="10.490786186295884"><ele>3.0</ele><time>2026-04-17T16:40:56Z</time></trkpt><trkpt lat="43.306770149292866" lon="10.490835727956966"><ele>2.9999999999999996</ele><time>2026-04-17T16:41:00Z</time></trkpt><trkpt lat="43.306712258193016" lon="10.490886757028907"><ele>3.0</ele><time>2026-04-17T16:41:04Z</time></trkpt><trkpt lat="43.30665281646328" lon="10.490932486906365"><ele>3.0</ele><time>2026-04-17T16:41:08Z</time></trkpt><trkpt lat="43.30659562344545" lon="10.490981445442598"><ele>3.0</ele><time>2026-04-17T16:41:12Z</time></trkpt><trkpt lat="43.30653775441708" lon="10.491032818012624"><ele>3.0</ele><time>2026-04-17T16:41:16Z</time></trkpt><trkpt lat="43.30647351868189" lon="10.491092117544884"><ele>2.9999999999999996</ele><time>2026-04-17T16:41:21Z</time></trkpt><trkpt lat="43.30640583806215" lon="10.491149480127506"><ele>3.0</ele><time>2026-04-17T16:41:26Z</time></trkpt><trkpt lat="43.30634991019817" lon="10.491198886693759"><ele>2.8571428571428568</ele><time>2026-04-17T16:41:30Z</time></trkpt><trkpt lat="43.30629287381947" lon="10.4912505640845"><ele>2.7142857142857144</ele><time>2026-04-17T16:41:34Z</time></trkpt><trkpt lat="43.30623487685807" lon="10.491304270681265"><ele>2.571428571428571</ele><time>2026-04-17T16:41:38Z</time></trkpt><trkpt lat="43.30617800496352" lon="10.491358721458099"><ele>2.4285714285714284</ele><time>2026-04-17T16:41:42Z</time></trkpt><trkpt lat="43.306119471905795" lon="10.491407154113913"><ele>2.2857142857142856</ele><time>2026-04-17T16:41:46Z</time></trkpt><trkpt lat="43.30606334576643" lon="10.49145935310605"><ele>2.142857142857143</ele><time>2026-04-17T16:41:50Z</time></trkpt><trkpt lat="43.30600992061879" lon="10.491513168257923"><ele>2.0</ele><time>2026-04-17T16:41:54Z</time></trkpt><trkpt lat="43.30595283267093" lon="10.49155865627014"><ele>1.857142857142857</ele><time>2026-04-17T16:41:58Z</time></trkpt><trkpt lat="43.30589664707192" lon="10.491607925394733"><ele>1.714285714285714</ele><time>2026-04-17T16:42:02Z</time></trkpt><trkpt lat="43.30584363738873" lon="10.491659304875023"><ele>1.5714285714285714</ele><time>2026-04-17T16:42:06Z</time></trkpt><trkpt lat="43.305791060245866" lon="10.49170912878033"><ele>1.4285714285714284</ele><time>2026-04-17T16:42:10Z</time></trkpt><trkpt lat="43.305739225272454" lon="10.491758825533996"><ele>1.2857142857142856</ele><time>2026-04-17T16:42:14Z</time></trkpt><trkpt lat="43.30568747753597" lon="10.491810048155916"><ele>1.1428571428571428</ele><time>2026-04-17T16:42:18Z</time></trkpt><trkpt lat="43.305632033907116" lon="10.491859127511256"><ele>1.0</ele><time>2026-04-17T16:42:22Z</time></trkpt><trkpt lat="43.30557735872903" lon="10.491914592348781"><ele>0.8571428571428571</ele><time>2026-04-17T16:42:26Z</time></trkpt><trkpt lat="43.30552052592987" lon="10.491966580797088"><ele>0.7142857142857142</ele><time>2026-04-17T16:42:30Z</time></trkpt><trkpt lat="43.305465515854145" lon="10.49202039679488"><ele>0.5714285714285714</ele><time>2026-04-17T16:42:34Z</time></trkpt><trkpt lat="43.30540593571793" lon="10.49206717396371"><ele>0.42857142857142855</ele><time>2026-04-17T16:42:38Z</time></trkpt><trkpt lat="43.30534730183049" lon="10.492120125781133"><ele>0.2857142857142857</ele><time>2026-04-17T16:42:42Z</time></trkpt><trkpt lat="43.305287975347504" lon="10.492172442383247"><ele>0.14285714285714285</ele><time>2026-04-17T16:42:46Z</time></trkpt><trkpt lat="43.30523104996201" lon="10.492222630740816"><ele>0.0</ele><time>2026-04-17T16:42:50Z</time></trkpt><trkpt lat="43.30516738210542" lon="10.492287798635562"><ele>0.0</ele><time>2026-04-17T16:42:55Z</time></trkpt><trkpt lat="43.30511266253894" lon="10.492335397676472"><ele>0.0</ele><time>2026-04-17T16:42:59Z</time></trkpt><trkpt lat="43.305056762188904" lon="10.492383580041633"><ele>0.0</ele><time>2026-04-17T16:43:03Z</time></trkpt><trkpt lat="43.304999968555954" lon="10.49243288547871"><ele>0.0</ele><time>2026-04-17T16:43:07Z</time></trkpt><trkpt lat="43.30494263215554" lon="10.492487004294652"><ele>0.0</ele><time>2026-04-17T16:43:11Z</time></trkpt><trkpt lat="43.30488138267697" lon="10.49254164133471"><ele>0.0</ele><time>2026-04-17T16:43:15Z</time></trkpt><trkpt lat="43.30482123802699" lon="10.49259283635355"><ele>0.0</ele><time>2026-04-17T16:43:19Z</time></trkpt><trkpt lat="43.304760198962924" lon="10.492643784904843"><ele>0.0</ele><time>2026-04-17T16:43:23Z</time></trkpt><trkpt lat="43.30470251426308" lon="10.492696867204753"><ele>0.0</ele><time>2026-04-17T16:43:27Z</time></trkpt><trkpt lat="43.304641839213396" lon="10.492735445286645"><ele>0.0</ele><time>2026-04-17T16:43:31Z</time></trkpt><trkpt lat="43.304584139557434" lon="10.492779088801072"><ele>0.0</ele><time>2026-04-17T16:43:35Z</time></trkpt><trkpt lat="43.30452091706731" lon="10.492837896684481"><ele>0.0</ele><time>2026-04-17T16:43:40Z</time></trkpt><trkpt lat="43.30445657884823" lon="10.492894053477535"><ele>0.0</ele><time>2026-04-17T16:43:45Z</time></trkpt><trkpt lat="43.30439488835875" lon="10.492940855346625"><ele>0.0</ele><time>2026-04-17T16:43:49Z</time></trkpt><trkpt lat="43.3043315852425" lon="10.492985221360266"><ele>0.0</ele><time>2026-04-17T16:43:53Z</time></trkpt><trkpt lat="43.3042743054067" lon="10.493032774677568"><ele>0.0</ele><time>2026-04-17T16:43:57Z</time></trkpt><trkpt lat="43.304214108699085" lon="10.493076986204203"><ele>0.0</ele><time>2026-04-17T16:44:01Z</time></trkpt><trkpt lat="43.304155029694044" lon="10.493125883187663"><ele>0.0</ele><time>2026-04-17T16:44:05Z</time></trkpt><trkpt lat="43.30409772477322" lon="10.493173202413677"><ele>0.0</ele><time>2026-04-17T16:44:09Z</time></trkpt><trkpt lat="43.304043147633195" lon="10.493222115128999"><ele>0.0</ele><time>2026-04-17T16:44:13Z</time></trkpt><trkpt lat="43.303988058352836" lon="10.493267676341095"><ele>0.0</ele><time>2026-04-17T16:44:17Z</time></trkpt><trkpt lat="43.303934420821655" lon="10.493313989171062"><ele>0.14285714285714285</ele><time>2026-04-17T16:44:21Z</time></trkpt><trkpt lat="43.30387871520281" lon="10.49335794707908"><ele>0.2857142857142857</ele><time>2026-04-17T16:44:25Z</time></trkpt><trkpt lat="43.303823806991254" lon="10.493404913774219"><ele>0.42857142857142855</ele><time>2026-04-17T16:44:29Z</time></trkpt><trkpt lat="43.30376739438253" lon="10.493449284482915"><ele>0.5714285714285714</ele><time>2026-04-17T16:44:33Z</time></trkpt><trkpt lat="43.30370892586469" lon="10.493494838218593"><ele>0.7142857142857142</ele><time>2026-04-17T16:44:37Z</time></trkpt><trkpt lat="43.3036526497731" lon="10.493541162975236"><ele>0.8571428571428571</ele><time>2026-04-17T16:44:41Z</time></trkpt><trkpt lat="43.30359693688076" lon="10.493584067898206"><ele>1.0</ele><time>2026-04-17T16:44:45Z</time></trkpt><trkpt lat="43.30354148920214" lon="10.493629669827644"><ele>1.0</ele><time>2026-04-17T16:44:49Z</time></trkpt><trkpt lat="43.303487321879466" lon="10.493674260631083"><ele>0.9999999999999999</ele><time>2026-04-17T16:44:53Z</time></trkpt><trkpt lat="43.303432264289754" lon="10.493721299922228"><ele>1.0</ele><time>2026-04-17T16:44:57Z</time></trkpt><trkpt lat="43.303376383107654" lon="10.493765217818467"><ele>1.0</ele><time>2026-04-17T16:45:01Z</time></trkpt><trkpt lat="43.3033221020791" lon="10.493821784768679"><ele>0.9999999999999999</ele><time>2026-04-17T16:45:05Z</time></trkpt><trkpt lat="43.30327158906264" lon="10.493874843123425"><ele>1.0</ele><time>2026-04-17T16:45:09Z</time></trkpt><trkpt lat="43.303220006345285" lon="10.493928397181687"><ele>1.0</ele><time>2026-04-17T16:45:13Z</time></trkpt><trkpt lat="43.30315139068985" lon="10.493985003161246"><ele>1.1428571428571428</ele><time>2026-04-17T16:45:18Z</time></trkpt><trkpt lat="43.303089987260336" lon="10.494026930755533"><ele>1.2857142857142856</ele><time>2026-04-17T16:45:22Z</time></trkpt><trkpt lat="43.30302881603082" lon="10.494067335619912"><ele>1.4285714285714284</ele><time>2026-04-17T16:45:26Z</time></trkpt><trkpt lat="43.30296746364861" lon="10.494108482555214"><ele>1.5714285714285714</ele><time>2026-04-17T16:45:30Z</time></trkpt><trkpt lat="43.30290831853682" lon="10.494163338375794"><ele>1.714285714285714</ele><time>2026-04-17T16:45:35Z</time></trkpt><trkpt lat="43.302846507297545" lon="10.494197607063759"><ele>1.857142857142857</ele><time>2026-04-17T16:45:39Z</time></trkpt><trkpt lat="43.30280487682822" lon="10.494281667806868"><ele>2.0</ele><time>2026-04-17T16:45:44Z</time></trkpt><trkpt lat="43.302803867051644" lon="10.494382406305496"><ele>2.0</ele><time>2026-04-17T16:45:51Z</time></trkpt><trkpt lat="43.3028233083875" lon="10.4944676821467"><ele>1.9999999999999998</ele><time>2026-04-17T16:45:55Z</time></trkpt><trkpt lat="43.30287175639698" lon="10.494538849779255"><ele>2.0</ele><time>2026-04-17T16:46:00Z</time></trkpt><trkpt lat="43.302909078375045" lon="10.494611492459732"><ele>2.0</ele><time>2026-04-17T16:46:03Z</time></trkpt><trkpt lat="43.302938602878825" lon="10.494702063044004"><ele>1.9999999999999998</ele><time>2026-04-17T16:46:07Z</time></trkpt><trkpt lat="43.30296841632732" lon="10.49478840598424"><ele>2.0</ele><time>2026-04-17T16:46:11Z</time></trkpt><trkpt lat="43.30300121841123" lon="10.494873089396199"><ele>2.0</ele><time>2026-04-17T16:46:15Z</time></trkpt><trkpt lat="43.303039156941345" lon="10.494949114879153"><ele>2.142857142857143</ele><time>2026-04-17T16:46:19Z</time></trkpt><trkpt lat="43.30307532101346" lon="10.495022154105804"><ele>2.2857142857142856</ele><time>2026-04-17T16:46:23Z</time></trkpt><trkpt lat="43.30311404040584" lon="10.495098195658716"><ele>2.4285714285714284</ele><time>2026-04-17T16:46:27Z</time></trkpt><trkpt lat="43.30315403943354" lon="10.49517320688488"><ele>2.571428571428571</ele><time>2026-04-17T16:46:31Z</time></trkpt><trkpt lat="43.30318547507494" lon="10.49525249647084"><ele>2.7142857142857144</ele><time>2026-04-17T16:46:35Z</time></trkpt><trkpt lat="43.303219924249326" lon="10.495329342292411"><ele>2.8571428571428568</ele><time>2026-04-17T16:46:39Z</time></trkpt><trkpt lat="43.30325352408476" lon="10.495410741148785"><ele>3.0</ele><time>2026-04-17T16:46:44Z</time></trkpt><trkpt lat="43.303280906504604" lon="10.495489121424255"><ele>3.1428571428571423</ele><time>2026-04-17T16:46:47Z</time></trkpt><trkpt lat="43.303315426026906" lon="10.495572516114157"><ele>3.2857142857142856</ele><time>2026-04-17T16:46:51Z</time></trkpt><trkpt lat="43.303349003144284" lon="10.495654001683997"><ele>3.4285714285714284</ele><time>2026-04-17T16:46:55Z</time></trkpt><trkpt lat="43.30338898407712" lon="10.49572878220085"><ele>3.571428571428571</ele><time>2026-04-17T16:46:59Z</time></trkpt><trkpt lat="43.303427215027256" lon="10.495802710688654"><ele>3.714285714285714</ele><time>2026-04-17T16:47:03Z</time></trkpt><trkpt lat="43.303460111438255" lon="10.49588194512994"><ele>3.8571428571428568</ele><time>2026-04-17T16:47:07Z</time></trkpt><trkpt lat="43.303487239335816" lon="10.495982180321032"><ele>4.0</ele><time>2026-04-17T16:47:11Z</time></trkpt><trkpt lat="43.30352293887893" lon="10.496061363664996"><ele>4.0</ele><time>2026-04-17T16:47:15Z</time></trkpt><trkpt lat="43.30356327275081" lon="10.496151932555557"><ele>3.9999999999999996</ele><time>2026-04-17T16:47:20Z</time></trkpt><trkpt lat="43.30360875207624" lon="10.49624237761862"><ele>4.0</ele><time>2026-04-17T16:47:25Z</time></trkpt><trkpt lat="43.30365113582091" lon="10.496309572796344"><ele>4.0</ele><time>2026-04-17T16:47:29Z</time></trkpt><trkpt lat="43.30369869238982" lon="10.496371470264904"><ele>3.9999999999999996</ele><time>2026-04-17T16:47:33Z</time></trkpt><trkpt lat="43.30375041209831" lon="10.496435653028174"><ele>4.0</ele><time>2026-04-17T16:47:37Z</time></trkpt><trkpt lat="43.3037657672765" lon="10.496530881024452"><ele>4.0</ele><time>2026-04-17T16:47:40Z</time></trkpt><trkpt lat="43.303799540131195" lon="10.496616129644696"><ele>4.0</ele><time>2026-04-17T16:47:44Z</time></trkpt><trkpt lat="43.30384300151215" lon="10.496681177705689"><ele>3.9999999999999996</ele><time>2026-04-17T16:47:48Z</time></trkpt><trkpt lat="43.30388351442798" lon="10.496764370888641"><ele>4.0</ele><time>2026-04-17T16:47:52Z</time></trkpt><trkpt lat="43.303912533724336" lon="10.496856782034854"><ele>4.0</ele><time>2026-04-17T16:47:56Z</time></trkpt><trkpt lat="43.30394846000308" lon="10.496938529972152"><ele>3.9999999999999996</ele><time>2026-04-17T16:48:00Z</time></trkpt><trkpt lat="43.303996155798366" lon="10.497018778522246"><ele>4.0</ele><time>2026-04-17T16:48:06Z</time></trkpt><trkpt lat="43.3040300480913" lon="10.497111310864739"><ele>4.0</ele><time>2026-04-17T16:48:11Z</time></trkpt><trkpt lat="43.30407195800109" lon="10.497205364990439"><ele>4.0</ele><time>2026-04-17T16:48:16Z</time></trkpt><trkpt lat="43.304107000370706" lon="10.497293653429837"><ele>3.9999999999999996</ele><time>2026-04-17T16:48:20Z</time></trkpt><trkpt lat="43.3041456931244" lon="10.497369534941024"><ele>4.0</ele><time>2026-04-17T16:48:24Z</time></trkpt><trkpt lat="43.30418532352678" lon="10.497447255393382"><ele>4.0</ele><time>2026-04-17T16:48:29Z</time></trkpt><trkpt lat="43.3042218768364" lon="10.497524482328599"><ele>3.9999999999999996</ele><time>2026-04-17T16:48:33Z</time></trkpt><trkpt lat="43.30425850564542" lon="10.497611732314509"><ele>4.0</ele><time>2026-04-17T16:48:37Z</time></trkpt><trkpt lat="43.304300329080775" lon="10.497695954827552"><ele>4.0</ele><time>2026-04-17T16:48:41Z</time></trkpt><trkpt lat="43.30433411526327" lon="10.497788618711638"><ele>4.0</ele><time>2026-04-17T16:48:45Z</time></trkpt><trkpt lat="43.30437202161095" lon="10.49787979303548"><ele>3.9999999999999996</ele><time>2026-04-17T16:48:49Z</time></trkpt><trkpt lat="43.30441016487822" lon="10.497954642524206"><ele>4.0</ele><time>2026-04-17T16:48:53Z</time></trkpt><trkpt lat="43.304447176835254" lon="10.498041234125793"><ele>4.0</ele><time>2026-04-17T16:48:57Z</time></trkpt><trkpt lat="43.30448942664295" lon="10.498134692698809"><ele>3.9999999999999996</ele><time>2026-04-17T16:49:01Z</time></trkpt><trkpt lat="43.30452437565418" lon="10.49822762117242"><ele>4.0</ele><time>2026-04-17T16:49:05Z</time></trkpt><trkpt lat="43.30455551266989" lon="10.498308096472206"><ele>4.0</ele><time>2026-04-17T16:49:09Z</time></trkpt><trkpt lat="43.304508468525476" lon="10.49839547177299"><ele>4.0</ele><time>2026-04-17T16:49:13Z</time></trkpt><trkpt lat="43.30446125797653" lon="10.498466394358566"><ele>3.9999999999999996</ele><time>2026-04-17T16:49:17Z</time></trkpt><trkpt lat="43.30440905805561" lon="10.498517061568172"><ele>4.0</ele><time>2026-04-17T16:49:21Z</time></trkpt><trkpt lat="43.30436243949901" lon="10.498585478147476"><ele>4.0</ele><time>2026-04-17T16:49:26Z</time></trkpt><trkpt lat="43.30433112207432" lon="10.498674406654041"><ele>3.9999999999999996</ele><time>2026-04-17T16:49:33Z</time></trkpt><trkpt lat="43.30426305292763" lon="10.498729795795471"><ele>4.0</ele><time>2026-04-17T16:49:38Z</time></trkpt><trkpt lat="43.30420075522798" lon="10.498772233618578"><ele>4.0</ele><time>2026-04-17T16:49:41Z</time></trkpt><trkpt lat="43.30412926615404" lon="10.498817738790756"><ele>3.8571428571428568</ele><time>2026-04-17T16:49:45Z</time></trkpt><trkpt lat="43.3040663762505" lon="10.498874227130829"><ele>3.714285714285714</ele><time>2026-04-17T16:49:49Z</time></trkpt><trkpt lat="43.304010212920915" lon="10.498918822371618"><ele>3.571428571428571</ele><time>2026-04-17T16:49:53Z</time></trkpt><trkpt lat="43.303949118543656" lon="10.498970999130957"><ele>3.4285714285714284</ele><time>2026-04-17T16:49:57Z</time></trkpt><trkpt lat="43.3038908205432" lon="10.499026698686794"><ele>3.2857142857142856</ele><time>2026-04-17T16:50:01Z</time></trkpt><trkpt lat="43.303840195197004" lon="10.499081419432342"><ele>3.1428571428571423</ele><time>2026-04-17T16:50:07Z</time></trkpt><trkpt lat="43.303779241407184" lon="10.499150618141687"><ele>3.0</ele><time>2026-04-17T16:50:12Z</time></trkpt><trkpt lat="43.30371088608862" lon="10.499206562237271"><ele>3.0</ele><time>2026-04-17T16:50:16Z</time></trkpt><trkpt lat="43.30364356172723" lon="10.499258667987041"><ele>3.0</ele><time>2026-04-17T16:50:21Z</time></trkpt><trkpt lat="43.30358530751978" lon="10.499335624903214"><ele>3.0</ele><time>2026-04-17T16:50:26Z</time></trkpt><trkpt lat="43.303545838983624" lon="10.499425259409636"><ele>3.0</ele><time>2026-04-17T16:50:30Z</time></trkpt><trkpt lat="43.30350274446909" lon="10.499501897596579"><ele>3.0</ele><time>2026-04-17T16:50:34Z</time></trkpt><trkpt lat="43.3034454673486" lon="10.499563143272848"><ele>3.0</ele><time>2026-04-17T16:50:39Z</time></trkpt><trkpt lat="43.30339253521361" lon="10.499644917519039"><ele>3.1428571428571423</ele><time>2026-04-17T16:50:43Z</time></trkpt><trkpt lat="43.30334199659136" lon="10.499708131204404"><ele>3.2857142857142856</ele><time>2026-04-17T16:50:47Z</time></trkpt><trkpt lat="43.30328714788492" lon="10.499755283390554"><ele>3.4285714285714284</ele><time>2026-04-17T16:50:51Z</time></trkpt><trkpt lat="43.30323290107055" lon="10.499806427300145"><ele>3.571428571428571</ele><time>2026-04-17T16:50:55Z</time></trkpt><trkpt lat="43.30317104943288" lon="10.499855225179093"><ele>3.714285714285714</ele><time>2026-04-17T16:51:00Z</time></trkpt><trkpt lat="43.30311673850809" lon="10.499910329666449"><ele>3.8571428571428568</ele><time>2026-04-17T16:51:04Z</time></trkpt><trkpt lat="43.303062815157205" lon="10.499978574002851"><ele>4.0</ele><time>2026-04-17T16:51:08Z</time></trkpt><trkpt lat="43.3030054648475" lon="10.500042330181074"><ele>4.0</ele><time>2026-04-17T16:51:12Z</time></trkpt><trkpt lat="43.302945328552376" lon="10.500092743181915"><ele>3.9999999999999996</ele><time>2026-04-17T16:51:16Z</time></trkpt><trkpt lat="43.30288811725727" lon="10.500166609500624"><ele>4.0</ele><time>2026-04-17T16:51:21Z</time></trkpt><trkpt lat="43.30283438658132" lon="10.500215230867793"><ele>4.0</ele><time>2026-04-17T16:51:25Z</time></trkpt><trkpt lat="43.30277909586697" lon="10.500270207363966"><ele>3.9999999999999996</ele><time>2026-04-17T16:51:29Z</time></trkpt><trkpt lat="43.30283360519444" lon="10.50032533307973"><ele>4.0</ele><time>2026-04-17T16:51:42Z</time></trkpt><trkpt lat="43.30281342670707" lon="10.500438755272897"><ele>4.0</ele><time>2026-04-17T16:51:54Z</time></trkpt><trkpt lat="43.30277053728637" lon="10.5005147820937"><ele>4.0</ele><time>2026-04-17T16:51:58Z</time></trkpt><trkpt lat="43.302743524909225" lon="10.500595933953248"><ele>3.9999999999999996</ele><time>2026-04-17T16:52:03Z</time></trkpt><trkpt lat="43.302675347938276" lon="10.500561944314803"><ele>4.0</ele><time>2026-04-17T16:52:09Z</time></trkpt><trkpt lat="43.302614528396006" lon="10.500504400365246"><ele>4.0</ele><time>2026-04-17T16:52:15Z</time></trkpt><trkpt lat="43.30254406479929" lon="10.50047256867881"><ele>3.9999999999999996</ele><time>2026-04-17T16:52:19Z</time></trkpt><trkpt lat="43.30246151787419" lon="10.500467073303675"><ele>4.0</ele><time>2026-04-17T16:52:23Z</time></trkpt><trkpt lat="43.30238161785382" lon="10.500481048203378"><ele>4.0</ele><time>2026-04-17T16:52:27Z</time></trkpt><trkpt lat="43.30231747813538" lon="10.500537478156932"><ele>4.0</ele><time>2026-04-17T16:52:31Z</time></trkpt><trkpt lat="43.30225178583349" lon="10.500585613365773"><ele>3.9999999999999996</ele><time>2026-04-17T16:52:35Z</time></trkpt><trkpt lat="43.30218350035228" lon="10.500650814818222"><ele>4.0</ele><time>2026-04-17T16:52:40Z</time></trkpt><trkpt lat="43.30212687610417" lon="10.500706648088462"><ele>4.0</ele><time>2026-04-17T16:52:44Z</time></trkpt><trkpt lat="43.302066109596325" lon="10.500741050612591"><ele>3.9999999999999996</ele><time>2026-04-17T16:52:48Z</time></trkpt><trkpt lat="43.30200843880843" lon="10.500793237942302"><ele>4.0</ele><time>2026-04-17T16:52:54Z</time></trkpt><trkpt lat="43.301955733238906" lon="10.50084912365742"><ele>4.0</ele><time>2026-04-17T16:52:57Z</time></trkpt><trkpt lat="43.301908581962614" lon="10.500924021172294"><ele>3.8571428571428568</ele><time>2026-04-17T16:53:01Z</time></trkpt><trkpt lat="43.30185031257591" lon="10.500984070920463"><ele>3.714285714285714</ele><time>2026-04-17T16:53:05Z</time></trkpt><trkpt lat="43.30178832914664" lon="10.501041565331157"><ele>3.571428571428571</ele><time>2026-04-17T16:53:09Z</time></trkpt><trkpt lat="43.30172505717611" lon="10.501099061525219"><ele>3.4285714285714284</ele><time>2026-04-17T16:53:13Z</time></trkpt><trkpt lat="43.30166177405326" lon="10.501154111667512"><ele>3.2857142857142856</ele><time>2026-04-17T16:53:17Z</time></trkpt><trkpt lat="43.30159980602993" lon="10.501213034987229"><ele>3.1428571428571423</ele><time>2026-04-17T16:53:21Z</time></trkpt><trkpt lat="43.301536465588676" lon="10.501268162185932"><ele>3.0</ele><time>2026-04-17T16:53:25Z</time></trkpt><trkpt lat="43.30147527647711" lon="10.501325384020834"><ele>2.571428571428571</ele><time>2026-04-17T16:53:29Z</time></trkpt><trkpt lat="43.30141721527148" lon="10.501377208596585"><ele>2.142857142857143</ele><time>2026-04-17T16:53:33Z</time></trkpt><trkpt lat="43.301356561539826" lon="10.50142830681573"><ele>1.7142857142857142</ele><time>2026-04-17T16:53:37Z</time></trkpt><trkpt lat="43.30129478782036" lon="10.501478859903393"><ele>1.2857142857142856</ele><time>2026-04-17T16:53:41Z</time></trkpt><trkpt lat="43.30123528643109" lon="10.501532991591016"><ele>0.8571428571428571</ele><time>2026-04-17T16:53:45Z</time></trkpt><trkpt lat="43.30117490976281" lon="10.501583731934854"><ele>0.42857142857142855</ele><time>2026-04-17T16:53:49Z</time></trkpt><trkpt lat="43.3011168728844" lon="10.501639256704795"><ele>0.0</ele><time>2026-04-17T16:53:53Z</time></trkpt><trkpt lat="43.30106216986424" lon="10.501697817636332"><ele>0.0</ele><time>2026-04-17T16:53:57Z</time></trkpt><trkpt lat="43.30100663214087" lon="10.501749948040157"><ele>0.0</ele><time>2026-04-17T16:54:01Z</time></trkpt><trkpt lat="43.30094723266206" lon="10.501805126592279"><ele>0.0</ele><time>2026-04-17T16:54:05Z</time></trkpt><trkpt lat="43.30088862375728" lon="10.501861019535289"><ele>0.0</ele><time>2026-04-17T16:54:09Z</time></trkpt><trkpt lat="43.30083114753711" lon="10.501917045687813"><ele>0.0</ele><time>2026-04-17T16:54:13Z</time></trkpt><trkpt lat="43.300779622899405" lon="10.501983364981735"><ele>0.0</ele><time>2026-04-17T16:54:17Z</time></trkpt><trkpt lat="43.30071427196665" lon="10.502051260078433"><ele>0.0</ele><time>2026-04-17T16:54:50Z</time></trkpt><trkpt lat="43.30063806659275" lon="10.50210683678852"><ele>0.14285714285714285</ele><time>2026-04-17T16:54:54Z</time></trkpt><trkpt lat="43.3005775535869" lon="10.502154893091435"><ele>0.2857142857142857</ele><time>2026-04-17T16:54:58Z</time></trkpt><trkpt lat="43.30051732856751" lon="10.502211169954204"><ele>0.42857142857142855</ele><time>2026-04-17T16:55:02Z</time></trkpt><trkpt lat="43.30046312863386" lon="10.502257836546754"><ele>0.5714285714285714</ele><time>2026-04-17T16:55:06Z</time></trkpt><trkpt lat="43.30040294968372" lon="10.502308814627998"><ele>0.7142857142857142</ele><time>2026-04-17T16:55:10Z</time></trkpt><trkpt lat="43.30034490069687" lon="10.502364665347619"><ele>0.8571428571428571</ele><time>2026-04-17T16:55:14Z</time></trkpt><trkpt lat="43.30028610692713" lon="10.502416409769863"><ele>1.0</ele><time>2026-04-17T16:55:18Z</time></trkpt><trkpt lat="43.300229101795225" lon="10.502468056195285"><ele>1.0</ele><time>2026-04-17T16:55:22Z</time></trkpt><trkpt lat="43.30016507870993" lon="10.502519171032525"><ele>0.9999999999999999</ele><time>2026-04-17T16:55:26Z</time></trkpt><trkpt lat="43.3001064619413" lon="10.5025732602903"><ele>1.0</ele><time>2026-04-17T16:55:30Z</time></trkpt><trkpt lat="43.30004665253517" lon="10.502628429485659"><ele>1.0</ele><time>2026-04-17T16:55:34Z</time></trkpt><trkpt lat="43.299983875736274" lon="10.502681138161888"><ele>0.9999999999999999</ele><time>2026-04-17T16:55:38Z</time></trkpt><trkpt lat="43.29992305886217" lon="10.502734134471154"><ele>1.0</ele><time>2026-04-17T16:55:42Z</time></trkpt><trkpt lat="43.299863127535794" lon="10.502784374965682"><ele>1.0</ele><time>2026-04-17T16:55:46Z</time></trkpt><trkpt lat="43.29980399212445" lon="10.502838785506125"><ele>1.0</ele><time>2026-04-17T16:55:50Z</time></trkpt><trkpt lat="43.29974677760401" lon="10.502890747676433"><ele>0.9999999999999999</ele><time>2026-04-17T16:55:54Z</time></trkpt><trkpt lat="43.29969060257859" lon="10.502943799882202"><ele>1.0</ele><time>2026-04-17T16:55:58Z</time></trkpt><trkpt lat="43.29962738365118" lon="10.502980636665008"><ele>1.0</ele><time>2026-04-17T16:56:02Z</time></trkpt><trkpt lat="43.299561003243376" lon="10.5029955097195"><ele>0.9999999999999999</ele><time>2026-04-17T16:56:06Z</time></trkpt><trkpt lat="43.29949431695728" lon="10.50299064146177"><ele>1.0</ele><time>2026-04-17T16:56:10Z</time></trkpt><trkpt lat="43.299431526698335" lon="10.502977859914873"><ele>1.0</ele><time>2026-04-17T16:56:14Z</time></trkpt><trkpt lat="43.29936781520028" lon="10.502954413724016"><ele>1.0</ele><time>2026-04-17T16:56:18Z</time></trkpt><trkpt lat="43.299305798270204" lon="10.502917538073428"><ele>0.9999999999999999</ele><time>2026-04-17T16:56:22Z</time></trkpt><trkpt lat="43.29924424648057" lon="10.502868856448165"><ele>1.0</ele><time>2026-04-17T16:56:26Z</time></trkpt><trkpt lat="43.299187192945965" lon="10.502820163933556"><ele>1.0</ele><time>2026-04-17T16:56:30Z</time></trkpt><trkpt lat="43.29913057362429" lon="10.502765711401238"><ele>0.9999999999999999</ele><time>2026-04-17T16:56:34Z</time></trkpt><trkpt lat="43.29907320359459" lon="10.50271230137708"><ele>1.0</ele><time>2026-04-17T16:56:38Z</time></trkpt><trkpt lat="43.29900994293511" lon="10.502687452471314"><ele>1.0</ele><time>2026-04-17T16:56:42Z</time></trkpt><trkpt lat="43.298932887778136" lon="10.50268915881581"><ele>1.0</ele><time>2026-04-17T16:56:47Z</time></trkpt><trkpt lat="43.298866855826354" lon="10.502719216407726"><ele>0.9999999999999999</ele><time>2026-04-17T16:56:51Z</time></trkpt><trkpt lat="43.29880286164455" lon="10.502769153212343"><ele>1.0</ele><time>2026-04-17T16:56:55Z</time></trkpt><trkpt lat="43.298751784464514" lon="10.502832618804048"><ele>1.0</ele><time>2026-04-17T16:56:59Z</time></trkpt><trkpt lat="43.29870668786319" lon="10.502911285818366"><ele>0.9999999999999999</ele><time>2026-04-17T16:57:03Z</time></trkpt><trkpt lat="43.29867895715072" lon="10.503004667537695"><ele>1.0</ele><time>2026-04-17T16:57:07Z</time></trkpt><trkpt lat="43.29867273848789" lon="10.503097438220351"><ele>1.0</ele><time>2026-04-17T16:57:11Z</time></trkpt><trkpt lat="43.29868453860067" lon="10.503184929830855"><ele>0.8571428571428571</ele><time>2026-04-17T16:57:15Z</time></trkpt><trkpt lat="43.29872318003561" lon="10.503276261072134"><ele>0.7142857142857142</ele><time>2026-04-17T16:57:20Z</time></trkpt><trkpt lat="43.29874152728137" lon="10.503378013045948"><ele>0.5714285714285714</ele><time>2026-04-17T16:57:25Z</time></trkpt><trkpt lat="43.29875934954046" lon="10.503481760189779"><ele>0.42857142857142855</ele><time>2026-04-17T16:57:30Z</time></trkpt><trkpt lat="43.29877370370292" lon="10.50356668031272"><ele>0.2857142857142857</ele><time>2026-04-17T16:57:34Z</time></trkpt><trkpt lat="43.298787984196295" lon="10.503658264251841"><ele>0.14285714285714285</ele><time>2026-04-17T16:57:38Z</time></trkpt><trkpt lat="43.298790909869425" lon="10.503767547817253"><ele>0.0</ele><time>2026-04-17T16:57:43Z</time></trkpt><trkpt lat="43.29879925726673" lon="10.503857951770707"><ele>0.0</ele><time>2026-04-17T16:57:47Z</time></trkpt><trkpt lat="43.29881014218708" lon="10.503952682642455"><ele>0.0</ele><time>2026-04-17T16:57:51Z</time></trkpt><trkpt lat="43.298827624626" lon="10.504044106859045"><ele>0.0</ele><time>2026-04-17T16:57:55Z</time></trkpt><trkpt lat="43.298848955721006" lon="10.504133743236025"><ele>0.0</ele><time>2026-04-17T16:57:59Z</time></trkpt><trkpt lat="43.298864371621356" lon="10.504218724568078"><ele>0.0</ele><time>2026-04-17T16:58:02Z</time></trkpt><trkpt lat="43.29888466340706" lon="10.50432379676429"><ele>0.0</ele><time>2026-04-17T16:58:07Z</time></trkpt><trkpt lat="43.298905399016064" lon="10.504415732181817"><ele>0.0</ele><time>2026-04-17T16:58:11Z</time></trkpt><trkpt lat="43.298926593979424" lon="10.504506711058994"><ele>0.0</ele><time>2026-04-17T16:58:15Z</time></trkpt><trkpt lat="43.29895262343889" lon="10.504594413922693"><ele>0.0</ele><time>2026-04-17T16:58:19Z</time></trkpt><trkpt lat="43.29897541330113" lon="10.504681404733175"><ele>0.0</ele><time>2026-04-17T16:58:23Z</time></trkpt><trkpt lat="43.29899192192056" lon="10.50477288890945"><ele>0.0</ele><time>2026-04-17T16:58:27Z</time></trkpt><trkpt lat="43.29901248397635" lon="10.504862024684268"><ele>0.0</ele><time>2026-04-17T16:58:31Z</time></trkpt><trkpt lat="43.29902687108502" lon="10.504950321667602"><ele>0.0</ele><time>2026-04-17T16:58:35Z</time></trkpt><trkpt lat="43.29904201167603" lon="10.505039050315036"><ele>0.0</ele><time>2026-04-17T16:58:39Z</time></trkpt><trkpt lat="43.29905839735167" lon="10.505129894569702"><ele>0.0</ele><time>2026-04-17T16:58:43Z</time></trkpt><trkpt lat="43.29907331743444" lon="10.505220822375275"><ele>0.0</ele><time>2026-04-17T16:58:47Z</time></trkpt><trkpt lat="43.299093129441815" lon="10.505313251263184"><ele>0.0</ele><time>2026-04-17T16:58:51Z</time></trkpt><trkpt lat="43.29910865841726" lon="10.505402147091187"><ele>0.0</ele><time>2026-04-17T16:58:55Z</time></trkpt><trkpt lat="43.29912410421424" lon="10.50549634585717"><ele>0.0</ele><time>2026-04-17T16:58:59Z</time></trkpt><trkpt lat="43.29914153512398" lon="10.505587050017162"><ele>0.0</ele><time>2026-04-17T16:59:03Z</time></trkpt><trkpt lat="43.29916146136278" lon="10.505674748263077"><ele>0.0</ele><time>2026-04-17T16:59:07Z</time></trkpt><trkpt lat="43.29918126717647" lon="10.505764240435534"><ele>0.0</ele><time>2026-04-17T16:59:11Z</time></trkpt><trkpt lat="43.29920406116835" lon="10.505851821845146"><ele>0.0</ele><time>2026-04-17T16:59:15Z</time></trkpt><trkpt lat="43.29921566065887" lon="10.505942686495809"><ele>0.0</ele><time>2026-04-17T16:59:19Z</time></trkpt><trkpt lat="43.29922640277213" lon="10.50603655626829"><ele>0.0</ele><time>2026-04-17T16:59:23Z</time></trkpt><trkpt lat="43.29923685521116" lon="10.506130527233326"><ele>0.0</ele><time>2026-04-17T16:59:27Z</time></trkpt><trkpt lat="43.29927057124674" lon="10.506214789690102"><ele>0.0</ele><time>2026-04-17T16:59:31Z</time></trkpt><trkpt lat="43.29929307935407" lon="10.5063012146183"><ele>0.0</ele><time>2026-04-17T16:59:35Z</time></trkpt><trkpt lat="43.29931008704253" lon="10.506392363534218"><ele>0.0</ele><time>2026-04-17T16:59:39Z</time></trkpt><trkpt lat="43.29933024433908" lon="10.506485365818524"><ele>0.0</ele><time>2026-04-17T16:59:43Z</time></trkpt><trkpt lat="43.29934957002676" lon="10.50657669064486"><ele>0.0</ele><time>2026-04-17T16:59:47Z</time></trkpt><trkpt lat="43.299370845714805" lon="10.506660592663719"><ele>0.0</ele><time>2026-04-17T16:59:51Z</time></trkpt><trkpt lat="43.29938910654198" lon="10.506746958863625"><ele>0.0</ele><time>2026-04-17T16:59:55Z</time></trkpt><trkpt lat="43.29940694025607" lon="10.506836827235592"><ele>0.0</ele><time>2026-04-17T16:59:59Z</time></trkpt><trkpt lat="43.29942968416007" lon="10.506926013903957"><ele>0.0</ele><time>2026-04-17T17:00:03Z</time></trkpt><trkpt lat="43.2994446488689" lon="10.50701792007946"><ele>0.0</ele><time>2026-04-17T17:00:07Z</time></trkpt><trkpt lat="43.29945849358836" lon="10.507112485083862"><ele>0.0</ele><time>2026-04-17T17:00:11Z</time></trkpt><trkpt lat="43.29947816766647" lon="10.507204325765723"><ele>0.0</ele><time>2026-04-17T17:00:15Z</time></trkpt><trkpt lat="43.29949145742832" lon="10.507295287576223"><ele>0.0</ele><time>2026-04-17T17:00:19Z</time></trkpt><trkpt lat="43.29950761308468" lon="10.50738458848148"><ele>0.0</ele><time>2026-04-17T17:00:23Z</time></trkpt><trkpt lat="43.299526095755716" lon="10.507472670661107"><ele>0.0</ele><time>2026-04-17T17:00:27Z</time></trkpt><trkpt lat="43.29954010862496" lon="10.507561658182063"><ele>0.0</ele><time>2026-04-17T17:00:32Z</time></trkpt><trkpt lat="43.2995542353315" lon="10.507651105470076"><ele>0.0</ele><time>2026-04-17T17:00:36Z</time></trkpt><trkpt lat="43.29958917643727" lon="10.507751303962264"><ele>0.0</ele><time>2026-04-17T17:00:41Z</time></trkpt><trkpt lat="43.299602778055956" lon="10.507848256855823"><ele>0.0</ele><time>2026-04-17T17:00:45Z</time></trkpt><trkpt lat="43.29961605995993" lon="10.507937019222966"><ele>0.0</ele><time>2026-04-17T17:00:49Z</time></trkpt><trkpt lat="43.299658392842204" lon="10.50800458629947"><ele>0.0</ele><time>2026-04-17T17:00:53Z</time></trkpt><trkpt lat="43.29965366806956" lon="10.508101928605257"><ele>0.0</ele><time>2026-04-17T17:00:58Z</time></trkpt><trkpt lat="43.299660143523305" lon="10.508188294939236"><ele>0.0</ele><time>2026-04-17T17:01:02Z</time></trkpt><trkpt lat="43.29968186308354" lon="10.508278738289638"><ele>0.14285714285714285</ele><time>2026-04-17T17:01:05Z</time></trkpt><trkpt lat="43.29970691418699" lon="10.508376269526778"><ele>0.2857142857142857</ele><time>2026-04-17T17:01:09Z</time></trkpt><trkpt lat="43.299728359882835" lon="10.508474139191891"><ele>0.42857142857142855</ele><time>2026-04-17T17:01:13Z</time></trkpt><trkpt lat="43.29975102222816" lon="10.50856876788687"><ele>0.5714285714285714</ele><time>2026-04-17T17:01:17Z</time></trkpt><trkpt lat="43.299778131190415" lon="10.508656822737475"><ele>0.7142857142857142</ele><time>2026-04-17T17:01:21Z</time></trkpt><trkpt lat="43.29978098761184" lon="10.508754809309123"><ele>0.8571428571428571</ele><time>2026-04-17T17:01:25Z</time></trkpt><trkpt lat="43.299788288667514" lon="10.508849228070694"><ele>1.0</ele><time>2026-04-17T17:01:29Z</time></trkpt><trkpt lat="43.29980836060095" lon="10.508942683990401"><ele>1.0</ele><time>2026-04-17T17:01:33Z</time></trkpt><trkpt lat="43.299833877087025" lon="10.50902919801684"><ele>0.9999999999999999</ele><time>2026-04-17T17:01:37Z</time></trkpt><trkpt lat="43.29986168187129" lon="10.509117746699497"><ele>1.0</ele><time>2026-04-17T17:01:41Z</time></trkpt><trkpt lat="43.29987459379694" lon="10.509208875840221"><ele>1.0</ele><time>2026-04-17T17:01:45Z</time></trkpt><trkpt lat="43.29989049528748" lon="10.509296226676796"><ele>0.9999999999999999</ele><time>2026-04-17T17:01:49Z</time></trkpt><trkpt lat="43.2999051728202" lon="10.509385417825778"><ele>1.0</ele><time>2026-04-17T17:01:53Z</time></trkpt><trkpt lat="43.29992106899644" lon="10.50947073353552"><ele>1.0</ele><time>2026-04-17T17:01:57Z</time></trkpt><trkpt lat="43.299945261493036" lon="10.509559374650475"><ele>0.8571428571428571</ele><time>2026-04-17T17:02:01Z</time></trkpt><trkpt lat="43.299967374265606" lon="10.509649975222274"><ele>0.7142857142857142</ele><time>2026-04-17T17:02:05Z</time></trkpt><trkpt lat="43.29999373073776" lon="10.509731912818449"><ele>0.5714285714285714</ele><time>2026-04-17T17:02:09Z</time></trkpt><trkpt lat="43.300014793618516" lon="10.50983061740352"><ele>0.42857142857142855</ele><time>2026-04-17T17:02:14Z</time></trkpt><trkpt lat="43.30003545230423" lon="10.509934692740073"><ele>0.2857142857142857</ele><time>2026-04-17T17:02:19Z</time></trkpt><trkpt lat="43.30004437686852" lon="10.51002530230898"><ele>0.14285714285714285</ele><time>2026-04-17T17:02:23Z</time></trkpt><trkpt lat="43.30005041880832" lon="10.510118952287312"><ele>0.0</ele><time>2026-04-17T17:02:27Z</time></trkpt><trkpt lat="43.300064151010815" lon="10.510208434602138"><ele>0.0</ele><time>2026-04-17T17:02:31Z</time></trkpt><trkpt lat="43.30008525678461" lon="10.510310106635655"><ele>0.0</ele><time>2026-04-17T17:02:36Z</time></trkpt><trkpt lat="43.30010020557612" lon="10.51040170371929"><ele>0.0</ele><time>2026-04-17T17:02:40Z</time></trkpt><trkpt lat="43.30007141878769" lon="10.510501822297146"><ele>0.0</ele><time>2026-04-17T17:02:44Z</time></trkpt><trkpt lat="43.30001610086055" lon="10.510568639553206"><ele>0.0</ele><time>2026-04-17T17:02:48Z</time></trkpt><trkpt lat="43.299955262126446" lon="10.51060721150887"><ele>0.0</ele><time>2026-04-17T17:02:52Z</time></trkpt><trkpt lat="43.29989365589673" lon="10.510643713862535"><ele>0.0</ele><time>2026-04-17T17:02:56Z</time></trkpt><trkpt lat="43.299830213051145" lon="10.510671071644941"><ele>0.14285714285714285</ele><time>2026-04-17T17:03:00Z</time></trkpt><trkpt lat="43.29977117755054" lon="10.51070267807995"><ele>0.2857142857142857</ele><time>2026-04-17T17:03:04Z</time></trkpt><trkpt lat="43.29970760423621" lon="10.510733067867978"><ele>0.42857142857142855</ele><time>2026-04-17T17:03:08Z</time></trkpt><trkpt lat="43.29963645971299" lon="10.510764578310729"><ele>0.5714285714285714</ele><time>2026-04-17T17:03:12Z</time></trkpt><trkpt lat="43.29957229674639" lon="10.510785613777314"><ele>0.7142857142857142</ele><time>2026-04-17T17:03:16Z</time></trkpt><trkpt lat="43.29950436228676" lon="10.510813256456867"><ele>0.8571428571428571</ele><time>2026-04-17T17:03:20Z</time></trkpt><trkpt lat="43.29943904207428" lon="10.51084061259819"><ele>1.0</ele><time>2026-04-17T17:03:24Z</time></trkpt><trkpt lat="43.29937395824401" lon="10.510867188057668"><ele>1.0</ele><time>2026-04-17T17:03:28Z</time></trkpt><trkpt lat="43.29929871544767" lon="10.510897531027751"><ele>0.9999999999999999</ele><time>2026-04-17T17:03:33Z</time></trkpt><trkpt lat="43.29923583982495" lon="10.510926595476905"><ele>1.0</ele><time>2026-04-17T17:03:37Z</time></trkpt><trkpt lat="43.29916913451459" lon="10.510955218335544"><ele>1.0</ele><time>2026-04-17T17:03:41Z</time></trkpt><trkpt lat="43.299103441331" lon="10.510986635618375"><ele>0.9999999999999999</ele><time>2026-04-17T17:03:45Z</time></trkpt><trkpt lat="43.299040890188344" lon="10.511009866316607"><ele>1.0</ele><time>2026-04-17T17:03:49Z</time></trkpt><trkpt lat="43.298976804710065" lon="10.51102933853479"><ele>1.0</ele><time>2026-04-17T17:03:53Z</time></trkpt><trkpt lat="43.298910938089406" lon="10.511052297590146"><ele>0.8571428571428571</ele><time>2026-04-17T17:03:57Z</time></trkpt><trkpt lat="43.29884064571292" lon="10.511072550233749"><ele>0.7142857142857142</ele><time>2026-04-17T17:04:01Z</time></trkpt><trkpt lat="43.29877368705869" lon="10.511109648299872"><ele>0.5714285714285714</ele><time>2026-04-17T17:04:05Z</time></trkpt><trkpt lat="43.29871139765835" lon="10.511143536724989"><ele>0.42857142857142855</ele><time>2026-04-17T17:04:09Z</time></trkpt><trkpt lat="43.29864540858387" lon="10.511171737988448"><ele>0.2857142857142857</ele><time>2026-04-17T17:04:13Z</time></trkpt><trkpt lat="43.298580631125866" lon="10.511204191801685"><ele>0.14285714285714285</ele><time>2026-04-17T17:04:17Z</time></trkpt><trkpt lat="43.2985149544322" lon="10.51123373101398"><ele>0.0</ele><time>2026-04-17T17:04:21Z</time></trkpt><trkpt lat="43.29845035813632" lon="10.511255883434437"><ele>0.0</ele><time>2026-04-17T17:04:25Z</time></trkpt><trkpt lat="43.298384093422754" lon="10.511268867216865"><ele>0.0</ele><time>2026-04-17T17:04:29Z</time></trkpt><trkpt lat="43.298317117153594" lon="10.511284574612088"><ele>0.0</ele><time>2026-04-17T17:04:33Z</time></trkpt><trkpt lat="43.29825065919638" lon="10.511316307124021"><ele>0.0</ele><time>2026-04-17T17:04:37Z</time></trkpt><trkpt lat="43.2981875941585" lon="10.511352683305532"><ele>0.0</ele><time>2026-04-17T17:04:41Z</time></trkpt><trkpt lat="43.2981205047804" lon="10.51137255878431"><ele>0.0</ele><time>2026-04-17T17:04:45Z</time></trkpt><trkpt lat="43.29806002924343" lon="10.51140423685447"><ele>0.0</ele><time>2026-04-17T17:04:49Z</time></trkpt><trkpt lat="43.297998895115946" lon="10.511434539404087"><ele>0.0</ele><time>2026-04-17T17:04:53Z</time></trkpt><trkpt lat="43.29794166103166" lon="10.511472457562945"><ele>0.0</ele><time>2026-04-17T17:04:57Z</time></trkpt><trkpt lat="43.29788094278007" lon="10.511498424026113"><ele>0.0</ele><time>2026-04-17T17:05:01Z</time></trkpt><trkpt lat="43.29780170330475" lon="10.511509325332431"><ele>0.0</ele><time>2026-04-17T17:05:05Z</time></trkpt><trkpt lat="43.29772455641537" lon="10.511532854938453"><ele>0.0</ele><time>2026-04-17T17:05:09Z</time></trkpt><trkpt lat="43.297655318359865" lon="10.511556833184276"><ele>0.0</ele><time>2026-04-17T17:05:13Z</time></trkpt><trkpt lat="43.2975850949728" lon="10.51158300386585"><ele>0.0</ele><time>2026-04-17T17:05:17Z</time></trkpt><trkpt lat="43.2975166316152" lon="10.511608778506806"><ele>0.0</ele><time>2026-04-17T17:05:21Z</time></trkpt><trkpt lat="43.29744691030025" lon="10.511633558557332"><ele>0.0</ele><time>2026-04-17T17:05:25Z</time></trkpt><trkpt lat="43.29737844689209" lon="10.51166106890787"><ele>0.0</ele><time>2026-04-17T17:05:29Z</time></trkpt><trkpt lat="43.29730643540317" lon="10.511683564447303"><ele>0.0</ele><time>2026-04-17T17:05:33Z</time></trkpt><trkpt lat="43.297236750423615" lon="10.51170592474065"><ele>0.0</ele><time>2026-04-17T17:05:37Z</time></trkpt><trkpt lat="43.29716819840841" lon="10.511731358682615"><ele>0.0</ele><time>2026-04-17T17:05:41Z</time></trkpt><trkpt lat="43.297103716865514" lon="10.511759498017282"><ele>0.0</ele><time>2026-04-17T17:05:45Z</time></trkpt><trkpt lat="43.29706380675082" lon="10.511831388567092"><ele>0.0</ele><time>2026-04-17T17:05:49Z</time></trkpt><trkpt lat="43.29708909735169" lon="10.511914304445268"><ele>0.0</ele><time>2026-04-17T17:05:53Z</time></trkpt><trkpt lat="43.297105748202405" lon="10.511999257661648"><ele>0.0</ele><time>2026-04-17T17:05:57Z</time></trkpt><trkpt lat="43.29712447155264" lon="10.512083467336183"><ele>0.0</ele><time>2026-04-17T17:06:01Z</time></trkpt><trkpt lat="43.297147360154796" lon="10.512184164048369"><ele>0.0</ele><time>2026-04-17T17:06:06Z</time></trkpt><trkpt lat="43.29716577330666" lon="10.512269307079892"><ele>0.0</ele><time>2026-04-17T17:06:10Z</time></trkpt><trkpt lat="43.29718854400678" lon="10.512354992525974"><ele>0.0</ele><time>2026-04-17T17:06:14Z</time></trkpt><trkpt lat="43.29720736068626" lon="10.512442049219587"><ele>-0.14285714285714285</ele><time>2026-04-17T17:06:18Z</time></trkpt><trkpt lat="43.29722688781416" lon="10.512527258891211"><ele>-0.2857142857142857</ele><time>2026-04-17T17:06:22Z</time></trkpt><trkpt lat="43.29724557649672" lon="10.512612411686185"><ele>-0.42857142857142855</ele><time>2026-04-17T17:06:26Z</time></trkpt><trkpt lat="43.297260596815605" lon="10.512701985088464"><ele>-0.5714285714285714</ele><time>2026-04-17T17:06:30Z</time></trkpt><trkpt lat="43.297278475089904" lon="10.512793817143136"><ele>-0.7142857142857142</ele><time>2026-04-17T17:06:34Z</time></trkpt><trkpt lat="43.297297083711385" lon="10.512883001379189"><ele>-0.8571428571428571</ele><time>2026-04-17T17:06:38Z</time></trkpt><trkpt lat="43.297314773560466" lon="10.512973137455699"><ele>-1.0</ele><time>2026-04-17T17:06:42Z</time></trkpt><trkpt lat="43.29733274973135" lon="10.513063849162725"><ele>-0.42857142857142855</ele><time>2026-04-17T17:06:46Z</time></trkpt><trkpt lat="43.29735303929065" lon="10.51315121785332"><ele>0.1428571428571429</ele><time>2026-04-17T17:06:50Z</time></trkpt><trkpt lat="43.297369447039095" lon="10.513242607980029"><ele>0.7142857142857142</ele><time>2026-04-17T17:06:54Z</time></trkpt><trkpt lat="43.29738656386542" lon="10.513331450853105"><ele>1.2857142857142856</ele><time>2026-04-17T17:06:58Z</time></trkpt><trkpt lat="43.29740647499756" lon="10.51342023408529"><ele>1.8571428571428572</ele><time>2026-04-17T17:07:02Z</time></trkpt><trkpt lat="43.29742659824051" lon="10.513508985361417"><ele>2.4285714285714284</ele><time>2026-04-17T17:07:06Z</time></trkpt><trkpt lat="43.297447915457724" lon="10.513611047810581"><ele>3.0</ele><time>2026-04-17T17:07:11Z</time></trkpt><trkpt lat="43.29747083602206" lon="10.51369947477267"><ele>2.9999999999999996</ele><time>2026-04-17T17:07:15Z</time></trkpt><trkpt lat="43.29749083281973" lon="10.513789034268012"><ele>3.0</ele><time>2026-04-17T17:07:19Z</time></trkpt><trkpt lat="43.297509529173894" lon="10.51388396726506"><ele>3.0</ele><time>2026-04-17T17:07:23Z</time></trkpt><trkpt lat="43.29752808401888" lon="10.513977620846385"><ele>3.0</ele><time>2026-04-17T17:07:27Z</time></trkpt><trkpt lat="43.29754665358819" lon="10.514070321852689"><ele>3.0</ele><time>2026-04-17T17:07:31Z</time></trkpt><trkpt lat="43.29756417049968" lon="10.514159939690176"><ele>2.9999999999999996</ele><time>2026-04-17T17:07:35Z</time></trkpt><trkpt lat="43.29758198201423" lon="10.514249652134268"><ele>3.0</ele><time>2026-04-17T17:07:39Z</time></trkpt><trkpt lat="43.29759955263707" lon="10.514338282842079"><ele>2.9999999999999996</ele><time>2026-04-17T17:07:43Z</time></trkpt><trkpt lat="43.29761676704303" lon="10.514426445975886"><ele>3.0</ele><time>2026-04-17T17:07:47Z</time></trkpt><trkpt lat="43.297635982423756" lon="10.514513079347672"><ele>3.0</ele><time>2026-04-17T17:07:51Z</time></trkpt><trkpt lat="43.29765345518741" lon="10.514601319769744"><ele>3.0</ele><time>2026-04-17T17:07:55Z</time></trkpt><trkpt lat="43.29767230627817" lon="10.514689830234131"><ele>3.0</ele><time>2026-04-17T17:07:59Z</time></trkpt><trkpt lat="43.29769075031004" lon="10.514775906672456"><ele>2.9999999999999996</ele><time>2026-04-17T17:08:03Z</time></trkpt><trkpt lat="43.29770948888621" lon="10.514864527056217"><ele>3.0</ele><time>2026-04-17T17:08:07Z</time></trkpt><trkpt lat="43.29772967680303" lon="10.514949678145413"><ele>2.9999999999999996</ele><time>2026-04-17T17:08:11Z</time></trkpt><trkpt lat="43.29774919270857" lon="10.515038251815783"><ele>3.0</ele><time>2026-04-17T17:08:15Z</time></trkpt><trkpt lat="43.29776885298949" lon="10.51512778636471"><ele>3.0</ele><time>2026-04-17T17:08:19Z</time></trkpt><trkpt lat="43.29779107521968" lon="10.51522864386447"><ele>3.0</ele><time>2026-04-17T17:08:23Z</time></trkpt><trkpt lat="43.29781171331749" lon="10.515329009119913"><ele>3.0</ele><time>2026-04-17T17:08:28Z</time></trkpt><trkpt lat="43.29783115016378" lon="10.515414800832582"><ele>2.9999999999999996</ele><time>2026-04-17T17:08:32Z</time></trkpt><trkpt lat="43.29785327588563" lon="10.51550275170316"><ele>3.0</ele><time>2026-04-17T17:08:36Z</time></trkpt><trkpt lat="43.297873950891585" lon="10.515587875663368"><ele>2.8571428571428568</ele><time>2026-04-17T17:08:40Z</time></trkpt><trkpt lat="43.29789371119693" lon="10.51567512983427"><ele>2.7142857142857144</ele><time>2026-04-17T17:08:44Z</time></trkpt><trkpt lat="43.29791014747394" lon="10.51576456870282"><ele>2.571428571428571</ele><time>2026-04-17T17:08:48Z</time></trkpt><trkpt lat="43.29792885848541" lon="10.51585558807081"><ele>2.4285714285714284</ele><time>2026-04-17T17:08:52Z</time></trkpt><trkpt lat="43.297947271159856" lon="10.515944403827373"><ele>2.2857142857142856</ele><time>2026-04-17T17:08:56Z</time></trkpt><trkpt lat="43.297964780429005" lon="10.516036688065421"><ele>2.142857142857143</ele><time>2026-04-17T17:09:00Z</time></trkpt><trkpt lat="43.29798549167389" lon="10.516124733974436"><ele>2.0</ele><time>2026-04-17T17:09:04Z</time></trkpt><trkpt lat="43.29800600753455" lon="10.51621202900505"><ele>2.0</ele><time>2026-04-17T17:09:08Z</time></trkpt><trkpt lat="43.2980251683099" lon="10.516299923653044"><ele>1.9999999999999998</ele><time>2026-04-17T17:09:12Z</time></trkpt><trkpt lat="43.29804510841147" lon="10.516385999986703"><ele>2.0</ele><time>2026-04-17T17:09:16Z</time></trkpt><trkpt lat="43.29806172551069" lon="10.516470904223022"><ele>2.0</ele><time>2026-04-17T17:09:20Z</time></trkpt><trkpt lat="43.298080103843546" lon="10.51655685719756"><ele>1.9999999999999998</ele><time>2026-04-17T17:09:24Z</time></trkpt><trkpt lat="43.298098609481826" lon="10.516642964922069"><ele>2.0</ele><time>2026-04-17T17:09:28Z</time></trkpt><trkpt lat="43.29811627271181" lon="10.516730536640228"><ele>2.0</ele><time>2026-04-17T17:09:32Z</time></trkpt><trkpt lat="43.29813613703014" lon="10.516819724932382"><ele>2.0</ele><time>2026-04-17T17:09:36Z</time></trkpt><trkpt lat="43.29815633762015" lon="10.516909929360056"><ele>1.9999999999999998</ele><time>2026-04-17T17:09:40Z</time></trkpt><trkpt lat="43.29817393527931" lon="10.517000730761081"><ele>2.0</ele><time>2026-04-17T17:09:44Z</time></trkpt><trkpt lat="43.29819228458897" lon="10.517091891234438"><ele>2.0</ele><time>2026-04-17T17:09:48Z</time></trkpt><trkpt lat="43.298208898503994" lon="10.517183927160335"><ele>1.9999999999999998</ele><time>2026-04-17T17:09:52Z</time></trkpt><trkpt lat="43.29822808400781" lon="10.517269923005138"><ele>2.0</ele><time>2026-04-17T17:09:56Z</time></trkpt><trkpt lat="43.298248369292416" lon="10.517352988778033"><ele>2.0</ele><time>2026-04-17T17:10:00Z</time></trkpt><trkpt lat="43.29826422057852" lon="10.517436900673044"><ele>2.142857142857143</ele><time>2026-04-17T17:10:04Z</time></trkpt><trkpt lat="43.29828179611727" lon="10.517521215994538"><ele>2.2857142857142856</ele><time>2026-04-17T17:10:08Z</time></trkpt><trkpt lat="43.29830211472228" lon="10.51761276540821"><ele>2.4285714285714284</ele><time>2026-04-17T17:10:12Z</time></trkpt><trkpt lat="43.29832775328901" lon="10.517712384803808"><ele>2.571428571428571</ele><time>2026-04-17T17:10:17Z</time></trkpt><trkpt lat="43.29834493295398" lon="10.517799533164379"><ele>2.7142857142857144</ele><time>2026-04-17T17:10:21Z</time></trkpt><trkpt lat="43.29836804452573" lon="10.51789229319851"><ele>2.8571428571428568</ele><time>2026-04-17T17:10:25Z</time></trkpt><trkpt lat="43.29838611513666" lon="10.517982816875234"><ele>3.0</ele><time>2026-04-17T17:10:29Z</time></trkpt><trkpt lat="43.298406016468135" lon="10.518072358062541"><ele>2.9999999999999996</ele><time>2026-04-17T17:10:33Z</time></trkpt><trkpt lat="43.29842536051348" lon="10.518163054558322"><ele>3.0</ele><time>2026-04-17T17:10:37Z</time></trkpt><trkpt lat="43.2984453345495" lon="10.518249500542789"><ele>3.0</ele><time>2026-04-17T17:10:41Z</time></trkpt><trkpt lat="43.29846791592235" lon="10.518341254461655"><ele>3.0</ele><time>2026-04-17T17:10:45Z</time></trkpt><trkpt lat="43.2984843604042" lon="10.518430929497987"><ele>3.0</ele><time>2026-04-17T17:10:49Z</time></trkpt><trkpt lat="43.298499328867706" lon="10.518525974303122"><ele>2.9999999999999996</ele><time>2026-04-17T17:10:53Z</time></trkpt><trkpt lat="43.298514316029795" lon="10.518618042417417"><ele>3.0</ele><time>2026-04-17T17:10:57Z</time></trkpt><trkpt lat="43.298530884755564" lon="10.518707003384753"><ele>2.9999999999999996</ele><time>2026-04-17T17:11:01Z</time></trkpt><trkpt lat="43.29854294967058" lon="10.518793093822797"><ele>3.0</ele><time>2026-04-17T17:11:05Z</time></trkpt><trkpt lat="43.298561947950006" lon="10.518893260060548"><ele>3.0</ele><time>2026-04-17T17:11:10Z</time></trkpt><trkpt lat="43.29858577413722" lon="10.518992882701847"><ele>3.0</ele><time>2026-04-17T17:11:14Z</time></trkpt><trkpt lat="43.29861540918122" lon="10.518885171771187"><ele>3.0</ele><time>2026-04-17T17:14:46Z</time></trkpt><trkpt lat="43.29856731974307" lon="10.518794807520047"><ele>2.9999999999999996</ele><time>2026-04-17T17:35:16Z</time></trkpt><trkpt lat="43.2986077151501" lon="10.518869007488917"><ele>3.0</ele><time>2026-04-17T17:38:08Z</time></trkpt><trkpt lat="43.298613437885216" lon="10.518972086531889"><ele>2.9999999999999996</ele><time>2026-04-17T17:38:14Z</time></trkpt><trkpt lat="43.29862235032029" lon="10.519063366844636"><ele>3.0</ele><time>2026-04-17T17:38:20Z</time></trkpt><trkpt lat="43.298629842933614" lon="10.519149816186841"><ele>3.0</ele><time>2026-04-17T17:38:28Z</time></trkpt><trkpt lat="43.29863419042653" lon="10.51924996668603"><ele>3.0</ele><time>2026-04-17T17:38:53Z</time></trkpt><trkpt lat="43.29865039515655" lon="10.519334262822923"><ele>3.0</ele><time>2026-04-17T17:38:59Z</time></trkpt><trkpt lat="43.2986703679956" lon="10.519424811001004"><ele>2.9999999999999996</ele><time>2026-04-17T17:39:05Z</time></trkpt><trkpt lat="43.29868362037678" lon="10.519519999223721"><ele>3.0</ele><time>2026-04-17T17:39:11Z</time></trkpt><trkpt lat="43.29870669545398" lon="10.51960911769263"><ele>2.9999999999999996</ele><time>2026-04-17T17:39:17Z</time></trkpt><trkpt lat="43.29873545586764" lon="10.519707926492375"><ele>3.0</ele><time>2026-04-17T17:39:23Z</time></trkpt><trkpt lat="43.29878297657954" lon="10.519765477882837"><ele>3.0</ele><time>2026-04-17T17:39:28Z</time></trkpt><trkpt lat="43.29887079921016" lon="10.519746875079992"><ele>3.0</ele><time>2026-04-17T17:39:43Z</time></trkpt><trkpt lat="43.29893349368618" lon="10.519730196569391"><ele>3.0</ele><time>2026-04-17T17:39:52Z</time></trkpt><trkpt lat="43.29900262050324" lon="10.519737701756572"><ele>2.9999999999999996</ele><time>2026-04-17T17:39:59Z</time></trkpt><trkpt lat="43.29907792798798" lon="10.51968831604597"><ele>3.0</ele><time>2026-04-17T17:40:02Z</time></trkpt><trkpt lat="43.2991378393095" lon="10.5196534643748"><ele>3.0</ele><time>2026-04-17T17:40:04Z</time></trkpt><trkpt lat="43.29921670583594" lon="10.519610644148555"><ele>3.0</ele><time>2026-04-17T17:40:08Z</time></trkpt><trkpt lat="43.29929060987648" lon="10.519573210956477"><ele>3.0</ele><time>2026-04-17T17:40:12Z</time></trkpt><trkpt lat="43.29935877404237" lon="10.519519832266807"><ele>3.0</ele><time>2026-04-17T17:40:16Z</time></trkpt><trkpt lat="43.29943110191175" lon="10.51949707375709"><ele>3.0</ele><time>2026-04-17T17:40:20Z</time></trkpt><trkpt lat="43.29950134384464" lon="10.519473406394937"><ele>3.0</ele><time>2026-04-17T17:40:24Z</time></trkpt><trkpt lat="43.29956735740165" lon="10.519438402245708"><ele>2.8571428571428568</ele><time>2026-04-17T17:40:28Z</time></trkpt><trkpt lat="43.299627236930114" lon="10.519398848273987"><ele>2.7142857142857144</ele><time>2026-04-17T17:40:32Z</time></trkpt><trkpt lat="43.299687437144755" lon="10.5193705018564"><ele>2.571428571428571</ele><time>2026-04-17T17:40:36Z</time></trkpt><trkpt lat="43.29974444804865" lon="10.519332656438698"><ele>2.4285714285714284</ele><time>2026-04-17T17:40:40Z</time></trkpt><trkpt lat="43.29981376891456" lon="10.519308080942192"><ele>2.2857142857142856</ele><time>2026-04-17T17:40:44Z</time></trkpt><trkpt lat="43.299885737208356" lon="10.519302884467928"><ele>2.142857142857143</ele><time>2026-04-17T17:40:48Z</time></trkpt><trkpt lat="43.29993077197628" lon="10.519373777422949"><ele>2.0</ele><time>2026-04-17T17:40:52Z</time></trkpt><trkpt lat="43.29995012922181" lon="10.519461673907147"><ele>2.0</ele><time>2026-04-17T17:40:56Z</time></trkpt><trkpt lat="43.299965283188875" lon="10.519548899333357"><ele>1.9999999999999998</ele><time>2026-04-17T17:41:00Z</time></trkpt><trkpt lat="43.29998023048659" lon="10.519650926134082"><ele>2.0</ele><time>2026-04-17T17:41:05Z</time></trkpt><trkpt lat="43.29999158329656" lon="10.519755205385056"><ele>2.0</ele><time>2026-04-17T17:41:10Z</time></trkpt><trkpt lat="43.30001303232738" lon="10.519841521993106"><ele>1.9999999999999998</ele><time>2026-04-17T17:41:14Z</time></trkpt><trkpt lat="43.300024555154316" lon="10.519932576927483"><ele>2.0</ele><time>2026-04-17T17:41:18Z</time></trkpt><trkpt lat="43.30003892641472" lon="10.520030479480365"><ele>2.0</ele><time>2026-04-17T17:41:22Z</time></trkpt><trkpt lat="43.30005050289921" lon="10.520137348087713"><ele>2.2857142857142856</ele><time>2026-04-17T17:41:26Z</time></trkpt><trkpt lat="43.300075259066226" lon="10.520235661405206"><ele>2.571428571428571</ele><time>2026-04-17T17:41:30Z</time></trkpt><trkpt lat="43.3000987420752" lon="10.520322246564636"><ele>2.8571428571428568</ele><time>2026-04-17T17:41:34Z</time></trkpt><trkpt lat="43.300118956549476" lon="10.520407448620285"><ele>3.142857142857143</ele><time>2026-04-17T17:41:38Z</time></trkpt><trkpt lat="43.30015673264924" lon="10.520501902781032"><ele>3.428571428571428</ele><time>2026-04-17T17:41:43Z</time></trkpt><trkpt lat="43.3001763318149" lon="10.520595915387966"><ele>3.714285714285714</ele><time>2026-04-17T17:41:47Z</time></trkpt><trkpt lat="43.30020721971242" lon="10.520696128805897"><ele>4.0</ele><time>2026-04-17T17:41:51Z</time></trkpt><trkpt lat="43.30023816647802" lon="10.520787786051793"><ele>3.9999999999999996</ele><time>2026-04-17T17:41:54Z</time></trkpt><trkpt lat="43.30027957336553" lon="10.520890664566513"><ele>4.0</ele><time>2026-04-17T17:41:58Z</time></trkpt><trkpt lat="43.300318096168795" lon="10.520960542624467"><ele>4.0</ele><time>2026-04-17T17:42:02Z</time></trkpt><trkpt lat="43.300373173205635" lon="10.520900096590644"><ele>4.0</ele><time>2026-04-17T17:42:11Z</time></trkpt><trkpt lat="43.300448804663525" lon="10.52087056258494"><ele>3.9999999999999996</ele><time>2026-04-17T17:42:17Z</time></trkpt><trkpt lat="43.30052676229197" lon="10.520827211637682"><ele>4.0</ele><time>2026-04-17T17:42:21Z</time></trkpt><trkpt lat="43.300600857528146" lon="10.520787878883459"><ele>4.5</ele><time>2026-04-17T17:42:26Z</time></trkpt><trkpt lat="43.30066872935886" lon="10.520752013471329"><ele>5.0</ele><time>2026-04-17T17:42:31Z</time></trkpt><trkpt lat="43.30073855575439" lon="10.520701566035962"><ele>5.5</ele><time>2026-04-17T17:42:35Z</time></trkpt><trkpt lat="43.30081631783349" lon="10.52068237299072"><ele>6.0</ele><time>2026-04-17T17:42:40Z</time></trkpt><trkpt lat="43.30089207258395" lon="10.52065994199688"><ele>6.500000000000001</ele><time>2026-04-17T17:42:44Z</time></trkpt><trkpt lat="43.30095237229078" lon="10.520609669906724"><ele>7.0</ele><time>2026-04-17T17:42:48Z</time></trkpt><trkpt lat="43.30103017191601" lon="10.520550950149936"><ele>7.0</ele><time>2026-04-17T17:42:53Z</time></trkpt><trkpt lat="43.30111369055857" lon="10.520530502428278"><ele>7.0</ele><time>2026-04-17T17:42:56Z</time></trkpt><trkpt lat="43.3011770489766" lon="10.520506270358343"><ele>7.0</ele><time>2026-04-17T17:42:59Z</time></trkpt><trkpt lat="43.30123796912913" lon="10.520481190213271"><ele>7.0</ele><time>2026-04-17T17:43:02Z</time></trkpt><trkpt lat="43.301305700908514" lon="10.520440778401978"><ele>7.0</ele><time>2026-04-17T17:43:06Z</time></trkpt><trkpt lat="43.301365858251906" lon="10.520411644181419"><ele>7.0</ele><time>2026-04-17T17:43:10Z</time></trkpt><trkpt lat="43.30143819052768" lon="10.520372261404738"><ele>7.0</ele><time>2026-04-17T17:43:14Z</time></trkpt><trkpt lat="43.30150798625813" lon="10.520341224195715"><ele>7.142857142857142</ele><time>2026-04-17T17:43:18Z</time></trkpt><trkpt lat="43.301575754131186" lon="10.520340481171532"><ele>7.285714285714286</ele><time>2026-04-17T17:43:22Z</time></trkpt><trkpt lat="43.301646864985855" lon="10.520329175246422"><ele>7.428571428571429</ele><time>2026-04-17T17:43:26Z</time></trkpt><trkpt lat="43.30171576269166" lon="10.520290531472346"><ele>7.571428571428571</ele><time>2026-04-17T17:43:30Z</time></trkpt><trkpt lat="43.301789146610545" lon="10.520235280574125"><ele>7.7142857142857135</ele><time>2026-04-17T17:43:34Z</time></trkpt><trkpt lat="43.301848542717806" lon="10.52018523767018"><ele>7.857142857142857</ele><time>2026-04-17T17:43:38Z</time></trkpt><trkpt lat="43.301917508196745" lon="10.520161819648656"><ele>8.0</ele><time>2026-04-17T17:43:43Z</time></trkpt><trkpt lat="43.30197911661048" lon="10.520118155815052"><ele>8.0</ele><time>2026-04-17T17:43:48Z</time></trkpt><trkpt lat="43.30204907923128" lon="10.520083465015682"><ele>7.999999999999999</ele><time>2026-04-17T17:43:52Z</time></trkpt><trkpt lat="43.302118229839" lon="10.520040275237301"><ele>8.0</ele><time>2026-04-17T17:43:57Z</time></trkpt><trkpt lat="43.3021819649886" lon="10.520012269044122"><ele>8.0</ele><time>2026-04-17T17:44:01Z</time></trkpt><trkpt lat="43.302248198141136" lon="10.519962551882507"><ele>7.999999999999999</ele><time>2026-04-17T17:44:06Z</time></trkpt><trkpt lat="43.302313240367475" lon="10.519931071666056"><ele>8.0</ele><time>2026-04-17T17:44:10Z</time></trkpt><trkpt lat="43.302381784312324" lon="10.519889794700012"><ele>8.0</ele><time>2026-04-17T17:44:15Z</time></trkpt><trkpt lat="43.302453643628624" lon="10.519880495960683"><ele>8.285714285714285</ele><time>2026-04-17T17:44:18Z</time></trkpt><trkpt lat="43.302528202542405" lon="10.519859269317488"><ele>8.571428571428571</ele><time>2026-04-17T17:44:22Z</time></trkpt><trkpt lat="43.30259132069362" lon="10.519880841429321"><ele>8.857142857142858</ele><time>2026-04-17T17:44:26Z</time></trkpt><trkpt lat="43.30264412983378" lon="10.519940445242295"><ele>9.142857142857142</ele><time>2026-04-17T17:44:30Z</time></trkpt><trkpt lat="43.302705567729966" lon="10.519998224467315"><ele>9.428571428571429</ele><time>2026-04-17T17:44:35Z</time></trkpt><trkpt lat="43.302755168984184" lon="10.520063089168366"><ele>9.714285714285714</ele><time>2026-04-17T17:44:39Z</time></trkpt><trkpt lat="43.30279745447559" lon="10.520139310653011"><ele>10.0</ele><time>2026-04-17T17:44:43Z</time></trkpt><trkpt lat="43.30284184493429" lon="10.520075161163517"><ele>10.0</ele><time>2026-04-17T17:44:50Z</time></trkpt><trkpt lat="43.30290711666472" lon="10.520109423201824"><ele>10.0</ele><time>2026-04-17T17:44:55Z</time></trkpt><trkpt lat="43.3029914419663" lon="10.52011250282787"><ele>10.0</ele><time>2026-04-17T17:44:59Z</time></trkpt><trkpt lat="43.303059749288266" lon="10.520125096250508"><ele>10.0</ele><time>2026-04-17T17:45:02Z</time></trkpt><trkpt lat="43.30312957100877" lon="10.520136423401823"><ele>10.0</ele><time>2026-04-17T17:45:05Z</time></trkpt><trkpt lat="43.303209930448816" lon="10.520137258564134"><ele>10.0</ele><time>2026-04-17T17:45:09Z</time></trkpt><trkpt lat="43.30328146334919" lon="10.520123096891933"><ele>10.0</ele><time>2026-04-17T17:45:13Z</time></trkpt><trkpt lat="43.30335752846935" lon="10.520092114229193"><ele>10.0</ele><time>2026-04-17T17:45:18Z</time></trkpt><trkpt lat="43.303433096979674" lon="10.520065193501864"><ele>10.0</ele><time>2026-04-17T17:45:24Z</time></trkpt><trkpt lat="43.30350450231598" lon="10.52003396390061"><ele>10.0</ele><time>2026-04-17T17:45:28Z</time></trkpt><trkpt lat="43.30357951933079" lon="10.520006069518576"><ele>10.0</ele><time>2026-04-17T17:45:33Z</time></trkpt><trkpt lat="43.303649346857085" lon="10.519968700676129"><ele>10.0</ele><time>2026-04-17T17:45:37Z</time></trkpt><trkpt lat="43.303711549557015" lon="10.519909866426469"><ele>10.0</ele><time>2026-04-17T17:45:41Z</time></trkpt><trkpt lat="43.30377685036983" lon="10.519881093717574"><ele>10.0</ele><time>2026-04-17T17:45:45Z</time></trkpt><trkpt lat="43.303852770346786" lon="10.519835925403859"><ele>10.0</ele><time>2026-04-17T17:45:50Z</time></trkpt><trkpt lat="43.30392574181317" lon="10.519786478331516"><ele>10.0</ele><time>2026-04-17T17:45:54Z</time></trkpt><trkpt lat="43.303988100561845" lon="10.519772900090832"><ele>10.0</ele><time>2026-04-17T17:45:58Z</time></trkpt><trkpt lat="43.304045439850256" lon="10.519816245164083"><ele>10.0</ele><time>2026-04-17T17:46:04Z</time></trkpt><trkpt lat="43.30407533523055" lon="10.519915038019187"><ele>10.0</ele><time>2026-04-17T17:46:09Z</time></trkpt><trkpt lat="43.30411844162725" lon="10.519983611829367"><ele>10.0</ele><time>2026-04-17T17:46:13Z</time></trkpt><trkpt lat="43.304151395116094" lon="10.520061116100473"><ele>9.857142857142858</ele><time>2026-04-17T17:46:17Z</time></trkpt><trkpt lat="43.30418934169121" lon="10.520150098858386"><ele>9.714285714285715</ele><time>2026-04-17T17:46:22Z</time></trkpt><trkpt lat="43.30421491774925" lon="10.52023765440614"><ele>9.571428571428573</ele><time>2026-04-17T17:46:26Z</time></trkpt><trkpt lat="43.304248175479835" lon="10.520323406484478"><ele>9.428571428571429</ele><time>2026-04-17T17:46:30Z</time></trkpt><trkpt lat="43.30427313755628" lon="10.520410403813315"><ele>9.285714285714286</ele><time>2026-04-17T17:46:34Z</time></trkpt><trkpt lat="43.30429768059511" lon="10.520500360180607"><ele>9.142857142857144</ele><time>2026-04-17T17:46:39Z</time></trkpt><trkpt lat="43.30436680441444" lon="10.520512931803971"><ele>9.0</ele><time>2026-04-17T17:46:45Z</time></trkpt><trkpt lat="43.304434024152016" lon="10.520530595344114"><ele>9.000000000000002</ele><time>2026-04-17T17:46:49Z</time></trkpt><trkpt lat="43.30449679949071" lon="10.520562812930637"><ele>9.0</ele><time>2026-04-17T17:46:54Z</time></trkpt><trkpt lat="43.30454428629404" lon="10.52064314645441"><ele>9.0</ele><time>2026-04-17T17:47:00Z</time></trkpt><trkpt lat="43.304613185902" lon="10.520698967837294"><ele>9.0</ele><time>2026-04-17T17:47:04Z</time></trkpt><trkpt lat="43.304670137371026" lon="10.520740630632858"><ele>9.0</ele><time>2026-04-17T17:47:07Z</time></trkpt><trkpt lat="43.30473771512234" lon="10.52077622089461"><ele>9.000000000000002</ele><time>2026-04-17T17:47:11Z</time></trkpt><trkpt lat="43.30481134998686" lon="10.520810174608199"><ele>9.0</ele><time>2026-04-17T17:47:16Z</time></trkpt><trkpt lat="43.30487638870266" lon="10.52084891573647"><ele>9.000000000000002</ele><time>2026-04-17T17:47:21Z</time></trkpt><trkpt lat="43.3049416792892" lon="10.520905931456163"><ele>9.0</ele><time>2026-04-17T17:47:25Z</time></trkpt><trkpt lat="43.30497787246045" lon="10.520976985696453"><ele>9.0</ele><time>2026-04-17T17:47:29Z</time></trkpt><trkpt lat="43.30503817937902" lon="10.521033933413614"><ele>9.0</ele><time>2026-04-17T17:47:34Z</time></trkpt><trkpt lat="43.30506380248278" lon="10.521118106718344"><ele>9.0</ele><time>2026-04-17T17:47:38Z</time></trkpt><trkpt lat="43.30507892609029" lon="10.521225304105636"><ele>9.000000000000002</ele><time>2026-04-17T17:47:42Z</time></trkpt><trkpt lat="43.30510062662914" lon="10.521326321995858"><ele>9.0</ele><time>2026-04-17T17:47:46Z</time></trkpt><trkpt lat="43.305114144844374" lon="10.521418476302323"><ele>9.000000000000002</ele><time>2026-04-17T17:47:50Z</time></trkpt><trkpt lat="43.30514105559934" lon="10.521506707060455"><ele>9.0</ele><time>2026-04-17T17:47:55Z</time></trkpt><trkpt lat="43.30517888270864" lon="10.521595665883446"><ele>9.0</ele><time>2026-04-17T17:48:00Z</time></trkpt><trkpt lat="43.30520484251538" lon="10.521698521195281"><ele>9.0</ele><time>2026-04-17T17:48:04Z</time></trkpt><trkpt lat="43.305222825993255" lon="10.521788722186916"><ele>9.0</ele><time>2026-04-17T17:48:08Z</time></trkpt><trkpt lat="43.30526071675856" lon="10.521873492558784"><ele>9.000000000000002</ele><time>2026-04-17T17:48:12Z</time></trkpt><trkpt lat="43.305264601182074" lon="10.521962132164473"><ele>9.0</ele><time>2026-04-17T17:48:16Z</time></trkpt><trkpt lat="43.305287178422" lon="10.522068378747553"><ele>9.285714285714286</ele><time>2026-04-17T17:48:20Z</time></trkpt><trkpt lat="43.30530473032895" lon="10.522163584973361"><ele>9.571428571428571</ele><time>2026-04-17T17:48:24Z</time></trkpt><trkpt lat="43.30531818826272" lon="10.52226890115397"><ele>9.857142857142858</ele><time>2026-04-17T17:48:28Z</time></trkpt><trkpt lat="43.305318661282854" lon="10.522376418229596"><ele>10.142857142857142</ele><time>2026-04-17T17:48:32Z</time></trkpt><trkpt lat="43.305336439609825" lon="10.52246779079024"><ele>10.428571428571429</ele><time>2026-04-17T17:48:36Z</time></trkpt><trkpt lat="43.305411522287" lon="10.522476657583045"><ele>10.714285714285715</ele><time>2026-04-17T17:48:43Z</time></trkpt><trkpt lat="43.305483090326405" lon="10.522470904202436"><ele>11.0</ele><time>2026-04-17T17:48:47Z</time></trkpt><trkpt lat="43.305551574437445" lon="10.522441059958336"><ele>11.166666666666666</ele><time>2026-04-17T17:48:53Z</time></trkpt><trkpt lat="43.30564426286403" lon="10.522416970709813"><ele>11.333333333333332</ele><time>2026-04-17T17:48:59Z</time></trkpt><trkpt lat="43.30571776659383" lon="10.522398830043446"><ele>11.5</ele><time>2026-04-17T17:49:03Z</time></trkpt><trkpt lat="43.305796857147726" lon="10.522359796903034"><ele>11.666666666666666</ele><time>2026-04-17T17:49:07Z</time></trkpt><trkpt lat="43.30586471310958" lon="10.522321588405559"><ele>11.833333333333334</ele><time>2026-04-17T17:49:11Z</time></trkpt><trkpt lat="43.30593649319226" lon="10.522303054098591"><ele>12.0</ele><time>2026-04-17T17:49:15Z</time></trkpt><trkpt lat="43.30600123050142" lon="10.522261888532435"><ele>12.0</ele><time>2026-04-17T17:49:19Z</time></trkpt><trkpt lat="43.30607052193086" lon="10.52221752136389"><ele>12.0</ele><time>2026-04-17T17:49:23Z</time></trkpt><trkpt lat="43.30613873128866" lon="10.52216604303742"><ele>12.0</ele><time>2026-04-17T17:49:28Z</time></trkpt><trkpt lat="43.30621520657459" lon="10.522213948167314"><ele>12.0</ele><time>2026-04-17T17:49:34Z</time></trkpt><trkpt lat="43.30626781296857" lon="10.522282299906081"><ele>12.0</ele><time>2026-04-17T17:49:39Z</time></trkpt><trkpt lat="43.3063231238499" lon="10.52235910637279"><ele>12.0</ele><time>2026-04-17T17:49:43Z</time></trkpt><trkpt lat="43.30638417411555" lon="10.522402963065645"><ele>11.857142857142856</ele><time>2026-04-17T17:49:48Z</time></trkpt><trkpt lat="43.30645652188698" lon="10.522386420872724"><ele>11.714285714285714</ele><time>2026-04-17T17:49:51Z</time></trkpt><trkpt lat="43.306527517450384" lon="10.52238218314907"><ele>11.571428571428571</ele><time>2026-04-17T17:49:55Z</time></trkpt><trkpt lat="43.30654927863789" lon="10.522476356949268"><ele>11.428571428571427</ele><time>2026-04-17T17:50:01Z</time></trkpt><trkpt lat="43.30662101604526" lon="10.522517746293925"><ele>11.285714285714285</ele><time>2026-04-17T17:50:06Z</time></trkpt><trkpt lat="43.30669195808774" lon="10.522558958847029"><ele>11.142857142857142</ele><time>2026-04-17T17:50:11Z</time></trkpt><trkpt lat="43.30673614134055" lon="10.522638182027825"><ele>11.0</ele><time>2026-04-17T17:50:15Z</time></trkpt><trkpt lat="43.3067666342246" lon="10.522745455165351"><ele>11.0</ele><time>2026-04-17T17:50:19Z</time></trkpt><trkpt lat="43.30682501488595" lon="10.522793736477482"><ele>11.0</ele><time>2026-04-17T17:50:27Z</time></trkpt><trkpt lat="43.30688929808867" lon="10.522858656820672"><ele>11.0</ele><time>2026-04-17T17:50:32Z</time></trkpt><trkpt lat="43.30693620128745" lon="10.522917420773572"><ele>11.0</ele><time>2026-04-17T17:50:36Z</time></trkpt><trkpt lat="43.3070049938956" lon="10.522921207770201"><ele>11.0</ele><time>2026-04-17T17:50:40Z</time></trkpt><trkpt lat="43.30706769152127" lon="10.52289078474835"><ele>11.0</ele><time>2026-04-17T17:50:45Z</time></trkpt><trkpt lat="43.307126654638225" lon="10.522859361865738"><ele>11.0</ele><time>2026-04-17T17:50:48Z</time></trkpt><trkpt lat="43.30719808935698" lon="10.522834003000483"><ele>11.285714285714286</ele><time>2026-04-17T17:50:52Z</time></trkpt><trkpt lat="43.307274964996395" lon="10.522808792986355"><ele>11.571428571428571</ele><time>2026-04-17T17:50:56Z</time></trkpt><trkpt lat="43.30735413034504" lon="10.522770616488417"><ele>11.857142857142858</ele><time>2026-04-17T17:51:01Z</time></trkpt><trkpt lat="43.30742012147138" lon="10.522729700054615"><ele>12.142857142857142</ele><time>2026-04-17T17:51:05Z</time></trkpt><trkpt lat="43.307491394812665" lon="10.522741909079551"><ele>12.428571428571429</ele><time>2026-04-17T17:51:10Z</time></trkpt><trkpt lat="43.30754173802093" lon="10.522799506308221"><ele>12.714285714285714</ele><time>2026-04-17T17:51:15Z</time></trkpt><trkpt lat="43.30760656649977" lon="10.522830408289265"><ele>13.0</ele><time>2026-04-17T17:51:18Z</time></trkpt><trkpt lat="43.307657873853806" lon="10.5228846921821"><ele>13.142857142857142</ele><time>2026-04-17T17:51:22Z</time></trkpt><trkpt lat="43.30769626691963" lon="10.522974442821944"><ele>13.285714285714286</ele><time>2026-04-17T17:51:27Z</time></trkpt><trkpt lat="43.30776104387051" lon="10.523033061063853"><ele>13.428571428571429</ele><time>2026-04-17T17:51:31Z</time></trkpt><trkpt lat="43.307804524587326" lon="10.523097165466316"><ele>13.571428571428571</ele><time>2026-04-17T17:51:35Z</time></trkpt><trkpt lat="43.30784926052081" lon="10.523178268954178"><ele>13.714285714285715</ele><time>2026-04-17T17:51:40Z</time></trkpt><trkpt lat="43.30786500438526" lon="10.523266738806337"><ele>13.857142857142858</ele><time>2026-04-17T17:51:45Z</time></trkpt><trkpt lat="43.30787290076496" lon="10.523354158434152"><ele>14.0</ele><time>2026-04-17T17:51:49Z</time></trkpt><trkpt lat="43.30787126685703" lon="10.52345978436697"><ele>14.000000000000002</ele><time>2026-04-17T17:51:53Z</time></trkpt><trkpt lat="43.30785230287826" lon="10.52356753878316"><ele>14.0</ele><time>2026-04-17T17:51:57Z</time></trkpt><trkpt lat="43.307849965657894" lon="10.523668391875425"><ele>14.0</ele><time>2026-04-17T17:52:01Z</time></trkpt><trkpt lat="43.30783395634382" lon="10.523763624635324"><ele>14.0</ele><time>2026-04-17T17:52:06Z</time></trkpt><trkpt lat="43.3078391551967" lon="10.523866989504352"><ele>14.000000000000002</ele><time>2026-04-17T17:52:11Z</time></trkpt><trkpt lat="43.307841398036054" lon="10.523955925068961"><ele>14.0</ele><time>2026-04-17T17:52:15Z</time></trkpt><trkpt lat="43.307870104618196" lon="10.52406775935413"><ele>14.285714285714285</ele><time>2026-04-17T17:52:20Z</time></trkpt><trkpt lat="43.307864098853976" lon="10.524163828555277"><ele>14.571428571428571</ele><time>2026-04-17T17:52:24Z</time></trkpt><trkpt lat="43.30787819691411" lon="10.524252479889402"><ele>14.857142857142858</ele><time>2026-04-17T17:52:28Z</time></trkpt><trkpt lat="43.307889830766975" lon="10.524353017138449"><ele>15.142857142857142</ele><time>2026-04-17T17:52:33Z</time></trkpt><trkpt lat="43.307921275546235" lon="10.52444449902447"><ele>15.428571428571427</ele><time>2026-04-17T17:52:38Z</time></trkpt><trkpt lat="43.30795407389935" lon="10.524537077325924"><ele>15.714285714285714</ele><time>2026-04-17T17:52:42Z</time></trkpt><trkpt lat="43.30796432474722" lon="10.524634474299877"><ele>16.0</ele><time>2026-04-17T17:52:46Z</time></trkpt><trkpt lat="43.3079714216106" lon="10.524722569152054"><ele>16.142857142857142</ele><time>2026-04-17T17:52:50Z</time></trkpt><trkpt lat="43.30798889304573" lon="10.524822579207022"><ele>16.285714285714285</ele><time>2026-04-17T17:52:54Z</time></trkpt><trkpt lat="43.308002177451655" lon="10.524911191004982"><ele>16.428571428571427</ele><time>2026-04-17T17:52:57Z</time></trkpt><trkpt lat="43.30803970243382" lon="10.524995038166734"><ele>16.57142857142857</ele><time>2026-04-17T17:53:01Z</time></trkpt><trkpt lat="43.30808891698129" lon="10.525068181374017"><ele>16.714285714285715</ele><time>2026-04-17T17:53:05Z</time></trkpt><trkpt lat="43.30813611299675" lon="10.52512749323636"><ele>16.857142857142854</ele><time>2026-04-17T17:53:09Z</time></trkpt><trkpt lat="43.30820240536755" lon="10.525101954624763"><ele>17.0</ele><time>2026-04-17T17:53:13Z</time></trkpt><trkpt lat="43.30827453253293" lon="10.525076977962852"><ele>16.57142857142857</ele><time>2026-04-17T17:53:18Z</time></trkpt><trkpt lat="43.30834253306235" lon="10.5250388032114"><ele>16.142857142857142</ele><time>2026-04-17T17:53:23Z</time></trkpt><trkpt lat="43.30840120567904" lon="10.52500628972931"><ele>15.714285714285714</ele><time>2026-04-17T17:53:27Z</time></trkpt><trkpt lat="43.30847058784075" lon="10.524967021216609"><ele>15.285714285714285</ele><time>2026-04-17T17:53:32Z</time></trkpt><trkpt lat="43.308539133855795" lon="10.524924426805798"><ele>14.857142857142858</ele><time>2026-04-17T17:53:37Z</time></trkpt><trkpt lat="43.308613679268504" lon="10.524935986793722"><ele>14.428571428571429</ele><time>2026-04-17T17:53:44Z</time></trkpt><trkpt lat="43.30867158013251" lon="10.524888757191743"><ele>14.0</ele><time>2026-04-17T17:53:48Z</time></trkpt><trkpt lat="43.3087346342111" lon="10.524850876923304"><ele>14.0</ele><time>2026-04-17T17:53:52Z</time></trkpt><trkpt lat="43.308798809116716" lon="10.524819014657691"><ele>14.0</ele><time>2026-04-17T17:53:56Z</time></trkpt><trkpt lat="43.30886087929426" lon="10.524787477651252"><ele>14.0</ele><time>2026-04-17T17:54:00Z</time></trkpt><trkpt lat="43.30892899659804" lon="10.52474268905122"><ele>14.0</ele><time>2026-04-17T17:54:04Z</time></trkpt><trkpt lat="43.30900227738097" lon="10.52471743922085"><ele>14.0</ele><time>2026-04-17T17:54:09Z</time></trkpt><trkpt lat="43.309062566920765" lon="10.524683637580587"><ele>14.0</ele><time>2026-04-17T17:54:13Z</time></trkpt><trkpt lat="43.309122250536326" lon="10.524637017618975"><ele>14.0</ele><time>2026-04-17T17:54:19Z</time></trkpt><trkpt lat="43.30919503712232" lon="10.524603938241599"><ele>13.857142857142858</ele><time>2026-04-17T17:54:24Z</time></trkpt><trkpt lat="43.30926558752996" lon="10.524575344576437"><ele>13.714285714285715</ele><time>2026-04-17T17:54:28Z</time></trkpt><trkpt lat="43.309339659788805" lon="10.524535412678771"><ele>13.571428571428571</ele><time>2026-04-17T17:54:32Z</time></trkpt><trkpt lat="43.30940213306631" lon="10.524494839306024"><ele>13.428571428571429</ele><time>2026-04-17T17:54:35Z</time></trkpt><trkpt lat="43.30947289549654" lon="10.524450774390509"><ele>13.285714285714286</ele><time>2026-04-17T17:54:39Z</time></trkpt><trkpt lat="43.30955116620948" lon="10.524430212802194"><ele>13.142857142857142</ele><time>2026-04-17T17:54:43Z</time></trkpt><trkpt lat="43.309616819903" lon="10.524420213310313"><ele>13.0</ele><time>2026-04-17T17:54:47Z</time></trkpt><trkpt lat="43.30969642835644" lon="10.524422518087185"><ele>13.0</ele><time>2026-04-17T17:54:51Z</time></trkpt><trkpt lat="43.30976272131065" lon="10.524382038298215"><ele>13.0</ele><time>2026-04-17T17:54:55Z</time></trkpt><trkpt lat="43.30983258882532" lon="10.524375980739984"><ele>13.0</ele><time>2026-04-17T17:54:59Z</time></trkpt><trkpt lat="43.30989260219193" lon="10.524407296713695"><ele>13.0</ele><time>2026-04-17T17:55:03Z</time></trkpt><trkpt lat="43.3099548428361" lon="10.524432613909715"><ele>13.0</ele><time>2026-04-17T17:55:07Z</time></trkpt><trkpt lat="43.310013688256284" lon="10.524464132374353"><ele>13.0</ele><time>2026-04-17T17:55:12Z</time></trkpt><trkpt lat="43.310093795731454" lon="10.52448247658825"><ele>13.0</ele><time>2026-04-17T17:55:18Z</time></trkpt><trkpt lat="43.31015638111844" lon="10.52453105892943"><ele>12.833333333333332</ele><time>2026-04-17T17:55:23Z</time></trkpt><trkpt lat="43.31019214335319" lon="10.524616118524555"><ele>12.666666666666666</ele><time>2026-04-17T17:55:27Z</time></trkpt><trkpt lat="43.31024855969539" lon="10.524668350212979"><ele>12.5</ele><time>2026-04-17T17:55:32Z</time></trkpt><trkpt lat="43.31031626239119" lon="10.524646471707433"><ele>12.333333333333332</ele><time>2026-04-17T17:55:43Z</time></trkpt><trkpt lat="43.3103829094148" lon="10.524605075892406"><ele>12.166666666666666</ele><time>2026-04-17T17:55:46Z</time></trkpt><trkpt lat="43.310451345132044" lon="10.524621783573636"><ele>12.0</ele><time>2026-04-17T17:55:52Z</time></trkpt><trkpt lat="43.31056121664925" lon="10.524595640926039"><ele>12.333333333333334</ele><time>2026-04-17T17:55:59Z</time></trkpt><trkpt lat="43.31062134745974" lon="10.524539234666628"><ele>12.666666666666668</ele><time>2026-04-17T17:56:03Z</time></trkpt><trkpt lat="43.31068884267624" lon="10.524521660459625"><ele>13.0</ele><time>2026-04-17T17:56:06Z</time></trkpt><trkpt lat="43.31076486801421" lon="10.524451416665302"><ele>13.333333333333334</ele><time>2026-04-17T17:56:09Z</time></trkpt><trkpt lat="43.3107707610046" lon="10.524344269323834"><ele>13.666666666666668</ele><time>2026-04-17T17:56:15Z</time></trkpt><trkpt lat="43.310794406164845" lon="10.524253276144806"><ele>14.0</ele><time>2026-04-17T17:56:19Z</time></trkpt><trkpt lat="43.31081896425412" lon="10.524150124522974"><ele>14.0</ele><time>2026-04-17T17:56:24Z</time></trkpt><trkpt lat="43.31079668837055" lon="10.524043274123578"><ele>14.0</ele><time>2026-04-17T17:56:28Z</time></trkpt><trkpt lat="43.31077706383188" lon="10.523942029079254"><ele>14.0</ele><time>2026-04-17T17:56:32Z</time></trkpt><trkpt lat="43.31075864994506" lon="10.523848178932301"><ele>14.0</ele><time>2026-04-17T17:56:36Z</time></trkpt><trkpt lat="43.31073807409589" lon="10.523752827871805"><ele>14.0</ele><time>2026-04-17T17:56:40Z</time></trkpt><trkpt lat="43.31071615255068" lon="10.523654908589855"><ele>14.0</ele><time>2026-04-17T17:56:45Z</time></trkpt><trkpt lat="43.31073015117155" lon="10.52357000844716"><ele>14.0</ele><time>2026-04-17T17:56:50Z</time></trkpt><trkpt lat="43.31075385081661" lon="10.523489764054387"><ele>14.142857142857142</ele><time>2026-04-17T17:56:55Z</time></trkpt><trkpt lat="43.31080031318557" lon="10.523414270290575"><ele>14.285714285714285</ele><time>2026-04-17T17:57:01Z</time></trkpt><trkpt lat="43.3108502428257" lon="10.52336107063434"><ele>14.428571428571429</ele><time>2026-04-17T17:57:08Z</time></trkpt><trkpt lat="43.31089972923328" lon="10.5232990390971"><ele>14.571428571428571</ele><time>2026-04-17T17:57:14Z</time></trkpt><trkpt lat="43.310985568743654" lon="10.523283948512294"><ele>14.714285714285714</ele><time>2026-04-17T17:57:21Z</time></trkpt><trkpt lat="43.31106245702982" lon="10.52326115950172"><ele>14.857142857142858</ele><time>2026-04-17T17:57:23Z</time></trkpt><trkpt lat="43.31113148284274" lon="10.523273635104605"><ele>15.0</ele><time>2026-04-17T17:57:25Z</time></trkpt><trkpt lat="43.31119820117131" lon="10.523246565587385"><ele>15.0</ele><time>2026-04-17T17:57:27Z</time></trkpt><trkpt lat="43.3112769534035" lon="10.523211562662704"><ele>15.0</ele><time>2026-04-17T17:57:30Z</time></trkpt><trkpt lat="43.31129389259641" lon="10.523108361828466"><ele>15.0</ele><time>2026-04-17T17:57:46Z</time></trkpt></trkseg></trk></gpx>